Ship Status Report: callsign 000000

sailwx.info

Track history (hours):
 
Tides and Currents Weather Stations Pressure Air Temp Water Temp Dewpoint Dewpoint Depression Visibility Wind Speed Wind Dir Waves Ship Positions

Callsign 000000 (name unknown)

Last reported at 2017-Apr-30 05:00 UTC. Time now 2017-Apr-30 05:17 UTC.
Position N 24°25' E 118°02'.

Type: Fishing. MMSI: 200007452.

Date/timePositionNaut miles runAvg speedWind from/ knotsBaromVisibWave heightAir tempDewpointWater temp
2017-Apr-30 05:00N 24°25' E 118°02'461184337.0
2017-Apr-30 05:00N 31°30' E 121°25'0 9.6
2017-Apr-30 04:58N 31°29' E 121°25'127.5
2017-Apr-30 04:56N 31°29' E 121°25'263.8
2017-Apr-30 04:55N 31°31' E 121°23'266.8
2017-Apr-30 04:53N 31°31' E 121°25'155.0
2017-Apr-30 04:52N 31°29' E 121°25'3681598.5
2017-Apr-30 04:38N 37°22' E 119°19'3662946.9
2017-Apr-30 04:30N 31°31' E 121°23'4611660215.2
2017-Apr-30 04:30N 24°25' E 118°02'461207418.3
2017-Apr-30 04:30N 31°30' E 121°23'244.3
2017-Apr-30 04:28N 31°29' E 121°25'0322.7
2017-Apr-30 04:28N 31°29' E 121°25'1 1.3
2017-Apr-30 04:01N 31°29' E 121°25'1119.2
2017-Apr-30 04:00N 31°29' E 121°25'461829080.8
2017-Apr-30 04:00N 24°25' E 118°02'4619708.6
2017-Apr-30 03:58N 31°31' E 121°23'230.5
2017-Apr-30 03:53N 31°29' E 121°25'032.9
2017-Apr-30 03:52N 31°29' E 121°25'238.2
2017-Apr-30 03:49N 31°30' E 121°23'4611419.4
2017-Apr-30 03:30N 24°25' E 118°02'46130184.6
2017-Apr-30 03:29N 31°31' E 121°23'025.2
2017-Apr-30 03:28N 31°30' E 121°23'223.1
2017-Apr-30 03:23N 31°29' E 121°25'114.8
2017-Apr-30 03:20N 31°29' E 121°25'0 5.8
2017-Apr-30 03:18N 31°29' E 121°25'4283536.1
2017-Apr-30 03:10N 38°30' E 123°05'4193549.0
2017-Apr-30 03:03N 31°42' E 121°10'4678406.4
2017-Apr-30 03:00N 24°25' E 118°02'88290716.6
2017-Apr-30 02:59N 38°28' E 123°06'4269124.8
2017-Apr-30 02:57N 31°31' E 121°23'282.6
2017-Apr-30 02:55N 31°29' E 121°25'015.3
2017-Apr-30 02:54N 31°29' E 121°25'124.1
2017-Apr-30 02:52N 31°29' E 121°25'16280.1
2017-Apr-30 02:49N 31°41' E 121°11'153107.3
2017-Apr-30 02:49N 31°30' E 121°23'211.1
2017-Apr-30 02:38N 31°29' E 121°25'15120.3
2017-Apr-30 02:31N 31°40' E 121°12'466209881.1
2017-Apr-30 02:30N 24°25' E 118°02'87713327.4
2017-Apr-30 02:26N 38°23' E 123°07'42212654.0
2017-Apr-30 02:24N 31°29' E 121°25'249.9
2017-Apr-30 02:22N 31°30' E 121°23'2305.9
2017-Apr-30 02:22N 31°29' E 121°25'0 0.7
2017-Apr-30 02:03N 31°29' E 121°25'2197.1
2017-Apr-30 02:02N 31°31' E 121°23'11381.7
2017-Apr-30 02:00N 31°39' E 121°15'466279411.3
2017-Apr-30 02:00N 24°25' E 118°02'874142948.8
2017-Apr-30 02:00N 38°19' E 123°08'41814323.9
2017-Apr-30 01:58N 31°29' E 121°25'0 9.2
2017-Apr-30 01:56N 31°29' E 121°25'2215.9
2017-Apr-30 01:56N 31°30' E 121°23'237.8
2017-Apr-30 01:53N 31°29' E 121°25'251.3
2017-Apr-30 01:50N 31°31' E 121°23'2 6.0
2017-Apr-30 01:31N 31°29' E 121°25'461127544.1
2017-Apr-30 01:30N 24°25' E 118°02'46116753.8
2017-Apr-30 01:29N 31°29' E 121°25'230.9
2017-Apr-30 01:25N 31°31' E 121°23'320.0
2017-Apr-30 01:17N 31°29' E 121°25'221.9
2017-Apr-30 01:10N 31°30' E 121°23'17303.0
2017-Apr-30 01:07N 31°15' E 121°33'32280.4
2017-Apr-30 01:00N 31°06' E 120°56'334964.1
2017-Apr-30 01:00N 31°30' E 121°24'1367.2
2017-Apr-30 01:00N 31°29' E 121°25'1611224.6
2017-Apr-30 00:59N 31°15' E 121°32'450810030.3
2017-Apr-30 00:59N 24°25' E 118°02'46436290.4
2017-Apr-30 00:59N 31°35' E 121°19'6107.7
2017-Apr-30 00:55N 31°30' E 121°23'0 3.1
2017-Apr-30 00:48N 31°31' E 121°23'151306.1
2017-Apr-30 00:47N 31°41' E 121°11'46634935.6
2017-Apr-30 00:47N 24°27' E 118°01'2 6.0
2017-Apr-30 00:31N 24°25' E 118°02'1173.9
2017-Apr-30 00:30N 24°26' E 118°03'46063745.6
2017-Apr-30 00:30N 31°32' E 121°21'139.6
2017-Apr-30 00:28N 31°33' E 121°21'3234.1
2017-Apr-30 00:27N 31°31' E 121°23'40280437.4
2017-Apr-30 00:26N 38°03' E 123°12'40223752.7
2017-Apr-30 00:25N 31°30' E 121°23'250.7
2017-Apr-30 00:23N 31°29' E 121°25'0 1.9
2017-Apr-30 00:17N 31°29' E 121°25'17143.4
2017-Apr-30 00:09N 31°41' E 121°11'3472455.3
2017-Apr-30 00:01N 37°28' E 121°36'80476165.7
2017-Apr-30 00:00N 24°25' E 118°02'1369.0
2017-Apr-30 00:00N 24°25' E 118°03'461332078.2
2017-Apr-30 00:00N 31°32' E 121°23'35738894.7
2017-Apr-29 23:59N 37°28' E 121°36'35436441.7
2017-Apr-29 23:59N 31°34' E 121°19'794.4
2017-Apr-29 23:54N 31°29' E 121°25'2107.7
2017-Apr-29 23:54N 31°30' E 121°23'0 2.8
2017-Apr-29 23:46N 31°31' E 121°23'158925.0
2017-Apr-29 23:45N 31°41' E 121°11'3501399.6
2017-Apr-29 23:30N 37°30' E 121°38'807290385.1
2017-Apr-29 23:30N 24°25' E 118°02'1469.6
2017-Apr-29 23:30N 24°25' E 118°03'46420863.4
2017-Apr-29 23:29N 31°37' E 121°16'10125.9
2017-Apr-29 23:24N 31°29' E 121°25'17713.2
2017-Apr-29 23:22N 31°41' E 121°11'15174.6
2017-Apr-29 23:17N 31°30' E 121°23'212.7
2017-Apr-29 23:09N 31°29' E 121°25'3642633.5
2017-Apr-29 23:00N 37°33' E 121°40'810582885.4
2017-Apr-29 23:00N 24°25' E 118°02'46539897.8
2017-Apr-29 23:00N 31°39' E 121°13'13394.3
2017-Apr-29 22:58N 31°29' E 121°25'46051735.6
2017-Apr-29 22:57N 24°25' E 118°03'4665381.2
2017-Apr-29 22:52N 31°41' E 121°11'156697.7
2017-Apr-29 22:52N 31°31' E 121°23'032.0
2017-Apr-29 22:51N 31°30' E 121°23'2 8.5
2017-Apr-29 22:38N 31°29' E 121°25'4613419.9
2017-Apr-29 22:30N 24°25' E 118°02'1397.6
2017-Apr-29 22:30N 24°25' E 118°03'46620699.0
2017-Apr-29 22:29N 31°41' E 121°11'15120.2
2017-Apr-29 22:21N 31°30' E 121°23'022.5
2017-Apr-29 22:20N 31°31' E 121°23'229.1
2017-Apr-29 22:16N 31°29' E 121°25'17136.3
2017-Apr-29 22:09N 31°41' E 121°11'4673271.3
2017-Apr-29 22:00N 24°25' E 118°02'46197649.9
2017-Apr-29 22:00N 31°31' E 121°23'2176.7
2017-Apr-29 21:59N 31°29' E 121°25'19569.5
2017-Apr-29 21:58N 31°42' E 121°08'17101.9
2017-Apr-29 21:47N 31°30' E 121°23'227.4
2017-Apr-29 21:44N 31°29' E 121°25'4612118.3
2017-Apr-29 21:30N 24°25' E 118°02'1224.5
2017-Apr-29 21:30N 24°25' E 118°03'46044749.2
2017-Apr-29 21:29N 31°29' E 121°25'011.0
2017-Apr-29 21:28N 31°29' E 121°25'17128.9
2017-Apr-29 21:20N 31°41' E 121°11'15284.7
2017-Apr-29 21:17N 31°30' E 121°23'4611660.9
2017-Apr-29 21:01N 24°25' E 118°02'461276394.9
2017-Apr-29 21:00N 31°29' E 121°25'46087145.5
2017-Apr-29 21:00N 24°25' E 118°03'46025887.9
2017-Apr-29 20:59N 31°30' E 121°23'228.4
2017-Apr-29 20:55N 31°30' E 121°25'1763.9
2017-Apr-29 20:39N 31°41' E 121°11'4673125.5
2017-Apr-29 20:30N 24°25' E 118°02'1245.9
2017-Apr-29 20:30N 24°25' E 118°03'46068991.8
2017-Apr-29 20:30N 31°29' E 121°25'0 8.4
2017-Apr-29 20:29N 31°30' E 121°25'0 9.0
2017-Apr-29 20:27N 31°29' E 121°25'2150.9
2017-Apr-29 20:27N 31°30' E 121°23'15145.5
2017-Apr-29 20:20N 31°41' E 121°11'4671403.6
2017-Apr-29 20:00N 24°25' E 118°02'1235.0
2017-Apr-29 20:00N 24°25' E 118°03'4605833.4
2017-Apr-29 19:55N 31°30' E 121°23'280.4
2017-Apr-29 19:54N 31°30' E 121°25'0 5.4
2017-Apr-29 19:52N 31°29' E 121°25'4611294.5
2017-Apr-29 19:30N 24°25' E 118°02'1286.5
2017-Apr-29 19:30N 24°25' E 118°03'46021508.9
2017-Apr-29 19:29N 31°30' E 121°25'265.5
2017-Apr-29 19:27N 31°30' E 121°23'220.5
2017-Apr-29 19:22N 31°29' E 121°25'17336.7
2017-Apr-29 19:19N 31°41' E 121°11'4661447.5
2017-Apr-29 19:00N 24°25' E 118°03'12581.5
2017-Apr-29 19:00N 24°25' E 118°02'46111287.8
2017-Apr-29 18:58N 31°30' E 121°23'21070.1
2017-Apr-29 18:57N 31°30' E 121°25'18554.2
2017-Apr-29 18:56N 31°42' E 121°09'134.2
2017-Apr-29 18:53N 31°41' E 121°11'17535.2
2017-Apr-29 18:52N 31°29' E 121°25'4611304.8
2017-Apr-29 18:30N 24°25' E 118°02'1233.9
2017-Apr-29 18:30N 24°25' E 118°03'46554043.2
2017-Apr-29 18:30N 31°40' E 121°13'13601.9
2017-Apr-29 18:28N 31°30' E 121°23'276.8
2017-Apr-29 18:27N 31°30' E 121°25'17309.8
2017-Apr-29 18:24N 31°41' E 121°11'1794.9
2017-Apr-29 18:13N 31°29' E 121°25'0 0.7
2017-Apr-29 18:00N 31°30' E 121°25'461276469.8
2017-Apr-29 18:00N 24°25' E 118°02'461184378.9
2017-Apr-29 18:00N 31°30' E 121°23'460236691.5
2017-Apr-29 18:00N 24°25' E 118°03'464334060.5
2017-Apr-29 18:00N 31°37' E 121°17'25167.5
2017-Apr-29 17:51N 31°14' E 121°29'31149.1
2017-Apr-29 17:38N 31°41' E 121°11'32277.7
2017-Apr-29 17:32N 31°14' E 121°29'211208.4
2017-Apr-29 17:31N 31°34' E 121°20'4621663169.4
2017-Apr-29 17:31N 24°25' E 118°04'449179572.3
2017-Apr-29 17:30N 31°15' E 121°31'1655990.1
2017-Apr-29 17:30N 31°30' E 121°25'46134560.4
2017-Apr-29 17:30N 24°25' E 118°02'44913688.5
2017-Apr-29 17:28N 31°14' E 121°29'311585.8
2017-Apr-29 17:26N 31°41' E 121°11'156098.3
2017-Apr-29 17:26N 31°30' E 121°23'0 2.9
2017-Apr-29 17:18N 31°31' E 121°23'2 7.2
2017-Apr-29 17:03N 31°29' E 121°25'259.7
2017-Apr-29 17:01N 31°31' E 121°23'462831490.0
2017-Apr-29 17:00N 24°23' E 118°08'610417.7
2017-Apr-29 17:00N 24°25' E 118°02'46137712.2
2017-Apr-29 17:00N 31°30' E 121°23'15123.8
2017-Apr-29 16:52N 31°41' E 121°11'15372.1
2017-Apr-29 16:50N 31°31' E 121°23'227.0
2017-Apr-29 16:45N 31°30' E 121°25'4611861.8
2017-Apr-29 16:30N 24°25' E 118°02'461110590.6
2017-Apr-29 16:30N 31°30' E 121°25'023.6
2017-Apr-29 16:30N 31°29' E 121°25'2295.0
2017-Apr-29 16:29N 31°30' E 121°23'46369403.7
2017-Apr-29 16:29N 24°20' E 118°11'46221344.1
2017-Apr-29 16:28N 31°29' E 121°25'17798.7
2017-Apr-29 16:26N 31°41' E 121°11'15189.4
2017-Apr-29 16:22N 31°31' E 121°23'0 1.6
2017-Apr-29 16:12N 31°30' E 121°23'4612426.1
2017-Apr-29 16:01N 24°25' E 118°02'12463.3
2017-Apr-29 15:59N 24°15' E 118°09'4678496.4
2017-Apr-29 15:56N 31°29' E 121°25'0 2.6
2017-Apr-29 15:50N 31°29' E 121°25'21400.0
2017-Apr-29 15:50N 31°31' E 121°23'0 7.0
2017-Apr-29 15:46N 31°30' E 121°23'4611750.3
2017-Apr-29 15:30N 24°25' E 118°02'461276451.8
2017-Apr-29 15:30N 31°29' E 121°25'47120192.2
2017-Apr-29 15:29N 24°13' E 118°05'471130521.9
2017-Apr-29 15:29N 31°30' E 121°23'244.5
2017-Apr-29 15:27N 31°29' E 121°25'299.5
2017-Apr-29 15:25N 31°31' E 121°23'1379.3
2017-Apr-29 15:16N 31°40' E 121°13'4661849.1
2017-Apr-29 15:01N 24°25' E 118°02'4616634.7
2017-Apr-29 14:56N 31°29' E 121°25'149961.9
2017-Apr-29 14:56N 31°39' E 121°13'12208.7
2017-Apr-29 14:53N 31°31' E 121°23'2 8.8
2017-Apr-29 14:39N 31°29' E 121°25'014.9
2017-Apr-29 14:38N 31°29' E 121°25'2123.2
2017-Apr-29 14:37N 31°30' E 121°23'4614066.8
2017-Apr-29 14:30N 24°25' E 118°02'46182923.5
2017-Apr-29 14:30N 31°29' E 121°25'461935.4
2017-Apr-29 14:01N 24°25' E 118°02'46175461.9
2017-Apr-29 14:00N 31°31' E 121°23'2209.0
2017-Apr-29 14:00N 31°29' E 121°25'0 8.3
2017-Apr-29 13:57N 31°29' E 121°25'215.2
2017-Apr-29 13:50N 31°30' E 121°23'121082.9
2017-Apr-29 13:49N 31°39' E 121°13'13112.2
2017-Apr-29 13:43N 31°30' E 121°24'4602276.8
2017-Apr-29 13:31N 24°25' E 118°02'46520682.9
2017-Apr-29 13:29N 31°39' E 121°13'12188.5
2017-Apr-29 13:25N 31°30' E 121°23'1197.2
2017-Apr-29 13:25N 31°31' E 121°22'3219.6
2017-Apr-29 13:24N 31°29' E 121°25'224.6
2017-Apr-29 13:20N 31°31' E 121°23'7144.5
2017-Apr-29 13:17N 31°26' E 121°29'10401.9
2017-Apr-29 13:15N 31°32' E 121°20'1 2.2
2017-Apr-29 13:00N 31°33' E 121°20'462277115.0
2017-Apr-29 13:00N 24°25' E 118°02'46071969.7
2017-Apr-29 13:00N 31°28' E 121°27'94102.5
2017-Apr-29 13:00N 31°34' E 121°19'7131.4
2017-Apr-29 12:57N 31°39' E 121°13'133006.2
2017-Apr-29 12:56N 31°29' E 121°25'2993.1
2017-Apr-29 12:56N 31°30' E 121°23'226.3
2017-Apr-29 12:52N 31°29' E 121°25'218.2
2017-Apr-29 12:45N 31°31' E 121°23'4611822.2
2017-Apr-29 12:30N 24°25' E 118°02'46141478.0
2017-Apr-29 12:29N 31°31' E 121°22'196.7
2017-Apr-29 12:29N 31°31' E 121°23'76142.3
2017-Apr-29 12:29N 31°35' E 121°17'9931.7
2017-Apr-29 12:28N 31°29' E 121°25'0 3.9
2017-Apr-29 12:25N 31°29' E 121°25'12101.3
2017-Apr-29 12:18N 31°38' E 121°15'146.2
2017-Apr-29 12:16N 31°39' E 121°13'12180.6
2017-Apr-29 12:12N 31°30' E 121°23'15144.7
2017-Apr-29 12:06N 31°41' E 121°11'435.1
2017-Apr-29 12:00N 31°39' E 121°13'46598540.4
2017-Apr-29 12:00N 24°25' E 118°02'46515797.7
2017-Apr-29 11:58N 31°38' E 121°14'12139.7
2017-Apr-29 11:53N 31°29' E 121°25'2 9.8
2017-Apr-29 11:40N 31°31' E 121°23'011.1
2017-Apr-29 11:38N 31°30' E 121°23'4613406.9
2017-Apr-29 11:30N 24°25' E 118°02'46514561.0
2017-Apr-29 11:28N 31°38' E 121°14'1112817.9
2017-Apr-29 11:28N 31°30' E 121°23'36648736.7
2017-Apr-29 11:28N 37°36' E 121°40'35853643.8
2017-Apr-29 11:28N 31°39' E 121°13'13388.0
2017-Apr-29 11:25N 31°29' E 121°25'0 1.5
2017-Apr-29 11:17N 31°29' E 121°25'2113.4
2017-Apr-29 11:16N 31°31' E 121°23'213.1
2017-Apr-29 11:06N 31°29' E 121°25'0 1.8
2017-Apr-29 11:00N 31°29' E 121°25'461829311.0
2017-Apr-29 11:00N 24°25' E 118°02'46776353.2
2017-Apr-29 11:00N 31°41' E 121°10'17808.2
2017-Apr-29 10:59N 31°29' E 121°25'3694453.5
2017-Apr-29 10:54N 37°38' E 121°41'360161924.3
2017-Apr-29 10:54N 31°39' E 121°13'134811.4
2017-Apr-29 10:53N 31°29' E 121°25'285.5
2017-Apr-29 10:52N 31°30' E 121°23'0 1.7
2017-Apr-29 10:40N 31°31' E 121°23'4612959.1
2017-Apr-29 10:30N 24°25' E 118°02'81875548.4
2017-Apr-29 10:30N 37°42' E 121°40'364100769.0
2017-Apr-29 10:29N 31°39' E 121°13'13907.8
2017-Apr-29 10:29N 31°29' E 121°25'260.5
2017-Apr-29 10:27N 31°31' E 121°23'0 6.4
2017-Apr-29 10:23N 31°30' E 121°23'2108.4
2017-Apr-29 10:22N 31°29' E 121°25'4611272.9
2017-Apr-29 10:01N 24°25' E 118°02'461829589.5
2017-Apr-29 10:00N 31°30' E 121°23'21189.4
2017-Apr-29 10:00N 31°29' E 121°25'17187.3
2017-Apr-29 09:55N 31°41' E 121°11'171851.5
2017-Apr-29 09:54N 31°29' E 121°25'229.5
2017-Apr-29 09:50N 31°31' E 121°23'0 0.0
2017-Apr-29 09:30N 31°31' E 121°23'461207508.5
2017-Apr-29 09:30N 24°25' E 118°02'46124764.2
2017-Apr-29 09:29N 31°30' E 121°23'232.5
2017-Apr-29 09:26N 31°29' E 121°25'17118.0
2017-Apr-29 09:17N 31°41' E 121°11'4671685.0
2017-Apr-29 09:00N 24°25' E 118°02'4611659218.6
2017-Apr-29 09:00N 31°30' E 121°23'0 3.5
2017-Apr-29 08:54N 31°31' E 121°23'243.7
2017-Apr-29 08:51N 31°29' E 121°25'0 4.5
2017-Apr-29 08:48N 31°30' E 121°25'4611546.0
2017-Apr-29 08:30N 24°25' E 118°02'461276467.4
2017-Apr-29 08:30N 31°30' E 121°25'252.1
2017-Apr-29 08:28N 31°30' E 121°23'2125.5
2017-Apr-29 08:27N 31°29' E 121°25'22439.6
2017-Apr-29 08:27N 31°31' E 121°23'215.5
2017-Apr-29 08:19N 31°29' E 121°25'4611502.3
2017-Apr-29 08:00N 24°25' E 118°02'4614015.2
2017-Apr-29 07:54N 31°29' E 121°25'044.2
2017-Apr-29 07:53N 31°29' E 121°25'233.1
2017-Apr-29 07:49N 31°30' E 121°23'2626.8
2017-Apr-29 07:49N 31°30' E 121°25'227.0
2017-Apr-29 07:45N 31°31' E 121°23'4611962.3
2017-Apr-29 07:30N 24°25' E 118°02'4611309.2
2017-Apr-29 07:09N 31°30' E 121°25'0 1.9
2017-Apr-29 07:02N 31°29' E 121°25'46113373.8
2017-Apr-29 07:00N 24°25' E 118°02'4616241.3
2017-Apr-29 06:56N 31°31' E 121°23'2179.1
2017-Apr-29 06:55N 31°30' E 121°25'242.5
2017-Apr-29 06:53N 31°30' E 121°23'215.2
2017-Apr-29 06:46N 31°29' E 121°25'4611716.5
2017-Apr-29 06:30N 24°25' E 118°02'46132525.5
2017-Apr-29 06:29N 31°30' E 121°25'17692.9
2017-Apr-29 06:28N 31°41' E 121°11'15164.6
2017-Apr-29 06:22N 31°30' E 121°23'4611262.9
2017-Apr-29 06:01N 24°25' E 118°02'46182964.9
2017-Apr-29 06:00N 31°30' E 121°23'6742083.6
2017-Apr-29 05:41N 22°18' E 114°09'6774158.9
2017-Apr-29 05:31N 31°41' E 121°11'46739101.7
2017-Apr-29 05:30N 24°25' E 118°02'461276549.5
2017-Apr-29 05:30N 31°30' E 121°23'220.1
2017-Apr-29 05:25N 31°29' E 121°25'67418960.1
2017-Apr-29 05:23N 22°19' E 114°09'6744080.1
2017-Apr-29 05:13N 31°30' E 121°25'15233.1
2017-Apr-29 05:09N 31°15' E 121°30'311314.4
2017-Apr-29 05:08N 31°41' E 121°11'153131.5
2017-Apr-29 05:08N 31°31' E 121°23'4613773.5
2017-Apr-29 05:00N 24°25' E 118°02'46131309.4
2017-Apr-29 04:59N 31°30' E 121°23'171283.2
2017-Apr-29 04:59N 31°15' E 121°31'154270.6
2017-Apr-29 04:58N 31°29' E 121°25'036.0
2017-Apr-29 04:58N 31°29' E 121°25'14209.8
2017-Apr-29 04:54N 31°40' E 121°14'12350.4
2017-Apr-29 04:51N 31°31' E 121°23'2838.5
2017-Apr-29 04:51N 31°30' E 121°25'17159.9
2017-Apr-29 04:45N 31°41' E 121°11'4671885.0
2017-Apr-29 04:30N 24°25' E 118°02'46129622.5
2017-Apr-29 04:29N 31°30' E 121°25'220.2
2017-Apr-29 04:23N 31°31' E 121°23'0 7.2
2017-Apr-29 04:20N 31°30' E 121°23'15398.6
2017-Apr-29 04:18N 31°41' E 121°11'17794.7
2017-Apr-29 04:17N 31°29' E 121°25'1487.3
2017-Apr-29 04:07N 31°40' E 121°14'4674210.9
2017-Apr-29 04:00N 24°25' E 118°02'46118653.5
2017-Apr-29 03:59N 31°31' E 121°23'12732.4
2017-Apr-29 03:58N 31°40' E 121°14'132159.2
2017-Apr-29 03:58N 31°30' E 121°23'246.8
2017-Apr-29 03:55N 31°29' E 121°25'0 1.5
2017-Apr-29 03:46N 31°29' E 121°25'6749668.0
2017-Apr-29 03:42N 22°19' E 114°09'2481262.0
2017-Apr-29 03:30N 24°25' E 118°02'461552771.8
2017-Apr-29 03:30N 31°29' E 121°25'229.9
2017-Apr-29 03:26N 31°31' E 121°23'2 9.7
2017-Apr-29 03:13N 31°29' E 121°25'4612105.1
2017-Apr-29 03:00N 24°25' E 118°02'4619476.1
2017-Apr-29 02:57N 31°29' E 121°25'14146.1
2017-Apr-29 02:52N 31°40' E 121°14'13172.6
2017-Apr-29 02:47N 31°30' E 121°23'211.6
2017-Apr-29 02:38N 31°29' E 121°25'21265.9
2017-Apr-29 02:38N 31°31' E 121°23'0 3.0
2017-Apr-29 02:30N 31°30' E 121°23'46163817.2
2017-Apr-29 02:30N 24°25' E 118°02'4618377.2
2017-Apr-29 02:27N 31°29' E 121°25'076.8
2017-Apr-29 02:27N 31°29' E 121°25'14930.2
2017-Apr-29 02:26N 31°40' E 121°14'141000.9
2017-Apr-29 02:25N 31°29' E 121°25'241.5
2017-Apr-29 02:22N 31°31' E 121°23'4611301.1
2017-Apr-29 02:00N 24°25' E 118°02'46131890.8
2017-Apr-29 01:59N 31°29' E 121°25'246.2
2017-Apr-29 01:57N 31°30' E 121°23'0 5.3
2017-Apr-29 01:53N 31°31' E 121°23'276.6
2017-Apr-29 01:51N 31°29' E 121°25'1454.0
2017-Apr-29 01:36N 31°40' E 121°14'4675283.3
2017-Apr-29 01:30N 24°25' E 118°02'4679941.4
2017-Apr-29 01:27N 31°40' E 121°14'13180.9
2017-Apr-29 01:23N 31°30' E 121°23'2158.3
2017-Apr-29 01:23N 31°29' E 121°25'0 3.1
2017-Apr-29 01:18N 31°29' E 121°25'265.2
2017-Apr-29 01:17N 31°31' E 121°23'4611711.4
2017-Apr-29 01:01N 24°25' E 118°02'46669890.8
2017-Apr-29 01:00N 31°39' E 121°14'1139453.3
2017-Apr-29 01:00N 31°31' E 121°23'014.9
2017-Apr-29 00:59N 31°30' E 121°23'286.2
2017-Apr-29 00:57N 31°29' E 121°25'094.6
2017-Apr-29 00:57N 31°29' E 121°25'0 1.4
2017-Apr-29 00:50N 31°29' E 121°25'4611363.8
2017-Apr-29 00:30N 24°25' E 118°02'46517097.1
2017-Apr-29 00:28N 31°38' E 121°16'115042.0
2017-Apr-29 00:28N 31°29' E 121°25'23250.8
2017-Apr-29 00:28N 31°30' E 121°23'2141.9
2017-Apr-29 00:28N 31°29' E 121°25'229.3
2017-Apr-29 00:24N 31°31' E 121°23'4611199.5
2017-Apr-29 00:00N 24°25' E 118°02'46122134.0
2017-Apr-28 23:59N 31°31' E 121°23'71470.0
2017-Apr-28 23:59N 31°36' E 121°18'9767.9
2017-Apr-28 23:58N 31°29' E 121°25'0 1.8
2017-Apr-28 23:51N 31°29' E 121°25'256.6
2017-Apr-28 23:49N 31°30' E 121°23'2 5.2
2017-Apr-28 23:30N 31°29' E 121°25'7508.3
2017-Apr-28 23:30N 31°35' E 121°19'667.9
2017-Apr-28 23:25N 31°30' E 121°23'012.4
2017-Apr-28 23:23N 31°31' E 121°23'2281.3
2017-Apr-28 23:22N 31°29' E 121°25'513.8
2017-Apr-28 23:00N 31°33' E 121°21'462554969.3
2017-Apr-28 23:00N 24°25' E 118°02'46114435.2
2017-Apr-28 22:58N 31°31' E 121°23'213.0
2017-Apr-28 22:49N 31°29' E 121°25'015.6
2017-Apr-28 22:49N 31°29' E 121°25'2270.5
2017-Apr-28 22:48N 31°30' E 121°23'249.5
2017-Apr-28 22:46N 31°29' E 121°25'310.9
2017-Apr-28 22:30N 31°32' E 121°23'46266525.9
2017-Apr-28 22:30N 24°25' E 118°02'46122407.4
2017-Apr-28 22:29N 31°29' E 121°25'0 4.8
2017-Apr-28 22:25N 31°29' E 121°25'278.9
2017-Apr-28 22:23N 31°30' E 121°23'016.6
2017-Apr-28 22:22N 31°31' E 121°23'2 9.5
2017-Apr-28 22:09N 31°29' E 121°25'4613350.8
2017-Apr-28 22:00N 24°25' E 118°02'4613343.1
2017-Apr-28 21:52N 31°29' E 121°25'0 4.5
2017-Apr-28 21:49N 31°29' E 121°25'17303.7
2017-Apr-28 21:46N 31°41' E 121°11'15104.1
2017-Apr-28 21:37N 31°31' E 121°23'217.1
2017-Apr-28 21:30N 31°29' E 121°25'21187.0
2017-Apr-28 21:30N 31°30' E 121°23'461237022.7
2017-Apr-28 21:30N 24°25' E 118°02'46130157.1
2017-Apr-28 21:29N 31°29' E 121°25'230.3
2017-Apr-28 21:25N 31°31' E 121°23'153829.5
2017-Apr-28 21:25N 31°41' E 121°11'1757.2
2017-Apr-28 21:07N 31°29' E 121°25'4614094.9
2017-Apr-28 21:00N 24°25' E 118°02'46110111.1
2017-Apr-28 20:58N 31°29' E 121°25'273.0
2017-Apr-28 20:56N 31°30' E 121°23'238.1
2017-Apr-28 20:53N 31°29' E 121°25'0 1.2
2017-Apr-28 20:47N 31°29' E 121°25'4611678.7
2017-Apr-28 20:30N 24°25' E 118°02'46129104.2
2017-Apr-28 20:29N 31°30' E 121°25'073.0
2017-Apr-28 20:29N 31°29' E 121°25'035.1
2017-Apr-28 20:29N 31°29' E 121°25'1736.7
2017-Apr-28 20:01N 31°41' E 121°11'46748043.4
2017-Apr-28 20:00N 24°25' E 118°02'46118429.5
2017-Apr-28 19:59N 31°29' E 121°25'171101.1
2017-Apr-28 19:58N 31°41' E 121°11'17172.1
2017-Apr-28 19:52N 31°29' E 121°25'018.3
2017-Apr-28 19:52N 31°30' E 121°25'2 8.5
2017-Apr-28 19:39N 31°30' E 121°23'4613130.7
2017-Apr-28 19:30N 24°25' E 118°02'461236970.0
2017-Apr-28 19:30N 31°30' E 121°25'0 2.7
2017-Apr-28 19:27N 31°29' E 121°25'0 8.2
2017-Apr-28 19:25N 31°29' E 121°25'274.0
2017-Apr-28 19:23N 31°30' E 121°23'15714.2
2017-Apr-28 19:22N 31°41' E 121°11'1777.4
2017-Apr-28 19:09N 31°29' E 121°25'4613316.9
2017-Apr-28 19:00N 24°25' E 118°02'46124045.9
2017-Apr-28 18:59N 31°30' E 121°23'15217.7
2017-Apr-28 18:55N 31°41' E 121°11'17285.9
2017-Apr-28 18:51N 31°29' E 121°25'054.8
2017-Apr-28 18:51N 31°29' E 121°25'0 2.2
2017-Apr-28 18:43N 31°30' E 121°25'4612154.3
2017-Apr-28 18:31N 24°25' E 118°02'46125511.9
2017-Apr-28 18:29N 31°29' E 121°25'2130.9
2017-Apr-28 18:29N 31°30' E 121°23'151338.7
2017-Apr-28 18:28N 31°41' E 121°11'174354.4
2017-Apr-28 18:28N 31°30' E 121°25'015.6
2017-Apr-28 18:27N 31°29' E 121°25'224.0
2017-Apr-28 18:21N 31°31' E 121°23'4611360.9
2017-Apr-28 18:00N 24°25' E 118°02'46124395.4
2017-Apr-28 17:59N 31°30' E 121°25'2129.0
2017-Apr-28 17:58N 31°30' E 121°23'021.4
2017-Apr-28 17:57N 31°31' E 121°23'15264.1
2017-Apr-28 17:54N 31°41' E 121°11'212.2
2017-Apr-28 17:46N 31°40' E 121°12'16210.3
2017-Apr-28 17:42N 31°29' E 121°25'4612379.8
2017-Apr-28 17:30N 24°25' E 118°02'461552953.2
2017-Apr-28 17:30N 31°30' E 121°25'17814.2
2017-Apr-28 17:29N 31°41' E 121°11'151249.5
2017-Apr-28 17:28N 31°30' E 121°23'1051.0
2017-Apr-28 17:17N 31°38' E 121°16'5146.5
2017-Apr-28 17:15N 31°41' E 121°11'14401.9
2017-Apr-28 17:13N 31°31' E 121°23'234.3
2017-Apr-28 17:09N 31°29' E 121°25'4613054.0
2017-Apr-28 17:00N 24°25' E 118°02'46633568.7
2017-Apr-28 17:00N 31°40' E 121°13'14267.8
2017-Apr-28 16:56N 31°30' E 121°25'171327.2
2017-Apr-28 16:56N 31°41' E 121°11'9574.4
2017-Apr-28 16:55N 31°35' E 121°18'63816.9
2017-Apr-28 16:55N 31°30' E 121°23'2625.6
2017-Apr-28 16:54N 31°29' E 121°25'0 1.2
2017-Apr-28 16:37N 31°29' E 121°25'4614285.9
2017-Apr-28 16:30N 24°25' E 118°02'46739086.0
2017-Apr-28 16:30N 31°41' E 121°10'72563.3
2017-Apr-28 16:29N 31°37' E 121°17'1012214.8
2017-Apr-28 16:29N 31°29' E 121°25'0 5.3
2017-Apr-28 16:26N 31°30' E 121°25'226.4
2017-Apr-28 16:22N 31°30' E 121°23'235.0
2017-Apr-28 16:20N 31°32' E 121°22'4621436.3
2017-Apr-28 16:00N 24°25' E 118°02'461184370.8
2017-Apr-28 16:00N 31°30' E 121°23'2014495.7
2017-Apr-28 16:00N 31°44' E 121°06'15523.3
2017-Apr-28 15:58N 31°34' E 121°19'597.0
2017-Apr-28 15:55N 31°31' E 121°23'21079.8
2017-Apr-28 15:55N 31°30' E 121°25'013.2
2017-Apr-28 15:54N 31°29' E 121°25'4611139.8
2017-Apr-28 15:30N 24°25' E 118°02'46238698.9
2017-Apr-28 15:29N 31°32' E 121°22'2968.9
2017-Apr-28 15:29N 31°30' E 121°23'2 5.8
2017-Apr-28 15:12N 31°29' E 121°25'025.0
2017-Apr-28 15:12N 31°29' E 121°25'2118.3
2017-Apr-28 15:11N 31°31' E 121°23'4612618.7
2017-Apr-28 15:00N 24°25' E 118°02'46220031.6
2017-Apr-28 14:59N 31°31' E 121°25'244.4
2017-Apr-28 14:57N 31°29' E 121°25'049.6
2017-Apr-28 14:56N 31°29' E 121°25'264.4
2017-Apr-28 14:55N 31°31' E 121°23'018.0
2017-Apr-28 14:53N 31°30' E 121°23'294.1
2017-Apr-28 14:52N 31°29' E 121°25'461533.0
2017-Apr-28 14:00N 24°25' E 118°02'46132514.4
2017-Apr-28 14:00N 31°29' E 121°25'21986.3
2017-Apr-28 13:59N 31°30' E 121°23'295.5
2017-Apr-28 13:58N 31°29' E 121°25'0 2.7
2017-Apr-28 13:55N 31°29' E 121°25'2142.9
2017-Apr-28 13:54N 31°31' E 121°23'4611182.5
2017-Apr-28 13:30N 24°25' E 118°02'461236858.4
2017-Apr-28 13:30N 31°29' E 121°25'2160.6
2017-Apr-28 13:30N 31°31' E 121°23'21901.8
2017-Apr-28 13:29N 31°29' E 121°25'0 3.6
2017-Apr-28 13:27N 31°29' E 121°25'5192.9
2017-Apr-28 13:25N 31°26' E 121°30'7112.7
2017-Apr-28 13:21N 31°30' E 121°23'4611319.0
2017-Apr-28 13:00N 24°25' E 118°02'46050205.6
2017-Apr-28 13:00N 31°28' E 121°26'3188.1
2017-Apr-28 12:59N 31°30' E 121°23'2224.2
2017-Apr-28 12:58N 31°29' E 121°25'15945.0
2017-Apr-28 12:57N 31°15' E 121°32'176237.8
2017-Apr-28 12:57N 31°31' E 121°23'2116.4
2017-Apr-28 12:56N 31°29' E 121°25'2264.7
2017-Apr-28 12:55N 31°28' E 121°27'2 6.0
2017-Apr-28 12:30N 31°29' E 121°25'4171.5
2017-Apr-28 12:29N 31°27' E 121°29'71344.7
2017-Apr-28 12:29N 31°31' E 121°22'11436.4
2017-Apr-28 12:29N 31°31' E 121°23'2135.6
2017-Apr-28 12:28N 31°29' E 121°25'2 5.5
2017-Apr-28 12:04N 31°28' E 121°27'4156.6
2017-Apr-28 12:03N 31°30' E 121°23'0 7.8
2017-Apr-28 12:00N 31°31' E 121°23'81804.5
2017-Apr-28 12:00N 31°26' E 121°30'610373.5
2017-Apr-28 12:00N 31°29' E 121°25'81455.0
2017-Apr-28 12:00N 31°34' E 121°18'678.7
2017-Apr-28 11:55N 31°30' E 121°23'386.9
2017-Apr-28 11:53N 31°29' E 121°25'1 8.3
2017-Apr-28 11:47N 31°29' E 121°25'2 6.9
2017-Apr-28 11:30N 31°30' E 121°23'101692.5
2017-Apr-28 11:30N 31°38' E 121°15'12580.3
2017-Apr-28 11:29N 31°29' E 121°25'228.9
2017-Apr-28 11:25N 31°30' E 121°23'2540.9
2017-Apr-28 11:25N 31°29' E 121°25'225.9
2017-Apr-28 11:20N 31°31' E 121°23'1796.6
2017-Apr-28 11:09N 31°15' E 121°31'15103.8
2017-Apr-28 11:00N 31°29' E 121°25'153017.3
2017-Apr-28 11:00N 31°15' E 121°30'172768.8
2017-Apr-28 10:59N 31°31' E 121°23'2118.7
2017-Apr-28 10:58N 31°29' E 121°25'53275.4
2017-Apr-28 10:58N 31°33' E 121°20'8212.4
2017-Apr-28 10:56N 31°38' E 121°14'1330.0
2017-Apr-28 10:30N 31°29' E 121°25'1412284.5
2017-Apr-28 10:30N 31°39' E 121°13'5109.6
2017-Apr-28 10:27N 31°36' E 121°17'9198.4
2017-Apr-28 10:24N 31°29' E 121°25'239.2
2017-Apr-28 10:22N 31°30' E 121°23'1774.4
2017-Apr-28 10:08N 31°16' E 121°34'17182.3
2017-Apr-28 10:03N 31°31' E 121°23'17455.0
2017-Apr-28 10:00N 31°15' E 121°33'17769.5
2017-Apr-28 09:59N 31°31' E 121°23'1323754.5
2017-Apr-28 09:59N 31°41' E 121°13'151568.3
2017-Apr-28 09:58N 31°29' E 121°25'123159.0
2017-Apr-28 09:58N 31°38' E 121°15'12159.9
2017-Apr-28 09:53N 31°29' E 121°25'237.2
2017-Apr-28 09:50N 31°30' E 121°23'57296.9
2017-Apr-28 09:39N 31°58' E 120°25'1 6.7
2017-Apr-28 09:30N 31°58' E 120°26'441104.1
2017-Apr-28 09:28N 31°41' E 121°13'15773.1
2017-Apr-28 09:27N 31°29' E 121°25'131593.8
2017-Apr-28 09:26N 31°39' E 121°14'12457.7
2017-Apr-28 09:25N 31°30' E 121°23'0 4.0
2017-Apr-28 09:19N 31°31' E 121°23'2 7.1
2017-Apr-28 09:00N 31°29' E 121°25'0 1.7
2017-Apr-28 08:54N 31°29' E 121°25'15571.8
2017-Apr-28 08:53N 31°41' E 121°13'13354.5
2017-Apr-28 08:50N 31°31' E 121°23'9185.4
2017-Apr-28 08:48N 31°37' E 121°16'983.2
2017-Apr-28 08:41N 31°30' E 121°23'737.5
2017-Apr-28 08:29N 31°36' E 121°18'6625.9
2017-Apr-28 08:29N 31°41' E 121°13'15350.4
2017-Apr-28 08:26N 31°29' E 121°25'219.4
2017-Apr-28 08:20N 31°30' E 121°23'2 8.9
2017-Apr-28 08:09N 31°30' E 121°25'641.1
2017-Apr-28 07:59N 31°34' E 121°19'9380.2
2017-Apr-28 07:58N 31°41' E 121°13'16752.4
2017-Apr-28 07:56N 31°29' E 121°25'122.7
2017-Apr-28 07:55N 31°29' E 121°25'0 7.3
2017-Apr-28 07:53N 31°30' E 121°25'217.1
2017-Apr-28 07:47N 31°30' E 121°23'0 1.4
2017-Apr-28 07:30N 31°30' E 121°23'2422.0
2017-Apr-28 07:30N 31°30' E 121°25'3127.7
2017-Apr-28 07:28N 31°32' E 121°22'122651.9
2017-Apr-28 07:28N 31°41' E 121°13'13401.0
2017-Apr-28 07:26N 31°30' E 121°23'237.5
2017-Apr-28 07:23N 31°29' E 121°25'2 5.1
2017-Apr-28 07:00N 31°30' E 121°23'2170.5
2017-Apr-28 06:59N 31°32' E 121°21'11938.3
2017-Apr-28 06:59N 31°41' E 121°13'1555.1
2017-Apr-28 06:42N 31°30' E 121°25'2 8.3
2017-Apr-28 06:29N 31°30' E 121°23'5200.8
2017-Apr-28 06:28N 31°33' E 121°19'643.8
2017-Apr-28 06:19N 31°30' E 121°25'15149.3
2017-Apr-28 06:13N 31°41' E 121°13'0 0.1
2017-Apr-28 05:57N 31°41' E 121°13'2154.7
2017-Apr-28 05:56N 31°39' E 121°14'312.0
2017-Apr-28 05:39N 31°36' E 121°17'8470.4
2017-Apr-28 05:38N 31°30' E 121°23'13192.0
2017-Apr-28 05:34N 31°40' E 121°12'586.1
2017-Apr-28 05:30N 31°37' E 121°17'5717.4
2017-Apr-28 05:30N 31°40' E 121°13'4164.8
2017-Apr-28 05:28N 31°37' E 121°16'5676.6
2017-Apr-28 05:28N 31°41' E 121°13'15837.9
2017-Apr-28 05:27N 31°30' E 121°25'13341.4
2017-Apr-28 05:24N 31°39' E 121°14'1264.3
2017-Apr-28 05:13N 31°30' E 121°23'4618969.2
2017-Apr-28 05:10N 24°25' E 118°02'4642814.6
2017-Apr-28 05:01N 31°35' E 121°20'46455667.1
2017-Apr-28 05:00N 24°25' E 118°01'46523599.8
2017-Apr-28 04:59N 31°38' E 121°15'2831.7
2017-Apr-28 04:59N 31°38' E 121°16'9382.2
2017-Apr-28 04:57N 31°30' E 121°23'046.5
2017-Apr-28 04:57N 31°31' E 121°23'2261.1
2017-Apr-28 04:56N 31°30' E 121°25'15812.7
2017-Apr-28 04:55N 31°41' E 121°13'831.5
2017-Apr-28 04:41N 31°35' E 121°19'4662754.3
2017-Apr-28 04:31N 24°24' E 117°58'46664463.9
2017-Apr-28 04:30N 31°35' E 121°19'1172.8
2017-Apr-28 04:30N 31°34' E 121°20'3281.3
2017-Apr-28 04:29N 31°32' E 121°22'12203.0
2017-Apr-28 04:26N 31°41' E 121°13'152721.6
2017-Apr-28 04:25N 31°30' E 121°25'273.3
2017-Apr-28 04:24N 31°30' E 121°23'2 4.6
2017-Apr-28 04:00N 31°32' E 121°22'46416386.5
2017-Apr-28 03:58N 24°24' E 117°58'46328244.7
2017-Apr-28 03:57N 31°30' E 121°25'228.1
2017-Apr-28 03:54N 31°30' E 121°23'027.5
2017-Apr-28 03:53N 31°31' E 121°23'132479.2
2017-Apr-28 03:52N 31°41' E 121°13'1568.6
2017-Apr-28 03:39N 31°29' E 121°25'0 1.3
2017-Apr-28 03:34N 31°29' E 121°25'4638167.0
2017-Apr-28 03:30N 24°24' E 117°58'469120604.0
2017-Apr-28 03:30N 31°41' E 121°13'13133.5
2017-Apr-28 03:24N 31°31' E 121°23'012.2
2017-Apr-28 03:22N 31°30' E 121°23'237.9
2017-Apr-28 03:19N 31°29' E 121°25'0 7.8
2017-Apr-28 03:19N 31°29' E 121°25'4631488.6
2017-Apr-28 03:00N 24°24' E 117°58'46911887.5
2017-Apr-28 02:58N 31°41' E 121°13'15362.6
2017-Apr-28 02:55N 31°29' E 121°25'292.6
2017-Apr-28 02:54N 31°30' E 121°23'0 6.8
2017-Apr-28 02:51N 31°31' E 121°23'2 8.0
2017-Apr-28 02:34N 31°29' E 121°25'236.4
2017-Apr-28 02:30N 31°31' E 121°23'46343885.6
2017-Apr-28 02:30N 24°24' E 117°58'46317728.7
2017-Apr-28 02:28N 31°30' E 121°23'217.4
2017-Apr-28 02:22N 31°29' E 121°25'047.3
2017-Apr-28 02:21N 31°29' E 121°25'4611293.8
2017-Apr-28 02:00N 24°25' E 118°02'46113610.7
2017-Apr-28 01:58N 31°31' E 121°23'227.1
2017-Apr-28 01:53N 31°29' E 121°25'0 3.1
2017-Apr-28 01:52N 31°29' E 121°25'15644.5
2017-Apr-28 01:50N 31°41' E 121°13'14131.4
2017-Apr-28 01:44N 31°30' E 121°23'4612026.2
2017-Apr-28 01:31N 24°25' E 118°02'4615456.2
2017-Apr-28 01:25N 31°29' E 121°25'0 1.6
2017-Apr-28 01:22N 31°29' E 121°25'238.6
2017-Apr-28 01:19N 31°30' E 121°23'1498.7
2017-Apr-28 01:11N 31°41' E 121°13'301512.7
2017-Apr-28 01:10N 31°16' E 121°33'1 8.6
2017-Apr-28 01:00N 31°15' E 121°32'45073667.8
2017-Apr-28 01:00N 24°25' E 118°02'4619489.7
2017-Apr-28 00:57N 31°31' E 121°23'2660.5
2017-Apr-28 00:57N 31°29' E 121°25'15429.7
2017-Apr-28 00:55N 31°41' E 121°13'14122.2
2017-Apr-28 00:48N 31°30' E 121°23'17325.7
2017-Apr-28 00:45N 31°16' E 121°34'2 8.2
2017-Apr-28 00:30N 31°15' E 121°32'450405182.7
2017-Apr-28 00:30N 24°25' E 118°02'46728991.5
2017-Apr-28 00:29N 31°41' E 121°13'131536.2
2017-Apr-28 00:29N 31°31' E 121°23'015.5
2017-Apr-28 00:27N 31°30' E 121°23'2159.6
2017-Apr-28 00:27N 31°29' E 121°25'0 0.5
2017-Apr-28 00:16N 31°29' E 121°25'2 8.0
2017-Apr-28 00:00N 31°31' E 121°23'461332125.7
2017-Apr-28 00:00N 24°25' E 118°02'461276582.2
2017-Apr-28 00:00N 31°30' E 121°23'14245.0
2017-Apr-27 23:57N 31°41' E 121°13'156158.3
2017-Apr-27 23:57N 31°29' E 121°25'0 8.1
2017-Apr-27 23:56N 31°29' E 121°25'4611067.4
2017-Apr-27 23:30N 24°25' E 118°02'46112032.6
2017-Apr-27 23:28N 31°31' E 121°23'0 5.7
2017-Apr-27 23:24N 31°30' E 121°23'240.2
2017-Apr-27 23:21N 31°29' E 121°25'15348.6
2017-Apr-27 23:19N 31°41' E 121°13'1593.0
2017-Apr-27 23:09N 31°29' E 121°25'4613377.8
2017-Apr-27 23:01N 24°25' E 118°02'46734994.8
2017-Apr-27 23:00N 31°41' E 121°10'1518074.0
2017-Apr-27 23:00N 31°31' E 121°23'026.5
2017-Apr-27 22:59N 31°30' E 121°23'224.8
2017-Apr-27 22:54N 31°29' E 121°25'0 8.6
2017-Apr-27 22:54N 31°29' E 121°25'4611201.1
2017-Apr-27 22:31N 24°25' E 118°02'46113827.7
2017-Apr-27 22:29N 31°30' E 121°23'0 4.0
2017-Apr-27 22:23N 31°31' E 121°23'2125.8
2017-Apr-27 22:22N 31°29' E 121°25'14360.1
2017-Apr-27 22:20N 31°22' E 121°39'4591448.7
2017-Apr-27 22:01N 24°25' E 118°02'46113837.3
2017-Apr-27 21:59N 31°31' E 121°23'2256.1
2017-Apr-27 21:58N 31°29' E 121°25'2152.9
2017-Apr-27 21:57N 31°30' E 121°23'16458.2
2017-Apr-27 21:55N 31°22' E 121°39'4591117.6
2017-Apr-27 21:31N 24°25' E 118°02'46163864.4
2017-Apr-27 21:30N 31°31' E 121°23'16257.8
2017-Apr-27 21:26N 31°22' E 121°39'16828.9
2017-Apr-27 21:25N 31°30' E 121°23'217.4
2017-Apr-27 21:19N 31°29' E 121°25'4611495.5
2017-Apr-27 21:00N 24°25' E 118°02'461138221.5
2017-Apr-27 21:00N 31°29' E 121°25'34380.1
2017-Apr-27 20:55N 31°50' E 120°54'48328.9
2017-Apr-27 20:46N 31°22' E 121°39'1462.4
2017-Apr-27 20:33N 31°29' E 121°25'46111844.3
2017-Apr-27 20:30N 24°25' E 118°02'46140443.9
2017-Apr-27 20:30N 31°29' E 121°25'1416379.7
2017-Apr-27 20:30N 31°22' E 121°39'14751.1
2017-Apr-27 20:29N 31°29' E 121°25'212.2
2017-Apr-27 20:18N 31°31' E 121°23'0 3.2
2017-Apr-27 20:11N 31°30' E 121°23'0 0.0
2017-Apr-27 20:00N 31°30' E 121°23'461150850.8
2017-Apr-27 20:00N 24°25' E 118°02'4618916.0
2017-Apr-27 19:57N 31°30' E 121°23'211.0
2017-Apr-27 19:46N 31°29' E 121°25'4611755.3
2017-Apr-27 19:30N 24°25' E 118°02'4682488.4
2017-Apr-27 19:19N 31°41' E 121°15'1244231.9
2017-Apr-27 19:19N 31°30' E 121°23'229.5
2017-Apr-27 19:15N 31°29' E 121°25'0 2.8
2017-Apr-27 19:11N 31°29' E 121°25'265.4
2017-Apr-27 19:09N 31°31' E 121°23'4613024.7
2017-Apr-27 19:00N 24°25' E 118°02'466139748.5
2017-Apr-27 19:00N 31°38' E 121°17'9497.1
2017-Apr-27 18:59N 31°30' E 121°23'266.6
2017-Apr-27 18:57N 31°29' E 121°25'235.7
2017-Apr-27 18:53N 31°31' E 121°23'266.2
2017-Apr-27 18:51N 31°29' E 121°25'29125.1
2017-Apr-27 18:37N 31°47' E 120°58'110.8
2017-Apr-27 18:30N 31°47' E 120°59'211750.4
2017-Apr-27 18:30N 31°34' E 121°19'46338753.4
2017-Apr-27 18:29N 24°25' E 118°02'4614823.6
2017-Apr-27 18:23N 31°30' E 121°23'232.5
2017-Apr-27 18:20N 31°29' E 121°25'0 0.9
2017-Apr-27 18:08N 31°29' E 121°25'4613589.2
2017-Apr-27 18:00N 24°25' E 118°02'469422415.5
2017-Apr-27 18:00N 31°46' E 121°04'241188.0
2017-Apr-27 17:59N 31°29' E 121°25'2395.6
2017-Apr-27 17:59N 31°31' E 121°24'462973.1
2017-Apr-27 17:30N 24°25' E 118°02'46851006.3
2017-Apr-27 17:30N 31°43' E 121°08'172734.8
2017-Apr-27 17:29N 31°30' E 121°23'215.3
2017-Apr-27 17:23N 31°32' E 121°22'311.5
2017-Apr-27 17:05N 31°29' E 121°25'299.1
2017-Apr-27 17:04N 31°31' E 121°23'13228.1
2017-Apr-27 17:00N 31°40' E 121°13'466419685.9
2017-Apr-27 17:00N 24°25' E 118°02'4612709.7
2017-Apr-27 16:50N 31°29' E 121°25'240.2
2017-Apr-27 16:47N 31°30' E 121°23'4611649.8
2017-Apr-27 16:30N 24°25' E 118°02'4641672009.7
2017-Apr-27 16:30N 31°36' E 121°18'739.6
2017-Apr-27 16:19N 31°30' E 121°23'44175.0
2017-Apr-27 16:04N 31°00' E 120°46'44613.5
2017-Apr-27 16:00N 31°32' E 121°22'4621663906.6
2017-Apr-27 16:00N 24°25' E 118°02'46197617.1
2017-Apr-27 15:59N 31°30' E 121°23'0 3.9
2017-Apr-27 15:54N 31°31' E 121°23'43179.0
2017-Apr-27 15:39N 31°00' E 120°47'4222842.4
2017-Apr-27 15:30N 24°25' E 118°02'46392523.7
2017-Apr-27 15:30N 31°31' E 121°27'324.2
2017-Apr-27 15:22N 31°31' E 121°23'6965.4
2017-Apr-27 15:22N 31°35' E 121°17'970.4
2017-Apr-27 15:14N 31°29' E 121°25'216.9
2017-Apr-27 15:07N 31°30' E 121°23'220.7
2017-Apr-27 15:01N 31°29' E 121°25'46117101.1
2017-Apr-27 15:00N 24°25' E 118°02'4641670261.3
2017-Apr-27 15:00N 31°30' E 121°32'156718.3
2017-Apr-27 14:59N 31°36' E 121°16'8180.0
2017-Apr-27 14:57N 31°30' E 121°23'210.3
2017-Apr-27 14:45N 31°29' E 121°25'017.2
2017-Apr-27 14:44N 31°29' E 121°25'222.3
2017-Apr-27 14:38N 31°31' E 121°23'1289.8
2017-Apr-27 14:30N 31°30' E 121°38'11985.4
2017-Apr-27 14:29N 31°29' E 121°25'461960.7
2017-Apr-27 14:00N 24°25' E 118°02'466119928.9
2017-Apr-27 14:00N 31°40' E 121°11'16386.4
2017-Apr-27 13:58N 31°29' E 121°25'21548.3
2017-Apr-27 13:58N 31°31' E 121°23'0 1.7
2017-Apr-27 13:45N 31°30' E 121°23'228.7
2017-Apr-27 13:41N 31°29' E 121°25'4612562.8
2017-Apr-27 13:30N 24°25' E 118°02'46712837.9
2017-Apr-27 13:28N 31°42' E 121°08'20531.5
2017-Apr-27 13:26N 31°29' E 121°25'226.9
2017-Apr-27 13:21N 31°31' E 121°23'2133.0
2017-Apr-27 13:20N 31°29' E 121°25'214.7
2017-Apr-27 13:12N 31°30' E 121°23'4612436.6
2017-Apr-27 13:01N 24°25' E 118°02'46121257.1
2017-Apr-27 12:59N 31°29' E 121°25'257.6
2017-Apr-27 12:57N 31°31' E 121°23'041.8
2017-Apr-27 12:56N 31°30' E 121°23'4611069.9
2017-Apr-27 12:31N 24°25' E 118°02'4613823.5
2017-Apr-27 12:23N 31°30' E 121°23'22436.6
2017-Apr-27 12:23N 31°29' E 121°25'4611208.5
2017-Apr-27 12:00N 24°25' E 118°02'46124747.9
2017-Apr-27 11:59N 31°29' E 121°25'217.5
2017-Apr-27 11:52N 31°30' E 121°23'0 6.4
2017-Apr-27 11:49N 31°31' E 121°23'232.0
2017-Apr-27 11:45N 31°29' E 121°25'4611913.1
2017-Apr-27 11:30N 24°25' E 118°02'46142572.4
2017-Apr-27 11:30N 31°31' E 121°23'2288.4
2017-Apr-27 11:29N 31°29' E 121°25'0 2.0
2017-Apr-27 11:25N 31°29' E 121°25'215.6
2017-Apr-27 11:17N 31°30' E 121°23'4611651.0
2017-Apr-27 11:00N 24°25' E 118°02'4617001.2
2017-Apr-27 10:56N 31°30' E 121°23'2487.3
2017-Apr-27 10:56N 31°29' E 121°25'220.5
2017-Apr-27 10:50N 31°31' E 121°23'2 9.3
2017-Apr-27 10:36N 31°29' E 121°25'4615166.5
2017-Apr-27 10:30N 24°25' E 118°02'46123027.0
2017-Apr-27 10:29N 31°29' E 121°25'0 2.5
2017-Apr-27 10:26N 31°29' E 121°25'229.0
2017-Apr-27 10:21N 31°31' E 121°23'0 1.2
2017-Apr-27 10:06N 31°30' E 121°23'42112750.5
2017-Apr-27 10:04N 38°32' E 121°40'86713566.5
2017-Apr-27 10:00N 24°25' E 118°02'867240010.0
2017-Apr-27 10:00N 38°32' E 121°40'42112968.3
2017-Apr-27 09:58N 31°30' E 121°23'012.7
2017-Apr-27 09:57N 31°31' E 121°23'2131.3
2017-Apr-27 09:56N 31°29' E 121°25'2 3.9
2017-Apr-27 09:31N 31°28' E 121°26'0 5.5
2017-Apr-27 09:30N 31°28' E 121°26'415.1
2017-Apr-27 09:16N 31°31' E 121°23'42112945.1
2017-Apr-27 09:14N 38°31' E 121°38'42163151.3
2017-Apr-27 09:13N 31°30' E 121°23'217.6
2017-Apr-27 09:07N 31°29' E 121°25'4224038.2
2017-Apr-27 09:01N 38°31' E 121°38'866283343.4
2017-Apr-27 09:00N 24°25' E 118°02'46110430.2
2017-Apr-27 08:58N 31°30' E 121°23'0 5.0
2017-Apr-27 08:52N 31°31' E 121°23'2351.5
2017-Apr-27 08:51N 31°29' E 121°25'225.9
2017-Apr-27 08:47N 31°30' E 121°23'4611694.9
2017-Apr-27 08:31N 24°25' E 118°02'8651037748.2
2017-Apr-27 08:30N 38°30' E 121°37'418150571.8
2017-Apr-27 08:30N 31°32' E 121°20'366.9
2017-Apr-27 08:28N 31°30' E 121°23'055.0
2017-Apr-27 08:27N 31°31' E 121°23'228.9
2017-Apr-27 08:23N 31°29' E 121°25'4201107.4
2017-Apr-27 08:00N 38°29' E 121°36'8641036708.5
2017-Apr-27 08:00N 24°25' E 118°02'46126349.6
2017-Apr-27 07:59N 31°31' E 121°23'6380.4
2017-Apr-27 07:58N 31°34' E 121°18'6550.7
2017-Apr-27 07:57N 31°30' E 121°23'220.5
2017-Apr-27 07:52N 31°29' E 121°25'4182206.4
2017-Apr-27 07:40N 38°27' E 121°42'8635125.6
2017-Apr-27 07:30N 24°25' E 118°02'46445168.6
2017-Apr-27 07:30N 31°36' E 121°16'4137545.8
2017-Apr-27 07:26N 38°29' E 121°40'4195.9
2017-Apr-27 07:25N 38°28' E 121°36'4181530.2
2017-Apr-27 07:09N 31°30' E 121°23'4223012.9
2017-Apr-27 07:00N 38°32' E 121°37'867779879.6
2017-Apr-27 07:00N 24°25' E 118°02'46544061.6
2017-Apr-27 07:00N 31°38' E 121°14'11312.1
2017-Apr-27 06:58N 31°30' E 121°23'4611013.6
2017-Apr-27 06:30N 24°25' E 118°02'4619168.0
2017-Apr-27 06:27N 31°30' E 121°23'4611025.0
2017-Apr-27 06:00N 24°25' E 118°02'461118530.3
2017-Apr-27 06:00N 31°30' E 121°23'461930.7
2017-Apr-27 05:30N 24°25' E 118°02'46112112.6
2017-Apr-27 05:28N 31°30' E 121°23'12337.0
2017-Apr-27 05:26N 31°39' E 121°13'4661089.2
2017-Apr-27 05:00N 24°25' E 118°02'46126765.8
2017-Apr-27 04:59N 31°30' E 121°23'13149.5
2017-Apr-27 04:54N 31°40' E 121°13'29586.0
2017-Apr-27 04:51N 31°14' E 121°29'29364.0
2017-Apr-27 04:46N 31°39' E 121°13'313.0
2017-Apr-27 04:33N 31°41' E 121°10'46710846.2
2017-Apr-27 04:31N 24°25' E 118°02'45070374.2
2017-Apr-27 04:30N 31°15' E 121°31'28497.9
2017-Apr-27 04:27N 31°39' E 121°13'12358.7
2017-Apr-27 04:25N 31°30' E 121°23'142821.0
2017-Apr-27 04:24N 31°41' E 121°12'4671171.7
2017-Apr-27 04:01N 24°25' E 118°02'46614332.4
2017-Apr-27 03:59N 31°39' E 121°15'281037.6
2017-Apr-27 03:57N 31°14' E 121°30'29222.8
2017-Apr-27 03:49N 31°39' E 121°13'017.4
2017-Apr-27 03:48N 31°39' E 121°13'121280.7
2017-Apr-27 03:47N 31°30' E 121°23'726.8
2017-Apr-27 03:31N 31°36' E 121°17'2428972.1
2017-Apr-27 03:30N 31°15' E 121°31'450202421.5
2017-Apr-27 03:30N 24°25' E 118°02'4664118.8
2017-Apr-27 03:24N 31°39' E 121°13'12229.8
2017-Apr-27 03:20N 31°30' E 121°23'12116.6
2017-Apr-27 03:14N 31°39' E 121°13'834.5
2017-Apr-27 03:00N 31°34' E 121°20'463238045.6
2017-Apr-27 03:00N 24°25' E 118°02'4663757.7
2017-Apr-27 02:53N 31°39' E 121°13'121207.3
2017-Apr-27 02:52N 31°30' E 121°23'12440.1
2017-Apr-27 02:51N 31°39' E 121°13'1299.9
2017-Apr-27 02:43N 31°31' E 121°23'211.4
2017-Apr-27 02:31N 31°29' E 121°25'0 7.2
2017-Apr-27 02:30N 31°29' E 121°25'46182951.6
2017-Apr-27 02:29N 24°25' E 118°02'466838193.9
2017-Apr-27 02:29N 31°39' E 121°13'135017.1
2017-Apr-27 02:29N 31°30' E 121°23'179.9
2017-Apr-27 02:28N 31°31' E 121°23'11542.0
2017-Apr-27 02:27N 31°39' E 121°13'1351.0
2017-Apr-27 02:11N 31°29' E 121°24'1153.1
2017-Apr-27 02:11N 31°31' E 121°23'2 8.7
2017-Apr-27 02:00N 31°30' E 121°25'461237106.4
2017-Apr-27 02:00N 24°25' E 118°02'46157184.9
2017-Apr-27 02:00N 31°30' E 121°23'14661.1
2017-Apr-27 01:58N 31°40' E 121°12'116.9
2017-Apr-27 01:54N 31°39' E 121°13'12220.9
2017-Apr-27 01:51N 31°31' E 121°23'216.4
2017-Apr-27 01:42N 31°29' E 121°25'4612404.4
2017-Apr-27 01:30N 24°25' E 118°02'461150938.0
2017-Apr-27 01:30N 31°31' E 121°23'128713.7
2017-Apr-27 01:30N 31°39' E 121°13'5696.9
2017-Apr-27 01:30N 31°42' E 121°09'193095.0
2017-Apr-27 01:29N 31°30' E 121°25'529.5
2017-Apr-27 01:18N 31°33' E 121°20'446.1
2017-Apr-27 01:13N 31°30' E 121°23'1058.6
2017-Apr-27 01:02N 31°38' E 121°15'0 7.9
2017-Apr-27 01:00N 31°38' E 121°14'465139553.2
2017-Apr-27 01:00N 24°25' E 118°02'46116594.0
2017-Apr-27 00:59N 31°30' E 121°23'6403.0
2017-Apr-27 00:58N 31°34' E 121°18'7504.0
2017-Apr-27 00:57N 31°30' E 121°25'158.4
2017-Apr-27 00:56N 31°29' E 121°25'152694.1
2017-Apr-27 00:56N 31°40' E 121°13'338.5
2017-Apr-27 00:51N 31°41' E 121°10'15375.7
2017-Apr-27 00:49N 31°31' E 121°23'4611524.6
2017-Apr-27 00:31N 24°25' E 118°02'44484039.0
2017-Apr-27 00:30N 31°17' E 121°09'191014.4
2017-Apr-27 00:29N 31°31' E 121°23'2202.1
2017-Apr-27 00:29N 31°30' E 121°25'11729.1
2017-Apr-27 00:28N 31°37' E 121°16'6762.7
2017-Apr-27 00:27N 31°41' E 121°10'15185.3
2017-Apr-27 00:22N 31°30' E 121°23'2356.6
2017-Apr-27 00:22N 31°29' E 121°25'15134.7
2017-Apr-27 00:15N 31°40' E 121°13'1463.5
2017-Apr-27 00:02N 31°30' E 121°24'46116095.3
2017-Apr-27 00:00N 24°25' E 118°02'46721011.2
2017-Apr-26 23:59N 31°40' E 121°13'14841.3
2017-Apr-26 23:58N 31°30' E 121°23'1311856.8
2017-Apr-26 23:58N 31°39' E 121°13'131676.8
2017-Apr-26 23:58N 31°30' E 121°23'2248.6
2017-Apr-26 23:57N 31°30' E 121°25'1 5.9
2017-Apr-26 23:52N 31°29' E 121°25'22413.6
2017-Apr-26 23:49N 31°17' E 121°05'2125288.3
2017-Apr-26 23:49N 31°31' E 121°23'15773.8
2017-Apr-26 23:47N 31°41' E 121°10'4661638.3
2017-Apr-26 23:30N 24°25' E 118°02'467280154.3
2017-Apr-26 23:30N 31°40' E 121°13'13390.4
2017-Apr-26 23:28N 31°31' E 121°23'2387.2
2017-Apr-26 23:28N 31°29' E 121°25'171303.2
2017-Apr-26 23:27N 31°41' E 121°10'19506.2
2017-Apr-26 23:25N 31°28' E 121°26'6189.8
2017-Apr-26 23:23N 31°32' E 121°20'456.6
2017-Apr-26 23:18N 31°30' E 121°25'221.9
2017-Apr-26 23:14N 31°30' E 121°23'523.7
2017-Apr-26 23:01N 31°34' E 121°19'62980.3
2017-Apr-26 23:00N 31°30' E 121°23'1404.4
2017-Apr-26 23:00N 31°30' E 121°23'46142545.6
2017-Apr-26 23:00N 24°25' E 118°02'4674987.5
2017-Apr-26 22:54N 31°40' E 121°13'13273.6
2017-Apr-26 22:51N 31°31' E 121°23'15833.3
2017-Apr-26 22:50N 31°41' E 121°10'17788.7
2017-Apr-26 22:49N 31°30' E 121°25'4611487.9
2017-Apr-26 22:30N 24°25' E 118°02'461276874.7
2017-Apr-26 22:30N 31°32' E 121°20'102845.8
2017-Apr-26 22:30N 31°40' E 121°13'14868.7
2017-Apr-26 22:29N 31°30' E 121°25'2135.4
2017-Apr-26 22:28N 31°30' E 121°23'013.8
2017-Apr-26 22:27N 31°31' E 121°23'15231.5
2017-Apr-26 22:23N 31°41' E 121°10'4661236.5
2017-Apr-26 22:00N 24°25' E 118°02'46114435.2
2017-Apr-26 21:59N 31°31' E 121°23'7156.6
2017-Apr-26 21:56N 31°35' E 121°17'82757.0
2017-Apr-26 21:56N 31°30' E 121°25'141861.5
2017-Apr-26 21:55N 31°40' E 121°13'328.5
2017-Apr-26 21:49N 31°41' E 121°10'15302.4
2017-Apr-26 21:46N 31°30' E 121°23'4611730.2
2017-Apr-26 21:30N 24°25' E 118°02'461184362.1
2017-Apr-26 21:30N 31°30' E 121°23'0275.1
2017-Apr-26 21:30N 31°31' E 121°23'101664.3
2017-Apr-26 21:30N 31°38' E 121°15'588.3
2017-Apr-26 21:26N 31°41' E 121°10'17394.4
2017-Apr-26 21:24N 31°30' E 121°25'14496.4
2017-Apr-26 21:22N 31°40' E 121°13'1 3.7
2017-Apr-26 21:00N 31°40' E 121°12'4661677871.7
2017-Apr-26 21:00N 24°25' E 118°02'46788461.9
2017-Apr-26 21:00N 31°40' E 121°13'31129.8
2017-Apr-26 21:00N 31°41' E 121°10'151775.0
2017-Apr-26 20:59N 31°30' E 121°23'223.9
2017-Apr-26 20:55N 31°30' E 121°25'268.7
2017-Apr-26 20:54N 31°31' E 121°23'4611187.4
2017-Apr-26 20:30N 24°25' E 118°02'460551838.6
2017-Apr-26 20:30N 31°28' E 121°25'185374.6
2017-Apr-26 20:30N 31°41' E 121°10'151225.2
2017-Apr-26 20:29N 31°31' E 121°23'015.7
2017-Apr-26 20:28N 31°30' E 121°23'13501.2
2017-Apr-26 20:27N 31°40' E 121°13'33173.2
2017-Apr-26 20:15N 32°02' E 120°45'4791843.8
2017-Apr-26 20:00N 24°25' E 118°02'46710843.6
2017-Apr-26 19:57N 31°40' E 121°13'397.5
2017-Apr-26 19:56N 31°41' E 121°10'15249.0
2017-Apr-26 19:52N 31°30' E 121°23'0 5.6
2017-Apr-26 19:49N 31°31' E 121°23'32147.6
2017-Apr-26 19:49N 31°28' E 121°25'4601520.1
2017-Apr-26 19:31N 24°25' E 118°02'46116767.5
2017-Apr-26 19:29N 31°31' E 121°23'3383.5
2017-Apr-26 19:28N 31°28' E 121°25'18207.6
2017-Apr-26 19:23N 31°42' E 121°10'16357.4
2017-Apr-26 19:20N 31°30' E 121°23'1339.0
2017-Apr-26 19:01N 31°40' E 121°13'467336147.0
2017-Apr-26 19:00N 24°25' E 118°02'461165920.0
2017-Apr-26 19:00N 31°30' E 121°23'3649.0
2017-Apr-26 19:00N 31°28' E 121°25'1869.6
2017-Apr-26 18:44N 31°42' E 121°10'15544.1
2017-Apr-26 18:42N 31°31' E 121°23'4612305.4
2017-Apr-26 18:30N 24°25' E 118°02'46036785.7
2017-Apr-26 18:30N 31°28' E 121°25'380.7
2017-Apr-26 18:28N 31°30' E 121°23'13101.6
2017-Apr-26 18:20N 31°40' E 121°13'3213.1
2017-Apr-26 18:19N 31°42' E 121°10'4671498.8
2017-Apr-26 18:00N 24°25' E 118°02'467168170.0
2017-Apr-26 18:00N 31°42' E 121°10'3311.1
2017-Apr-26 18:00N 31°40' E 121°13'1689.3
2017-Apr-26 17:49N 31°28' E 121°25'386.8
2017-Apr-26 17:47N 31°30' E 121°23'4611643.0
2017-Apr-26 17:30N 24°25' E 118°02'46011185.2
2017-Apr-26 17:28N 31°28' E 121°25'161343.2
2017-Apr-26 17:27N 31°40' E 121°13'32177.4
2017-Apr-26 17:27N 31°42' E 121°10'16565.1
2017-Apr-26 17:25N 31°30' E 121°23'4611102.8
2017-Apr-26 17:00N 24°25' E 118°02'4617247.4
2017-Apr-26 16:57N 31°30' E 121°23'16463.2
2017-Apr-26 16:55N 31°42' E 121°10'15494.4
2017-Apr-26 16:53N 31°31' E 121°23'370.0
2017-Apr-26 16:50N 31°28' E 121°25'4601404.3
2017-Apr-26 16:30N 24°25' E 118°02'461553221.5
2017-Apr-26 16:30N 31°30' E 121°23'13184.0
2017-Apr-26 16:26N 31°40' E 121°13'13430.6
2017-Apr-26 16:24N 31°31' E 121°23'3220.1
2017-Apr-26 16:23N 31°28' E 121°25'183699.6
2017-Apr-26 16:23N 31°42' E 121°10'784.4
2017-Apr-26 16:18N 31°37' E 121°17'828.6
2017-Apr-26 16:00N 31°30' E 121°23'461276597.4
2017-Apr-26 16:00N 24°25' E 118°02'467168186.3
2017-Apr-26 16:00N 31°42' E 121°10'159225.8
2017-Apr-26 16:00N 31°31' E 121°23'5215.8
2017-Apr-26 15:59N 31°35' E 121°19'765.3
2017-Apr-26 15:52N 31°40' E 121°13'16154.1
2017-Apr-26 15:46N 31°28' E 121°25'4601791.7
2017-Apr-26 15:30N 24°25' E 118°02'46130174.6
2017-Apr-26 15:29N 31°30' E 121°23'2151.2
2017-Apr-26 15:29N 31°32' E 121°22'210.9
2017-Apr-26 15:20N 31°31' E 121°23'1379.2
2017-Apr-26 15:10N 31°40' E 121°13'4672853.9
2017-Apr-26 15:01N 24°25' E 118°02'4618339.4
2017-Apr-26 14:57N 31°30' E 121°23'13246.8
2017-Apr-26 14:54N 31°40' E 121°13'335.2
2017-Apr-26 14:49N 31°42' E 121°10'4671493.6
2017-Apr-26 14:30N 24°25' E 118°02'46711927.2
2017-Apr-26 14:28N 31°42' E 121°10'1653.5
2017-Apr-26 14:11N 31°30' E 121°23'3235.2
2017-Apr-26 14:10N 31°28' E 121°25'16894.4
2017-Apr-26 14:09N 31°40' E 121°13'286.1
2017-Apr-26 14:07N 31°38' E 121°15'11142.8
2017-Apr-26 14:03N 31°31' E 121°23'814.8
2017-Apr-26 13:30N 31°37' E 121°17'85771.9
2017-Apr-26 13:30N 31°31' E 121°23'461332055.5
2017-Apr-26 13:30N 24°25' E 118°02'461150858.2
2017-Apr-26 13:30N 31°30' E 121°23'361.4
2017-Apr-26 13:27N 31°28' E 121°25'18472.1
2017-Apr-26 13:25N 31°42' E 121°10'3186.8
2017-Apr-26 13:24N 31°40' E 121°13'30107.9
2017-Apr-26 13:08N 31°15' E 121°32'4503770.0
2017-Apr-26 13:00N 24°25' E 118°02'45080943.1
2017-Apr-26 13:00N 31°15' E 121°31'23805.0
2017-Apr-26 12:58N 31°35' E 121°19'104381.6
2017-Apr-26 12:58N 31°42' E 121°10'152522.0
2017-Apr-26 12:58N 31°31' E 121°23'13384.2
2017-Apr-26 12:56N 31°40' E 121°13'132912.2
2017-Apr-26 12:56N 31°30' E 121°23'3 9.6
2017-Apr-26 12:39N 31°28' E 121°25'319.2
2017-Apr-26 12:30N 31°30' E 121°23'461165951.3
2017-Apr-26 12:30N 24°25' E 118°02'46029562.9
2017-Apr-26 12:29N 31°28' E 121°25'6380.7
2017-Apr-26 12:28N 31°33' E 121°20'9122.3
2017-Apr-26 12:24N 31°40' E 121°13'13321.8
2017-Apr-26 12:21N 31°31' E 121°23'15554.7
2017-Apr-26 12:20N 31°42' E 121°10'3 9.0
2017-Apr-26 12:01N 31°40' E 121°13'467420245.7
2017-Apr-26 12:00N 24°25' E 118°02'462138622.8
2017-Apr-26 12:00N 31°32' E 121°22'4789.0
2017-Apr-26 12:00N 31°28' E 121°25'363.7
2017-Apr-26 11:57N 31°31' E 121°23'15430.1
2017-Apr-26 11:55N 31°42' E 121°10'16168.1
2017-Apr-26 11:49N 31°30' E 121°23'4611465.9
2017-Apr-26 11:31N 24°25' E 118°02'46764678.6
2017-Apr-26 11:30N 31°42' E 121°10'1628161.8
2017-Apr-26 11:30N 31°30' E 121°23'3751.3
2017-Apr-26 11:30N 31°28' E 121°25'3166.2
2017-Apr-26 11:29N 31°31' E 121°23'13993.8
2017-Apr-26 11:28N 31°40' E 121°13'4671012.5
2017-Apr-26 11:00N 24°25' E 118°02'46016072.0
2017-Apr-26 10:59N 31°28' E 121°25'161104.9
2017-Apr-26 10:58N 31°40' E 121°13'13169.4
2017-Apr-26 10:53N 31°30' E 121°23'0 4.1
2017-Apr-26 10:49N 31°31' E 121°23'4611439.8
2017-Apr-26 10:30N 24°25' E 118°02'46117283.9
2017-Apr-26 10:28N 31°30' E 121°23'1694.2
2017-Apr-26 10:18N 31°42' E 121°10'3174.2
2017-Apr-26 10:17N 31°40' E 121°13'164695.8
2017-Apr-26 10:17N 31°28' E 121°25'3123.7
2017-Apr-26 10:16N 31°31' E 121°23'4611802.5
2017-Apr-26 10:00N 24°25' E 118°02'46712643.1
2017-Apr-26 09:58N 31°42' E 121°10'154622.4
2017-Apr-26 09:58N 31°31' E 121°23'13846.3
2017-Apr-26 09:57N 31°40' E 121°13'13137.8
2017-Apr-26 09:51N 31°30' E 121°23'324.4
2017-Apr-26 09:45N 31°28' E 121°25'4601931.5
2017-Apr-26 09:30N 24°25' E 118°02'46710913.7
2017-Apr-26 09:28N 31°40' E 121°13'3177.2
2017-Apr-26 09:27N 31°42' E 121°10'15478.2
2017-Apr-26 09:25N 31°31' E 121°23'331.8
2017-Apr-26 09:19N 31°28' E 121°25'124.6
2017-Apr-26 09:17N 31°29' E 121°25'2436.3
2017-Apr-26 09:17N 31°30' E 121°23'0 0.0
2017-Apr-26 09:00N 31°30' E 121°23'46136872.4
2017-Apr-26 09:00N 24°25' E 118°02'46011035.6
2017-Apr-26 08:57N 31°28' E 121°25'162449.3
2017-Apr-26 08:57N 31°40' E 121°13'379.3
2017-Apr-26 08:55N 31°42' E 121°10'15451.0
2017-Apr-26 08:52N 31°31' E 121°23'220.2
2017-Apr-26 08:45N 31°29' E 121°25'4611830.9
2017-Apr-26 08:30N 24°25' E 118°02'46125141.4
2017-Apr-26 08:29N 31°30' E 121°23'1611284.2
2017-Apr-26 08:29N 31°42' E 121°10'15894.7
2017-Apr-26 08:28N 31°31' E 121°23'13197.0
2017-Apr-26 08:24N 31°40' E 121°13'4671168.8
2017-Apr-26 08:00N 24°25' E 118°02'46147428.1
2017-Apr-26 08:00N 31°31' E 121°23'13970.5
2017-Apr-26 07:59N 31°40' E 121°13'13115.9
2017-Apr-26 07:52N 31°30' E 121°23'1672.5
2017-Apr-26 07:39N 31°42' E 121°10'4673178.5
2017-Apr-26 07:30N 24°25' E 118°02'46010679.6
2017-Apr-26 07:28N 31°28' E 121°25'3149.8
2017-Apr-26 07:27N 31°30' E 121°23'16121.1
2017-Apr-26 07:19N 31°42' E 121°10'3286.4
2017-Apr-26 07:18N 31°40' E 121°13'0 0.0
2017-Apr-26 06:58N 31°40' E 121°13'3 8.9
2017-Apr-26 06:38N 31°42' E 121°10'15214.6
2017-Apr-26 06:34N 31°31' E 121°23'012.0
2017-Apr-26 06:32N 31°30' E 121°23'13328.5
2017-Apr-26 06:30N 31°40' E 121°13'13186.0
2017-Apr-26 06:26N 31°31' E 121°23'15783.4
2017-Apr-26 06:25N 31°42' E 121°10'16113.7
2017-Apr-26 06:16N 31°30' E 121°23'1349.1
2017-Apr-26 06:00N 31°40' E 121°13'131786.3
2017-Apr-26 06:00N 31°30' E 121°23'16161.1
2017-Apr-26 05:54N 31°42' E 121°10'3 7.2
2017-Apr-26 05:29N 31°40' E 121°13'13144.3
2017-Apr-26 05:24N 31°30' E 121°23'4612260.7
2017-Apr-26 05:11N 24°25' E 118°02'0 0.0
2017-Apr-26 05:00N 24°25' E 118°02'46742008.1
2017-Apr-26 05:00N 31°40' E 121°13'3128.4
2017-Apr-26 04:58N 31°42' E 121°10'3269.1
2017-Apr-26 04:31N 31°15' E 121°30'45023117.6
2017-Apr-26 04:30N 24°25' E 118°02'0 0.1
2017-Apr-26 04:00N 24°25' E 118°02'0 0.0
2017-Apr-26 03:30N 24°25' E 118°02'0 0.1
2017-Apr-26 03:00N 24°25' E 118°02'0 0.0
2017-Apr-26 02:30N 24°25' E 118°02'0 0.0
2017-Apr-26 02:00N 24°25' E 118°02'0 0.0
2017-Apr-26 01:30N 24°25' E 118°02'0 0.0
2017-Apr-26 01:00N 24°25' E 118°02'0 0.0
2017-Apr-26 00:30N 24°25' E 118°02'0 0.0
2017-Apr-26 00:00N 24°25' E 118°02'2 3.5
2017-Apr-25 23:29N 24°25' E 118°04'0 0.8
2017-Apr-25 23:00N 24°25' E 118°04'0 0.1
2017-Apr-25 22:30N 24°25' E 118°04'7821935.8
2017-Apr-25 22:06N 37°23' E 119°33'7828407.9
2017-Apr-25 22:01N 24°25' E 118°04'78213672.1
2017-Apr-25 21:57N 37°23' E 119°33'7821765.8
2017-Apr-25 21:31N 24°25' E 118°04'0 0.0
2017-Apr-25 21:01N 24°25' E 118°04'0 0.0
2017-Apr-25 20:30N 24°25' E 118°04'0 0.0
2017-Apr-25 20:00N 24°25' E 118°04'0 0.0
2017-Apr-25 19:31N 24°25' E 118°04'0 0.0
2017-Apr-25 19:00N 24°25' E 118°04'0 0.0
2017-Apr-25 18:30N 24°25' E 118°04'0 0.0
2017-Apr-25 18:00N 24°25' E 118°04'0 0.0
2017-Apr-25 17:30N 24°25' E 118°04'0 0.0
2017-Apr-25 17:00N 24°25' E 118°04'0 0.0
2017-Apr-25 16:30N 24°25' E 118°04'0 0.0
2017-Apr-25 16:00N 24°25' E 118°04'0 0.0
2017-Apr-25 15:30N 24°25' E 118°04'0 0.0
2017-Apr-25 15:01N 24°25' E 118°04'4623047.9
2017-Apr-25 14:51N 31°34' E 121°19'6376.3
2017-Apr-25 14:50N 31°38' E 121°14'2715938.2
2017-Apr-25 14:50N 31°21' E 121°38'41578.9
2017-Apr-25 14:50N 31°24' E 121°34'5809.8
2017-Apr-25 14:50N 31°21' E 121°39'17328.6
2017-Apr-25 14:47N 31°30' E 121°23'173987.6
2017-Apr-25 14:47N 31°21' E 121°39'15134.6
2017-Apr-25 14:40N 31°29' E 121°25'1376.1
2017-Apr-25 14:30N 31°38' E 121°14'304496.2
2017-Apr-25 14:29N 31°19' E 121°41'172119.7
2017-Apr-25 14:29N 31°29' E 121°25'151147.1
2017-Apr-25 14:28N 31°21' E 121°39'5389.0
2017-Apr-25 14:27N 31°24' E 121°34'4591013.3
2017-Apr-25 14:00N 24°25' E 118°04'46553949.3
2017-Apr-25 14:00N 31°38' E 121°15'26281.3
2017-Apr-25 13:54N 31°21' E 121°39'17478.4
2017-Apr-25 13:52N 31°30' E 121°23'2260.1
2017-Apr-25 13:30N 31°17' E 121°43'456102619.0
2017-Apr-25 13:30N 24°25' E 118°04'45732924.4
2017-Apr-25 13:29N 31°20' E 121°39'17154.7
2017-Apr-25 13:22N 31°30' E 121°23'287.3
2017-Apr-25 13:21N 31°29' E 121°25'15304.4
2017-Apr-25 13:18N 31°39' E 121°12'24304.2
2017-Apr-25 13:14N 31°24' E 121°34'11249.9
2017-Apr-25 13:11N 31°31' E 121°23'11194.3
2017-Apr-25 13:07N 31°38' E 121°14'472.4
2017-Apr-25 13:04N 31°42' E 121°10'361249.3
2017-Apr-25 13:02N 31°19' E 121°43'45717139.7
2017-Apr-25 13:00N 24°25' E 118°04'45763243.3
2017-Apr-25 13:00N 31°18' E 121°43'0125.2
2017-Apr-25 13:00N 31°19' E 121°43'119.7
2017-Apr-25 12:58N 31°18' E 121°42'9618.4
2017-Apr-25 12:57N 31°24' E 121°34'11437.0
2017-Apr-25 12:56N 31°30' E 121°23'013.9
2017-Apr-25 12:55N 31°31' E 121°23'121066.7
2017-Apr-25 12:54N 31°39' E 121°12'15281.5
2017-Apr-25 12:51N 31°29' E 121°25'13102.6
2017-Apr-25 12:43N 31°38' E 121°14'499.1
2017-Apr-25 12:40N 31°42' E 121°10'4672768.7
2017-Apr-25 12:30N 24°25' E 118°04'456410497.6
2017-Apr-25 12:30N 31°17' E 121°45'53623.8
2017-Apr-25 12:30N 31°20' E 121°41'54623.3
2017-Apr-25 12:30N 31°17' E 121°45'22538.9
2017-Apr-25 12:28N 31°29' E 121°25'131023.8
2017-Apr-25 12:27N 31°38' E 121°14'11872.0
2017-Apr-25 12:26N 31°31' E 121°23'0 6.2
2017-Apr-25 12:23N 31°30' E 121°23'11285.7
2017-Apr-25 12:21N 31°24' E 121°34'4591341.6
2017-Apr-25 12:00N 24°25' E 118°04'4581647387.7
2017-Apr-25 12:00N 31°21' E 121°38'69976.1
2017-Apr-25 12:00N 31°18' E 121°43'0103.1
2017-Apr-25 12:00N 31°18' E 121°43'33978.7
2017-Apr-25 11:58N 31°40' E 121°14'1410074.6
2017-Apr-25 11:58N 31°29' E 121°25'91005.7
2017-Apr-25 11:57N 31°24' E 121°34'11333.4
2017-Apr-25 11:55N 31°30' E 121°23'161565.4
2017-Apr-25 11:55N 31°42' E 121°10'15841.1
2017-Apr-25 11:54N 31°31' E 121°23'1239.9
2017-Apr-25 11:35N 31°24' E 121°35'218.0
2017-Apr-25 11:30N 31°23' E 121°34'4581647713.6
2017-Apr-25 11:30N 24°25' E 118°04'46043615.2
2017-Apr-25 11:30N 31°29' E 121°25'164819.2
2017-Apr-25 11:30N 31°20' E 121°40'185968.0
2017-Apr-25 11:29N 31°31' E 121°23'171842.0
2017-Apr-25 11:29N 31°20' E 121°40'336196.0
2017-Apr-25 11:29N 31°42' E 121°10'373.3
2017-Apr-25 11:26N 31°39' E 121°12'248560.3
2017-Apr-25 11:26N 31°24' E 121°34'11821.8
2017-Apr-25 11:25N 31°30' E 121°23'12155.2
2017-Apr-25 11:20N 31°24' E 121°35'4591379.7
2017-Apr-25 11:01N 24°25' E 118°04'45822567.1
2017-Apr-25 10:59N 31°22' E 121°37'30580.1
2017-Apr-25 10:56N 31°42' E 121°10'272012.9
2017-Apr-25 10:55N 31°24' E 121°35'12898.9
2017-Apr-25 10:55N 31°30' E 121°23'010.6
2017-Apr-25 10:53N 31°31' E 121°23'13136.7
2017-Apr-25 10:47N 31°40' E 121°12'15141.6
2017-Apr-25 10:41N 31°29' E 121°25'4602549.8
2017-Apr-25 10:30N 24°25' E 118°04'45868648.0
2017-Apr-25 10:30N 31°23' E 121°33'9637.2
2017-Apr-25 10:29N 31°29' E 121°25'1056.3
2017-Apr-25 10:18N 31°24' E 121°35'27358.7
2017-Apr-25 10:14N 31°42' E 121°10'15148.9
2017-Apr-25 10:08N 31°31' E 121°23'045.8
2017-Apr-25 10:07N 31°30' E 121°23'4614155.8
2017-Apr-25 10:01N 24°25' E 118°04'46731709.7
2017-Apr-25 10:00N 31°42' E 121°10'181264.2
2017-Apr-25 09:59N 31°29' E 121°25'9104.5
2017-Apr-25 09:53N 31°24' E 121°34'1180.9
2017-Apr-25 09:45N 31°30' E 121°23'12430.4
2017-Apr-25 09:43N 31°39' E 121°14'1284.7
2017-Apr-25 09:35N 31°31' E 121°23'4615779.8
2017-Apr-25 09:30N 24°25' E 118°04'46040423.4
2017-Apr-25 09:30N 31°29' E 121°25'182180.2
2017-Apr-25 09:29N 31°42' E 121°10'273182.2
2017-Apr-25 09:29N 31°24' E 121°35'12444.2
2017-Apr-25 09:27N 31°31' E 121°23'122994.8
2017-Apr-25 09:27N 31°39' E 121°13'12544.4
2017-Apr-25 09:25N 31°30' E 121°23'1037.8
2017-Apr-25 09:10N 31°22' E 121°30'4553007.4
2017-Apr-25 09:01N 24°25' E 118°04'46764638.9
2017-Apr-25 09:00N 31°42' E 121°10'27394.5
2017-Apr-25 08:56N 31°24' E 121°35'12554.4
2017-Apr-25 08:55N 31°31' E 121°23'037.1
2017-Apr-25 08:54N 31°30' E 121°23'36521918.7
2017-Apr-25 08:53N 37°24' E 119°33'3744803.3
2017-Apr-25 08:48N 31°24' E 121°34'431.8
2017-Apr-25 08:41N 31°22' E 121°30'23375.6
2017-Apr-25 08:37N 31°39' E 121°13'4654273.7
2017-Apr-25 08:30N 24°25' E 118°04'46518614.2
2017-Apr-25 08:29N 31°39' E 121°13'131827.3
2017-Apr-25 08:28N 31°30' E 121°23'0 7.6
2017-Apr-25 08:26N 31°31' E 121°23'151048.3
2017-Apr-25 08:25N 31°42' E 121°10'18186.6
2017-Apr-25 08:20N 31°29' E 121°25'91656.3
2017-Apr-25 08:19N 31°24' E 121°34'135.6
2017-Apr-25 08:18N 31°24' E 121°35'4591575.7
2017-Apr-25 08:00N 24°25' E 118°04'46014411.8
2017-Apr-25 07:58N 31°29' E 121°25'101790.5
2017-Apr-25 07:58N 31°24' E 121°35'122575.8
2017-Apr-25 07:58N 31°31' E 121°23'111245.1
2017-Apr-25 07:57N 31°24' E 121°34'11514.3
2017-Apr-25 07:56N 31°30' E 121°23'162358.8
2017-Apr-25 07:56N 31°42' E 121°10'324.1
2017-Apr-25 07:48N 31°39' E 121°13'23125.6
2017-Apr-25 07:37N 31°22' E 121°30'4554087.6
2017-Apr-25 07:30N 24°25' E 118°04'46075333.8
2017-Apr-25 07:30N 31°29' E 121°25'2190.4
2017-Apr-25 07:29N 31°31' E 121°23'0 8.1
2017-Apr-25 07:27N 31°30' E 121°23'134552.2
2017-Apr-25 07:27N 31°39' E 121°13'24505.0
2017-Apr-25 07:24N 31°24' E 121°34'271216.9
2017-Apr-25 07:23N 31°42' E 121°10'4671229.6
2017-Apr-25 07:00N 24°25' E 118°04'45916036.1
2017-Apr-25 06:59N 31°24' E 121°34'9294.2
2017-Apr-25 06:57N 31°29' E 121°25'2226.9
2017-Apr-25 06:56N 31°30' E 121°23'1357.1
2017-Apr-25 06:43N 31°39' E 121°13'1360.2
2017-Apr-25 06:30N 31°30' E 121°23'2197.1
2017-Apr-25 06:30N 31°29' E 121°25'460414370.6
2017-Apr-25 06:30N 24°25' E 118°04'46710064.4
2017-Apr-25 06:27N 31°42' E 121°10'27379.1
2017-Apr-25 06:23N 31°24' E 121°34'938.7
2017-Apr-25 06:08N 31°29' E 121°25'4613557.6
2017-Apr-25 06:01N 24°25' E 118°04'46128586.1
2017-Apr-25 06:00N 31°30' E 121°23'234.7
2017-Apr-25 05:56N 31°29' E 121°25'181978.5
2017-Apr-25 05:56N 31°42' E 121°10'3103.2
2017-Apr-25 05:54N 31°39' E 121°13'24564.8
2017-Apr-25 05:51N 31°24' E 121°34'4591320.2
2017-Apr-25 05:30N 24°25' E 118°04'4597902.9
2017-Apr-25 05:27N 31°24' E 121°34'4591044.7
2017-Apr-25 05:00N 24°25' E 118°04'0 0.0
2017-Apr-25 04:30N 24°25' E 118°04'0 0.0
2017-Apr-25 03:09N 24°25' E 118°04'0 0.0
2017-Apr-25 03:00N 24°25' E 118°04'0 0.0
2017-Apr-25 02:30N 24°25' E 118°04'4481521.7
2017-Apr-25 02:13N 31°14' E 121°29'4482173.8
2017-Apr-25 02:00N 24°25' E 118°04'449538803.0
2017-Apr-25 02:00N 31°15' E 121°30'449897.5
2017-Apr-25 01:30N 24°25' E 118°04'0 0.0
2017-Apr-25 01:00N 24°25' E 118°04'0 0.0
2017-Apr-25 00:30N 24°25' E 118°04'0 0.0
2017-Apr-25 00:00N 24°25' E 118°04'0 0.0
2017-Apr-24 23:30N 24°25' E 118°04'0 0.0
2017-Apr-24 23:00N 24°25' E 118°04'0 0.0
2017-Apr-24 22:30N 24°25' E 118°04'0 0.0
2017-Apr-24 22:00N 24°25' E 118°04'4501930.5
2017-Apr-24 21:46N 31°15' E 121°32'4501706.7
2017-Apr-24 21:31N 24°25' E 118°04'449161605.7
2017-Apr-24 21:30N 31°15' E 121°30'449895.8
2017-Apr-24 21:00N 24°25' E 118°04'0 0.0
2017-Apr-24 20:30N 24°25' E 118°04'0 0.0
2017-Apr-24 20:00N 24°25' E 118°04'0 0.0
2017-Apr-24 19:30N 24°25' E 118°04'0 0.0
2017-Apr-24 19:00N 24°25' E 118°04'4535161.8
2017-Apr-24 18:55N 31°18' E 121°34'2 5.4
2017-Apr-24 18:31N 31°16' E 121°33'45141632.7
2017-Apr-24 18:30N 24°25' E 118°04'449917.0
2017-Apr-24 18:00N 31°15' E 121°31'449202077.3
2017-Apr-24 18:00N 24°25' E 118°04'7822246.1
2017-Apr-24 17:39N 37°23' E 119°34'0 0.0
2017-Apr-24 17:30N 37°23' E 119°34'782281442.3
2017-Apr-24 17:30N 24°25' E 118°04'0 0.0
2017-Apr-24 17:00N 24°25' E 118°04'0 0.0
2017-Apr-24 16:30N 24°25' E 118°04'0 0.0
2017-Apr-24 16:00N 24°25' E 118°04'7825289.9
2017-Apr-24 15:51N 37°23' E 119°34'0 0.0
2017-Apr-24 15:30N 37°23' E 119°34'782312692.2
2017-Apr-24 15:30N 24°25' E 118°04'0 0.0
2017-Apr-24 15:00N 24°25' E 118°04'78216267.2
2017-Apr-24 14:57N 37°23' E 119°34'7821736.1
2017-Apr-24 14:30N 24°25' E 118°04'78215722.4
2017-Apr-24 14:27N 37°23' E 119°34'782817.6
2017-Apr-24 13:30N 24°25' E 118°04'0 0.0
2017-Apr-24 13:00N 24°25' E 118°04'0 0.0
2017-Apr-24 12:30N 24°25' E 118°04'0 0.0
2017-Apr-24 12:00N 24°25' E 118°04'0 0.0
2017-Apr-24 11:30N 24°25' E 118°04'0 0.0
2017-Apr-24 11:00N 24°25' E 118°04'4501546.5
2017-Apr-24 10:43N 31°15' E 121°33'2 7.3
2017-Apr-24 10:30N 31°15' E 121°31'449539028.8
2017-Apr-24 10:30N 24°25' E 118°04'0 0.0
2017-Apr-24 10:01N 24°25' E 118°04'0 0.0
2017-Apr-24 09:30N 24°25' E 118°04'0 0.0
2017-Apr-24 09:00N 24°25' E 118°04'0 0.0
2017-Apr-24 08:30N 24°25' E 118°04'0 0.0
2017-Apr-24 08:00N 24°25' E 118°04'0 0.0
2017-Apr-24 07:30N 24°25' E 118°04'0 0.0
2017-Apr-24 07:00N 24°25' E 118°04'0 0.0
2017-Apr-24 06:30N 24°25' E 118°04'4711321.3
2017-Apr-24 06:08N 31°58' E 120°25'4713415.1
2017-Apr-24 06:00N 24°25' E 118°04'4717339.6
2017-Apr-24 05:56N 31°59' E 120°27'4711106.0
2017-Apr-24 05:30N 24°25' E 118°04'47117851.5
2017-Apr-24 05:29N 31°59' E 120°27'471995.2
2017-Apr-24 05:01N 24°25' E 118°04'47116958.9
2017-Apr-24 04:59N 31°59' E 120°27'471991.2
2017-Apr-24 04:30N 24°25' E 118°04'4513952.8
2017-Apr-24 04:23N 31°16' E 121°33'4511170.5
2017-Apr-24 04:00N 24°25' E 118°04'45018607.6
2017-Apr-24 03:59N 31°15' E 121°32'2 4.3
2017-Apr-24 03:30N 31°15' E 121°30'449179403.7
2017-Apr-24 03:30N 24°25' E 118°04'0 0.0
2017-Apr-24 03:00N 24°25' E 118°04'0 0.0
2017-Apr-24 02:30N 24°25' E 118°04'0 0.0
2017-Apr-24 02:00N 24°25' E 118°04'4481824.2
2017-Apr-24 01:46N 31°14' E 121°29'691514.8
2017-Apr-24 01:43N 31°59' E 120°27'4712252.2
2017-Apr-24 01:30N 24°25' E 118°04'44967357.7
2017-Apr-24 01:30N 31°15' E 121°30'6927744.6
2017-Apr-24 01:30N 31°59' E 120°27'471961.9
2017-Apr-24 01:00N 24°25' E 118°04'4481524.8
2017-Apr-24 00:43N 31°14' E 121°29'4482177.0
2017-Apr-24 00:30N 24°25' E 118°04'44936731.3
2017-Apr-24 00:30N 31°15' E 121°30'69158.3
2017-Apr-24 00:04N 31°59' E 120°27'4718925.7
2017-Apr-24 00:00N 24°25' E 118°04'47130283.8
2017-Apr-23 23:59N 31°59' E 120°27'471966.3
2017-Apr-23 23:30N 24°25' E 118°04'0 0.0
2017-Apr-23 23:00N 24°25' E 118°04'0 0.0
2017-Apr-23 22:30N 24°25' E 118°04'0 0.0
2017-Apr-23 22:01N 24°25' E 118°04'4712342.4
2017-Apr-23 21:48N 31°59' E 120°27'4711550.2
2017-Apr-23 21:30N 24°25' E 118°04'4711761.1
2017-Apr-23 21:14N 31°59' E 120°27'4712045.7
2017-Apr-23 21:00N 24°25' E 118°04'4712687.7
2017-Apr-23 20:50N 31°59' E 120°27'4711459.5
2017-Apr-23 20:30N 24°25' E 118°04'4718037.5
2017-Apr-23 20:27N 31°59' E 120°27'4711063.9
2017-Apr-23 20:00N 24°25' E 118°04'4712298.0
2017-Apr-23 19:48N 31°59' E 120°27'4711596.9
2017-Apr-23 19:30N 24°25' E 118°04'4713647.1
2017-Apr-23 19:23N 31°59' E 120°27'4711275.1
2017-Apr-23 19:00N 24°25' E 118°04'47120432.7
2017-Apr-23 18:59N 31°59' E 120°27'471987.7
2017-Apr-23 18:30N 24°25' E 118°04'4712409.0
2017-Apr-23 18:19N 31°59' E 120°27'1 4.0
2017-Apr-23 18:03N 31°58' E 120°26'0 6.1
2017-Apr-23 18:00N 31°58' E 120°26'1 5.6
2017-Apr-23 17:53N 31°59' E 120°27'4711266.6
2017-Apr-23 17:31N 24°25' E 118°04'4711694.2
2017-Apr-23 17:14N 31°59' E 120°27'4712119.9
2017-Apr-23 17:01N 24°25' E 118°04'4718479.7
2017-Apr-23 16:57N 31°59' E 120°27'4711060.0
2017-Apr-23 16:31N 24°25' E 118°04'4712398.8
2017-Apr-23 16:19N 31°59' E 120°27'4711518.3
2017-Apr-23 16:00N 24°25' E 118°04'0 0.0
2017-Apr-23 15:31N 24°25' E 118°04'0 0.0
2017-Apr-23 15:00N 24°25' E 118°04'4712055.7
2017-Apr-23 14:47N 31°59' E 120°27'471614.0
2017-Apr-23 14:01N 24°25' E 118°04'47149880.3
2017-Apr-23 14:00N 31°59' E 120°27'471960.3
2017-Apr-23 13:31N 24°25' E 118°04'4714359.7
2017-Apr-23 13:24N 31°59' E 120°27'4711198.5
2017-Apr-23 13:00N 24°25' E 118°04'47116151.7
2017-Apr-23 12:59N 31°59' E 120°27'4711001.1
2017-Apr-23 12:30N 24°25' E 118°04'4713872.0
2017-Apr-23 12:23N 31°59' E 120°27'4711241.5
2017-Apr-23 12:00N 24°25' E 118°04'4711064.7
2017-Apr-23 11:34N 31°59' E 120°27'4718114.8
2017-Apr-23 11:30N 24°25' E 118°04'0 0.0
2017-Apr-23 11:00N 24°25' E 118°04'0 0.0
2017-Apr-23 10:30N 24°25' E 118°04'0 0.0
2017-Apr-23 10:00N 24°25' E 118°04'0 0.0
2017-Apr-23 09:30N 24°25' E 118°04'0 0.0
2017-Apr-23 09:00N 24°25' E 118°04'0 0.0
2017-Apr-23 08:31N 24°25' E 118°04'0 0.0
2017-Apr-23 08:01N 24°25' E 118°04'0 0.0
2017-Apr-23 07:31N 24°25' E 118°04'0 0.0
2017-Apr-23 07:01N 24°25' E 118°04'4712160.4
2017-Apr-23 06:47N 31°59' E 120°27'0 0.0
2017-Apr-23 06:30N 31°59' E 120°27'0 0.0
2017-Apr-23 05:57N 31°59' E 120°27'1 3.6
2017-Apr-23 05:45N 31°58' E 120°26'1 1.7
2017-Apr-23 05:20N 31°59' E 120°27'4713345.2
2017-Apr-23 05:11N 24°25' E 118°04'0 0.0
2017-Apr-23 05:00N 24°25' E 118°04'4715202.4
2017-Apr-23 04:55N 31°59' E 120°27'4711153.7
2017-Apr-23 04:30N 24°25' E 118°04'47170666.4
2017-Apr-23 04:30N 31°59' E 120°27'471953.3
2017-Apr-23 04:00N 24°25' E 118°04'47141365.7
2017-Apr-23 04:00N 31°59' E 120°27'471971.4
2017-Apr-23 03:31N 24°25' E 118°04'4713454.2
2017-Apr-23 03:22N 31°59' E 120°27'110.4
2017-Apr-23 03:15N 31°58' E 120°25'1 4.8
2017-Apr-23 03:00N 31°59' E 120°27'47147099.5
2017-Apr-23 02:59N 24°25' E 118°04'4711112.7
2017-Apr-23 02:34N 31°59' E 120°27'4718231.9
2017-Apr-23 02:31N 24°25' E 118°04'47151386.6
2017-Apr-23 02:30N 31°59' E 120°27'0 3.1
2017-Apr-23 02:30N 31°59' E 120°27'69143.7
2017-Apr-23 02:01N 31°14' E 121°29'44840333.1
2017-Apr-23 02:00N 24°25' E 118°04'47120430.8
2017-Apr-23 01:59N 31°59' E 120°27'692856.8
2017-Apr-23 01:57N 31°15' E 121°29'69396.4
2017-Apr-23 01:47N 31°58' E 120°27'4711668.6
2017-Apr-23 01:30N 24°25' E 118°04'450147126.6
2017-Apr-23 01:30N 31°15' E 121°32'450912.8
2017-Apr-23 01:00N 24°25' E 118°04'4714474.3
2017-Apr-23 00:54N 31°59' E 120°27'4711201.8
2017-Apr-23 00:31N 24°25' E 118°04'4714370.5
2017-Apr-23 00:24N 31°59' E 120°27'4711201.8
2017-Apr-23 00:01N 24°25' E 118°04'4718152.7
2017-Apr-22 23:57N 31°59' E 120°27'4711055.2
2017-Apr-22 23:30N 24°25' E 118°04'4711554.3
2017-Apr-22 23:12N 31°59' E 120°27'4712439.9
2017-Apr-22 23:01N 24°25' E 118°04'4713001.3
2017-Apr-22 22:51N 31°59' E 120°27'4711374.2
2017-Apr-22 22:31N 24°25' E 118°04'4711440.8
2017-Apr-22 22:11N 31°59' E 120°27'4712708.9
2017-Apr-22 22:00N 24°25' E 118°04'47184788.8
2017-Apr-22 22:00N 31°59' E 120°27'471946.3
2017-Apr-22 21:30N 24°25' E 118°04'471282629.5
2017-Apr-22 21:30N 31°59' E 120°27'471952.7
2017-Apr-22 21:01N 24°25' E 118°04'47189251.4
2017-Apr-22 21:00N 31°59' E 120°27'0 0.0
2017-Apr-22 20:30N 31°59' E 120°27'47162805.8
2017-Apr-22 20:30N 24°25' E 118°04'471957.0
2017-Apr-22 20:00N 31°59' E 120°27'471423939.0
2017-Apr-22 20:00N 24°25' E 118°04'0 0.0
2017-Apr-22 19:30N 24°25' E 118°04'47127799.6
2017-Apr-22 19:29N 31°59' E 120°27'0 0.0
2017-Apr-22 19:00N 31°59' E 120°27'47177080.8
2017-Apr-22 19:00N 24°25' E 118°04'0 0.0
2017-Apr-22 18:30N 24°25' E 118°04'4714658.7
2017-Apr-22 18:24N 31°59' E 120°27'4711180.1
2017-Apr-22 18:00N 24°25' E 118°04'4711695756.2
2017-Apr-22 18:00N 31°59' E 120°27'471947.3
2017-Apr-22 17:31N 24°25' E 118°04'471188417.4
2017-Apr-22 17:30N 31°59' E 120°27'471939.5
2017-Apr-22 17:00N 24°25' E 118°04'4712381.7
2017-Apr-22 16:48N 31°59' E 120°27'4711574.5
2017-Apr-22 16:30N 24°25' E 118°04'4714684.4
2017-Apr-22 16:24N 31°59' E 120°27'4711173.5
2017-Apr-22 16:00N 24°25' E 118°04'47120187.6
2017-Apr-22 15:59N 31°59' E 120°27'471987.6
2017-Apr-22 15:30N 24°25' E 118°04'0 0.0
2017-Apr-22 15:00N 24°25' E 118°04'0 0.0
2017-Apr-22 14:31N 24°25' E 118°04'4721400.1
2017-Apr-22 14:10N 31°60' E 120°27'2100.0
2017-Apr-22 14:09N 31°58' E 120°26'1 1.9
2017-Apr-22 13:49N 31°59' E 120°27'4711545.8
2017-Apr-22 13:30N 24°25' E 118°04'4713248.6
2017-Apr-22 13:22N 31°59' E 120°27'4711325.8
2017-Apr-22 13:00N 24°25' E 118°04'0 0.0
2017-Apr-22 12:30N 24°25' E 118°04'0 0.0
2017-Apr-22 12:00N 24°25' E 118°04'0 0.0
2017-Apr-22 11:30N 24°25' E 118°04'0 0.0
2017-Apr-22 11:00N 24°25' E 118°04'47110598.2
2017-Apr-22 10:58N 31°59' E 120°27'4711035.9
2017-Apr-22 10:30N 24°25' E 118°04'4714972.8
2017-Apr-22 10:25N 31°59' E 120°27'4711148.9
2017-Apr-22 10:00N 24°25' E 118°04'4719911.6
2017-Apr-22 09:57N 31°58' E 120°26'4711051.4
2017-Apr-22 09:30N 24°25' E 118°04'0 0.0
2017-Apr-22 09:00N 24°25' E 118°04'0 0.0
2017-Apr-22 08:30N 24°25' E 118°04'0 0.0
2017-Apr-22 08:00N 24°25' E 118°04'0 0.0
2017-Apr-22 07:30N 24°25' E 118°04'4711145.8
2017-Apr-22 07:06N 31°59' E 120°27'4715417.7
2017-Apr-22 07:00N 24°25' E 118°04'0 0.0
2017-Apr-22 06:30N 24°25' E 118°04'0 0.0
2017-Apr-22 06:01N 24°25' E 118°04'0 0.0
2017-Apr-22 05:31N 24°25' E 118°04'0 0.0
2017-Apr-22 05:00N 24°25' E 118°04'0 0.0
2017-Apr-22 04:30N 24°25' E 118°04'0 0.0
2017-Apr-22 04:01N 24°25' E 118°04'0 0.0
2017-Apr-22 03:30N 24°25' E 118°04'0 0.0
2017-Apr-22 03:00N 24°25' E 118°04'0 0.0
2017-Apr-22 02:29N 24°25' E 118°04'0 0.0
2017-Apr-22 02:00N 24°25' E 118°04'0 0.0
2017-Apr-22 01:31N 24°25' E 118°04'0 0.0
2017-Apr-22 01:01N 24°25' E 118°04'0 0.0
2017-Apr-22 00:30N 24°25' E 118°04'4487400.5
2017-Apr-22 00:27N 31°14' E 121°29'4481017.2
2017-Apr-22 00:00N 24°25' E 118°04'449323561.4
2017-Apr-22 00:00N 31°15' E 121°31'449903.3
2017-Apr-21 23:30N 24°25' E 118°04'4481379.8
2017-Apr-21 23:11N 31°14' E 121°29'4482393.1
2017-Apr-21 23:00N 24°25' E 118°04'44910101.3
2017-Apr-21 22:57N 31°15' E 121°30'4491005.7
2017-Apr-21 22:30N 24°25' E 118°04'0 0.0
2017-Apr-21 22:00N 24°25' E 118°04'0 0.0
2017-Apr-21 21:31N 24°25' E 118°04'0 0.0
2017-Apr-21 21:00N 24°25' E 118°04'0 0.0
2017-Apr-21 20:30N 24°25' E 118°04'1086.4
2017-Apr-21 20:23N 24°34' E 118°08'1025.9
2017-Apr-21 20:00N 24°25' E 118°04'0 0.0
2017-Apr-21 19:30N 24°25' E 118°04'0 0.0
2017-Apr-21 19:00N 24°25' E 118°04'0 0.0
2017-Apr-21 18:30N 24°25' E 118°04'0 0.0
2017-Apr-21 18:01N 24°25' E 118°04'0 0.0
2017-Apr-21 17:30N 24°25' E 118°04'4711907.6
2017-Apr-21 17:16N 31°58' E 120°26'4711807.9
2017-Apr-21 17:00N 24°25' E 118°04'0 0.0
2017-Apr-21 16:30N 24°25' E 118°04'0 0.0
2017-Apr-21 16:00N 24°25' E 118°04'0 0.0
2017-Apr-21 15:30N 24°25' E 118°04'0 0.0
2017-Apr-21 15:00N 24°25' E 118°04'0 0.0
2017-Apr-21 14:29N 24°25' E 118°04'0 0.0
2017-Apr-21 13:30N 24°25' E 118°04'0 0.0
2017-Apr-21 13:00N 24°25' E 118°04'0 0.0
2017-Apr-21 12:31N 24°25' E 118°04'4492473.5
2017-Apr-21 12:20N 31°15' E 121°30'4491408.2
2017-Apr-21 12:01N 24°25' E 118°04'0 0.0
2017-Apr-21 11:30N 24°25' E 118°04'0 0.0
2017-Apr-21 11:00N 24°25' E 118°04'0 0.0
2017-Apr-21 10:30N 24°25' E 118°04'4489898.5
2017-Apr-21 10:28N 31°14' E 121°29'448984.4
2017-Apr-21 10:00N 24°25' E 118°04'4507192.1
2017-Apr-21 09:57N 31°15' E 121°32'4491024.8
2017-Apr-21 09:30N 24°25' E 118°04'0 0.0
2017-Apr-21 09:01N 24°25' E 118°04'0 0.0
2017-Apr-21 08:31N 24°25' E 118°04'0 0.0
2017-Apr-21 08:00N 24°25' E 118°04'0 0.0
2017-Apr-21 07:30N 24°25' E 118°04'829356.4
2017-Apr-21 05:11N 37°51' E 121°49'2 8.5
2017-Apr-21 04:57N 37°50' E 121°51'829419.8
2017-Apr-21 02:59N 24°25' E 118°04'0 0.0
2017-Apr-21 02:30N 24°25' E 118°04'0 0.0
2017-Apr-21 02:00N 24°25' E 118°04'0 0.0
2017-Apr-21 01:30N 24°25' E 118°04'0 0.0
2017-Apr-21 01:00N 24°25' E 118°04'0 0.0
2017-Apr-21 00:30N 24°25' E 118°04'0 0.0
2017-Apr-21 00:00N 24°25' E 118°04'0 0.0
2017-Apr-20 23:30N 24°25' E 118°04'590119311.3
2017-Apr-20 23:12N 49°18' W 123°02'1 5.0
2017-Apr-20 23:01N 49°18' W 123°03'5900849547.3
2017-Apr-20 23:00N 24°25' E 118°04'0 0.0
2017-Apr-20 22:31N 24°25' E 118°04'5896816328.0
2017-Apr-20 22:30N 49°19' W 123°08'589611910.5
2017-Apr-20 22:00N 24°25' E 118°04'589339949.8
2017-Apr-20 21:52N 49°18' W 123°12'589316677.2
2017-Apr-20 21:30N 24°25' E 118°04'5892471359.2
2017-Apr-20 21:30N 49°18' W 123°13'589212162.4
2017-Apr-20 21:01N 24°25' E 118°04'5892441916.0
2017-Apr-20 21:00N 49°19' W 123°12'589211977.4
2017-Apr-20 20:30N 24°25' E 118°04'5888730897.9
2017-Apr-20 20:30N 49°19' W 123°18'588812098.2
2017-Apr-20 20:01N 24°25' E 118°04'58831412012.2
2017-Apr-20 20:00N 49°20' W 123°23'588311865.6
2017-Apr-20 19:31N 24°25' E 118°04'58801628372.9
2017-Apr-20 19:30N 49°21' W 123°27'588011832.8
2017-Apr-20 19:00N 24°25' E 118°04'5879133960.5
2017-Apr-20 18:58N 49°22' W 123°27'587912851.1
2017-Apr-20 18:30N 24°25' E 118°04'0 0.0
2017-Apr-20 18:01N 24°25' E 118°04'587975591.5
2017-Apr-20 17:56N 49°22' W 123°27'587913842.8
2017-Apr-20 17:30N 24°25' E 118°04'5879166658.4
2017-Apr-20 17:28N 49°22' W 123°27'587912666.4
2017-Apr-20 17:00N 24°25' E 118°04'58802116631.7
2017-Apr-20 17:00N 49°22' W 123°27'1 1.1
2017-Apr-20 16:30N 49°22' W 123°26'5880431994.9
2017-Apr-20 16:29N 24°25' E 118°04'0 0.0
2017-Apr-20 16:00N 24°25' E 118°04'5878311210.4
2017-Apr-20 15:59N 49°25' W 123°27'587812239.6
2017-Apr-20 15:30N 24°25' E 118°04'0 0.0
2017-Apr-20 15:00N 24°25' E 118°04'0 0.0
2017-Apr-20 14:30N 24°25' E 118°04'0 0.0
2017-Apr-20 13:30N 24°25' E 118°04'0 0.0
2017-Apr-20 13:00N 24°25' E 118°04'0 0.0
2017-Apr-20 12:30N 24°25' E 118°04'0 0.0
2017-Apr-20 12:00N 24°25' E 118°04'0 0.0
2017-Apr-20 11:30N 24°25' E 118°04'0 0.0
2017-Apr-20 11:00N 24°25' E 118°04'0 0.0
2017-Apr-20 10:30N 24°25' E 118°04'0 0.0
2017-Apr-20 10:00N 24°25' E 118°04'0 0.0
2017-Apr-20 09:29N 24°25' E 118°04'0 0.0
2017-Apr-20 09:01N 24°25' E 118°04'7831931.7
2017-Apr-20 08:36N 37°26' E 119°10'7838058.1
2017-Apr-20 08:30N 24°25' E 118°04'784201653.3
2017-Apr-20 08:30N 37°27' E 119°10'7841579.0
2017-Apr-20 08:00N 24°25' E 118°04'0 0.0
2017-Apr-20 07:30N 24°25' E 118°04'2504127.5
2017-Apr-20 07:26N 22°18' E 114°09'250582.4
2017-Apr-20 07:00N 24°25' E 118°04'4501207.6
2017-Apr-20 06:38N 31°15' E 121°32'1 7.6
2017-Apr-20 06:30N 31°15' E 121°31'449404471.0
2017-Apr-20 06:30N 24°25' E 118°04'0 0.0
2017-Apr-20 06:01N 24°25' E 118°04'0 0.0
2017-Apr-20 05:30N 24°25' E 118°04'  
Track history (hours):
 
Tides and Currents Weather Stations Pressure Air Temp Water Temp Dewpoint Dewpoint Depression Visibility Wind Speed Wind Dir Waves Ship Positions

Callsign 000000 (name unknown)

Last reported at 2017-Apr-30 05:00 UTC. Time now 2017-Apr-30 05:17 UTC.
Position N 24°25' E 118°02'.

Type: Fishing. MMSI: 200007452.

Date/timePositionNaut miles runAvg speedWind from/ knotsBaromVisibWave heightAir tempDewpointWater temp
2017-Apr-30 05:00N 24°25' E 118°02'461184337.0
2017-Apr-30 05:00N 31°30' E 121°25'0 9.6
2017-Apr-30 04:58N 31°29' E 121°25'127.5
2017-Apr-30 04:56N 31°29' E 121°25'263.8
2017-Apr-30 04:55N 31°31' E 121°23'266.8
2017-Apr-30 04:53N 31°31' E 121°25'155.0
2017-Apr-30 04:52N 31°29' E 121°25'3681598.5
2017-Apr-30 04:38N 37°22' E 119°19'3662946.9
2017-Apr-30 04:30N 31°31' E 121°23'4611660215.2
2017-Apr-30 04:30N 24°25' E 118°02'461207418.3
2017-Apr-30 04:30N 31°30' E 121°23'244.3
2017-Apr-30 04:28N 31°29' E 121°25'0322.7
2017-Apr-30 04:28N 31°29' E 121°25'1 1.3
2017-Apr-30 04:01N 31°29' E 121°25'1119.2
2017-Apr-30 04:00N 31°29' E 121°25'461829080.8
2017-Apr-30 04:00N 24°25' E 118°02'4619708.6
2017-Apr-30 03:58N 31°31' E 121°23'230.5
2017-Apr-30 03:53N 31°29' E 121°25'032.9
2017-Apr-30 03:52N 31°29' E 121°25'238.2
2017-Apr-30 03:49N 31°30' E 121°23'4611419.4
2017-Apr-30 03:30N 24°25' E 118°02'46130184.6
2017-Apr-30 03:29N 31°31' E 121°23'025.2
2017-Apr-30 03:28N 31°30' E 121°23'223.1
2017-Apr-30 03:23N 31°29' E 121°25'114.8
2017-Apr-30 03:20N 31°29' E 121°25'0 5.8
2017-Apr-30 03:18N 31°29' E 121°25'4283536.1
2017-Apr-30 03:10N 38°30' E 123°05'4193549.0
2017-Apr-30 03:03N 31°42' E 121°10'4678406.4
2017-Apr-30 03:00N 24°25' E 118°02'88290716.6
2017-Apr-30 02:59N 38°28' E 123°06'4269124.8
2017-Apr-30 02:57N 31°31' E 121°23'282.6
2017-Apr-30 02:55N 31°29' E 121°25'015.3
2017-Apr-30 02:54N 31°29' E 121°25'124.1
2017-Apr-30 02:52N 31°29' E 121°25'16280.1
2017-Apr-30 02:49N 31°41' E 121°11'153107.3
2017-Apr-30 02:49N 31°30' E 121°23'211.1
2017-Apr-30 02:38N 31°29' E 121°25'15120.3
2017-Apr-30 02:31N 31°40' E 121°12'466209881.1
2017-Apr-30 02:30N 24°25' E 118°02'87713327.4
2017-Apr-30 02:26N 38°23' E 123°07'42212654.0
2017-Apr-30 02:24N 31°29' E 121°25'249.9
2017-Apr-30 02:22N 31°30' E 121°23'2305.9
2017-Apr-30 02:22N 31°29' E 121°25'0 0.7
2017-Apr-30 02:03N 31°29' E 121°25'2197.1
2017-Apr-30 02:02N 31°31' E 121°23'11381.7
2017-Apr-30 02:00N 31°39' E 121°15'466279411.3
2017-Apr-30 02:00N 24°25' E 118°02'874142948.8
2017-Apr-30 02:00N 38°19' E 123°08'41814323.9
2017-Apr-30 01:58N 31°29' E 121°25'0 9.2
2017-Apr-30 01:56N 31°29' E 121°25'2215.9
2017-Apr-30 01:56N 31°30' E 121°23'237.8
2017-Apr-30 01:53N 31°29' E 121°25'251.3
2017-Apr-30 01:50N 31°31' E 121°23'2 6.0
2017-Apr-30 01:31N 31°29' E 121°25'461127544.1
2017-Apr-30 01:30N 24°25' E 118°02'46116753.8
2017-Apr-30 01:29N 31°29' E 121°25'230.9
2017-Apr-30 01:25N 31°31' E 121°23'320.0
2017-Apr-30 01:17N 31°29' E 121°25'221.9
2017-Apr-30 01:10N 31°30' E 121°23'17303.0
2017-Apr-30 01:07N 31°15' E 121°33'32280.4
2017-Apr-30 01:00N 31°06' E 120°56'334964.1
2017-Apr-30 01:00N 31°30' E 121°24'1367.2
2017-Apr-30 01:00N 31°29' E 121°25'1611224.6
2017-Apr-30 00:59N 31°15' E 121°32'450810030.3
2017-Apr-30 00:59N 24°25' E 118°02'46436290.4
2017-Apr-30 00:59N 31°35' E 121°19'6107.7
2017-Apr-30 00:55N 31°30' E 121°23'0 3.1
2017-Apr-30 00:48N 31°31' E 121°23'151306.1
2017-Apr-30 00:47N 31°41' E 121°11'46634935.6
2017-Apr-30 00:47N 24°27' E 118°01'2 6.0
2017-Apr-30 00:31N 24°25' E 118°02'1173.9
2017-Apr-30 00:30N 24°26' E 118°03'46063745.6
2017-Apr-30 00:30N 31°32' E 121°21'139.6
2017-Apr-30 00:28N 31°33' E 121°21'3234.1
2017-Apr-30 00:27N 31°31' E 121°23'40280437.4
2017-Apr-30 00:26N 38°03' E 123°12'40223752.7
2017-Apr-30 00:25N 31°30' E 121°23'250.7
2017-Apr-30 00:23N 31°29' E 121°25'0 1.9
2017-Apr-30 00:17N 31°29' E 121°25'17143.4
2017-Apr-30 00:09N 31°41' E 121°11'3472455.3
2017-Apr-30 00:01N 37°28' E 121°36'80476165.7
2017-Apr-30 00:00N 24°25' E 118°02'1369.0
2017-Apr-30 00:00N 24°25' E 118°03'461332078.2
2017-Apr-30 00:00N 31°32' E 121°23'35738894.7
2017-Apr-29 23:59N 37°28' E 121°36'35436441.7
2017-Apr-29 23:59N 31°34' E 121°19'794.4
2017-Apr-29 23:54N 31°29' E 121°25'2107.7
2017-Apr-29 23:54N 31°30' E 121°23'0 2.8
2017-Apr-29 23:46N 31°31' E 121°23'158925.0
2017-Apr-29 23:45N 31°41' E 121°11'3501399.6
2017-Apr-29 23:30N 37°30' E 121°38'807290385.1
2017-Apr-29 23:30N 24°25' E 118°02'1469.6
2017-Apr-29 23:30N 24°25' E 118°03'46420863.4
2017-Apr-29 23:29N 31°37' E 121°16'10125.9
2017-Apr-29 23:24N 31°29' E 121°25'17713.2
2017-Apr-29 23:22N 31°41' E 121°11'15174.6
2017-Apr-29 23:17N 31°30' E 121°23'212.7
2017-Apr-29 23:09N 31°29' E 121°25'3642633.5
2017-Apr-29 23:00N 37°33' E 121°40'810582885.4
2017-Apr-29 23:00N 24°25' E 118°02'46539897.8
2017-Apr-29 23:00N 31°39' E 121°13'13394.3
2017-Apr-29 22:58N 31°29' E 121°25'46051735.6
2017-Apr-29 22:57N 24°25' E 118°03'4665381.2
2017-Apr-29 22:52N 31°41' E 121°11'156697.7
2017-Apr-29 22:52N 31°31' E 121°23'032.0
2017-Apr-29 22:51N 31°30' E 121°23'2 8.5
2017-Apr-29 22:38N 31°29' E 121°25'4613419.9
2017-Apr-29 22:30N 24°25' E 118°02'1397.6
2017-Apr-29 22:30N 24°25' E 118°03'46620699.0
2017-Apr-29 22:29N 31°41' E 121°11'15120.2
2017-Apr-29 22:21N 31°30' E 121°23'022.5
2017-Apr-29 22:20N 31°31' E 121°23'229.1
2017-Apr-29 22:16N 31°29' E 121°25'17136.3
2017-Apr-29 22:09N 31°41' E 121°11'4673271.3
2017-Apr-29 22:00N 24°25' E 118°02'46197649.9
2017-Apr-29 22:00N 31°31' E 121°23'2176.7
2017-Apr-29 21:59N 31°29' E 121°25'19569.5
2017-Apr-29 21:58N 31°42' E 121°08'17101.9
2017-Apr-29 21:47N 31°30' E 121°23'227.4
2017-Apr-29 21:44N 31°29' E 121°25'4612118.3
2017-Apr-29 21:30N 24°25' E 118°02'1224.5
2017-Apr-29 21:30N 24°25' E 118°03'46044749.2
2017-Apr-29 21:29N 31°29' E 121°25'011.0
2017-Apr-29 21:28N 31°29' E 121°25'17128.9
2017-Apr-29 21:20N 31°41' E 121°11'15284.7
2017-Apr-29 21:17N 31°30' E 121°23'4611660.9
2017-Apr-29 21:01N 24°25' E 118°02'461276394.9
2017-Apr-29 21:00N 31°29' E 121°25'46087145.5
2017-Apr-29 21:00N 24°25' E 118°03'46025887.9
2017-Apr-29 20:59N 31°30' E 121°23'228.4
2017-Apr-29 20:55N 31°30' E 121°25'1763.9
2017-Apr-29 20:39N 31°41' E 121°11'4673125.5
2017-Apr-29 20:30N 24°25' E 118°02'1245.9
2017-Apr-29 20:30N 24°25' E 118°03'46068991.8
2017-Apr-29 20:30N 31°29' E 121°25'0 8.4
2017-Apr-29 20:29N 31°30' E 121°25'0 9.0
2017-Apr-29 20:27N 31°29' E 121°25'2150.9
2017-Apr-29 20:27N 31°30' E 121°23'15145.5
2017-Apr-29 20:20N 31°41' E 121°11'4671403.6
2017-Apr-29 20:00N 24°25' E 118°02'1235.0
2017-Apr-29 20:00N 24°25' E 118°03'4605833.4
2017-Apr-29 19:55N 31°30' E 121°23'280.4
2017-Apr-29 19:54N 31°30' E 121°25'0 5.4
2017-Apr-29 19:52N 31°29' E 121°25'4611294.5
2017-Apr-29 19:30N 24°25' E 118°02'1286.5
2017-Apr-29 19:30N 24°25' E 118°03'46021508.9
2017-Apr-29 19:29N 31°30' E 121°25'265.5
2017-Apr-29 19:27N 31°30' E 121°23'220.5
2017-Apr-29 19:22N 31°29' E 121°25'17336.7
2017-Apr-29 19:19N 31°41' E 121°11'4661447.5
2017-Apr-29 19:00N 24°25' E 118°03'12581.5
2017-Apr-29 19:00N 24°25' E 118°02'46111287.8
2017-Apr-29 18:58N 31°30' E 121°23'21070.1
2017-Apr-29 18:57N 31°30' E 121°25'18554.2
2017-Apr-29 18:56N 31°42' E 121°09'134.2
2017-Apr-29 18:53N 31°41' E 121°11'17535.2
2017-Apr-29 18:52N 31°29' E 121°25'4611304.8
2017-Apr-29 18:30N 24°25' E 118°02'1233.9
2017-Apr-29 18:30N 24°25' E 118°03'46554043.2
2017-Apr-29 18:30N 31°40' E 121°13'13601.9
2017-Apr-29 18:28N 31°30' E 121°23'276.8
2017-Apr-29 18:27N 31°30' E 121°25'17309.8
2017-Apr-29 18:24N 31°41' E 121°11'1794.9
2017-Apr-29 18:13N 31°29' E 121°25'0 0.7
2017-Apr-29 18:00N 31°30' E 121°25'461276469.8
2017-Apr-29 18:00N 24°25' E 118°02'461184378.9
2017-Apr-29 18:00N 31°30' E 121°23'460236691.5
2017-Apr-29 18:00N 24°25' E 118°03'464334060.5
2017-Apr-29 18:00N 31°37' E 121°17'25167.5
2017-Apr-29 17:51N 31°14' E 121°29'31149.1
2017-Apr-29 17:38N 31°41' E 121°11'32277.7
2017-Apr-29 17:32N 31°14' E 121°29'211208.4
2017-Apr-29 17:31N 31°34' E 121°20'4621663169.4
2017-Apr-29 17:31N 24°25' E 118°04'449179572.3
2017-Apr-29 17:30N 31°15' E 121°31'1655990.1
2017-Apr-29 17:30N 31°30' E 121°25'46134560.4
2017-Apr-29 17:30N 24°25' E 118°02'44913688.5
2017-Apr-29 17:28N 31°14' E 121°29'311585.8
2017-Apr-29 17:26N 31°41' E 121°11'156098.3
2017-Apr-29 17:26N 31°30' E 121°23'0 2.9
2017-Apr-29 17:18N 31°31' E 121°23'2 7.2
2017-Apr-29 17:03N 31°29' E 121°25'259.7
2017-Apr-29 17:01N 31°31' E 121°23'462831490.0
2017-Apr-29 17:00N 24°23' E 118°08'610417.7
2017-Apr-29 17:00N 24°25' E 118°02'46137712.2
2017-Apr-29 17:00N 31°30' E 121°23'15123.8
2017-Apr-29 16:52N 31°41' E 121°11'15372.1
2017-Apr-29 16:50N 31°31' E 121°23'227.0
2017-Apr-29 16:45N 31°30' E 121°25'4611861.8
2017-Apr-29 16:30N 24°25' E 118°02'461110590.6
2017-Apr-29 16:30N 31°30' E 121°25'023.6
2017-Apr-29 16:30N 31°29' E 121°25'2295.0
2017-Apr-29 16:29N 31°30' E 121°23'46369403.7
2017-Apr-29 16:29N 24°20' E 118°11'46221344.1
2017-Apr-29 16:28N 31°29' E 121°25'17798.7
2017-Apr-29 16:26N 31°41' E 121°11'15189.4
2017-Apr-29 16:22N 31°31' E 121°23'0 1.6
2017-Apr-29 16:12N 31°30' E 121°23'4612426.1
2017-Apr-29 16:01N 24°25' E 118°02'12463.3
2017-Apr-29 15:59N 24°15' E 118°09'4678496.4
2017-Apr-29 15:56N 31°29' E 121°25'0 2.6
2017-Apr-29 15:50N 31°29' E 121°25'21400.0
2017-Apr-29 15:50N 31°31' E 121°23'0 7.0
2017-Apr-29 15:46N 31°30' E 121°23'4611750.3
2017-Apr-29 15:30N 24°25' E 118°02'461276451.8
2017-Apr-29 15:30N 31°29' E 121°25'47120192.2
2017-Apr-29 15:29N 24°13' E 118°05'471130521.9
2017-Apr-29 15:29N 31°30' E 121°23'244.5
2017-Apr-29 15:27N 31°29' E 121°25'299.5
2017-Apr-29 15:25N 31°31' E 121°23'1379.3
2017-Apr-29 15:16N 31°40' E 121°13'4661849.1
2017-Apr-29 15:01N 24°25' E 118°02'4616634.7
2017-Apr-29 14:56N 31°29' E 121°25'149961.9
2017-Apr-29 14:56N 31°39' E 121°13'12208.7
2017-Apr-29 14:53N 31°31' E 121°23'2 8.8
2017-Apr-29 14:39N 31°29' E 121°25'014.9
2017-Apr-29 14:38N 31°29' E 121°25'2123.2
2017-Apr-29 14:37N 31°30' E 121°23'4614066.8
2017-Apr-29 14:30N 24°25' E 118°02'46182923.5
2017-Apr-29 14:30N 31°29' E 121°25'461935.4
2017-Apr-29 14:01N 24°25' E 118°02'46175461.9
2017-Apr-29 14:00N 31°31' E 121°23'2209.0
2017-Apr-29 14:00N 31°29' E 121°25'0 8.3
2017-Apr-29 13:57N 31°29' E 121°25'215.2
2017-Apr-29 13:50N 31°30' E 121°23'121082.9
2017-Apr-29 13:49N 31°39' E 121°13'13112.2
2017-Apr-29 13:43N 31°30' E 121°24'4602276.8
2017-Apr-29 13:31N 24°25' E 118°02'46520682.9
2017-Apr-29 13:29N 31°39' E 121°13'12188.5
2017-Apr-29 13:25N 31°30' E 121°23'1197.2
2017-Apr-29 13:25N 31°31' E 121°22'3219.6
2017-Apr-29 13:24N 31°29' E 121°25'224.6
2017-Apr-29 13:20N 31°31' E 121°23'7144.5
2017-Apr-29 13:17N 31°26' E 121°29'10401.9
2017-Apr-29 13:15N 31°32' E 121°20'1 2.2
2017-Apr-29 13:00N 31°33' E 121°20'462277115.0
2017-Apr-29 13:00N 24°25' E 118°02'46071969.7
2017-Apr-29 13:00N 31°28' E 121°27'94102.5
2017-Apr-29 13:00N 31°34' E 121°19'7131.4
2017-Apr-29 12:57N 31°39' E 121°13'133006.2
2017-Apr-29 12:56N 31°29' E 121°25'2993.1
2017-Apr-29 12:56N 31°30' E 121°23'226.3
2017-Apr-29 12:52N 31°29' E 121°25'218.2
2017-Apr-29 12:45N 31°31' E 121°23'4611822.2
2017-Apr-29 12:30N 24°25' E 118°02'46141478.0
2017-Apr-29 12:29N 31°31' E 121°22'196.7
2017-Apr-29 12:29N 31°31' E 121°23'76142.3
2017-Apr-29 12:29N 31°35' E 121°17'9931.7
2017-Apr-29 12:28N 31°29' E 121°25'0 3.9
2017-Apr-29 12:25N 31°29' E 121°25'12101.3
2017-Apr-29 12:18N 31°38' E 121°15'146.2
2017-Apr-29 12:16N 31°39' E 121°13'12180.6
2017-Apr-29 12:12N 31°30' E 121°23'15144.7
2017-Apr-29 12:06N 31°41' E 121°11'435.1
2017-Apr-29 12:00N 31°39' E 121°13'46598540.4
2017-Apr-29 12:00N 24°25' E 118°02'46515797.7
2017-Apr-29 11:58N 31°38' E 121°14'12139.7
2017-Apr-29 11:53N 31°29' E 121°25'2 9.8
2017-Apr-29 11:40N 31°31' E 121°23'011.1
2017-Apr-29 11:38N 31°30' E 121°23'4613406.9
2017-Apr-29 11:30N 24°25' E 118°02'46514561.0
2017-Apr-29 11:28N 31°38' E 121°14'1112817.9
2017-Apr-29 11:28N 31°30' E 121°23'36648736.7
2017-Apr-29 11:28N 37°36' E 121°40'35853643.8
2017-Apr-29 11:28N 31°39' E 121°13'13388.0
2017-Apr-29 11:25N 31°29' E 121°25'0 1.5
2017-Apr-29 11:17N 31°29' E 121°25'2113.4
2017-Apr-29 11:16N 31°31' E 121°23'213.1
2017-Apr-29 11:06N 31°29' E 121°25'0 1.8
2017-Apr-29 11:00N 31°29' E 121°25'461829311.0
2017-Apr-29 11:00N 24°25' E 118°02'46776353.2
2017-Apr-29 11:00N 31°41' E 121°10'17808.2
2017-Apr-29 10:59N 31°29' E 121°25'3694453.5
2017-Apr-29 10:54N 37°38' E 121°41'360161924.3
2017-Apr-29 10:54N 31°39' E 121°13'134811.4
2017-Apr-29 10:53N 31°29' E 121°25'285.5
2017-Apr-29 10:52N 31°30' E 121°23'0 1.7
2017-Apr-29 10:40N 31°31' E 121°23'4612959.1
2017-Apr-29 10:30N 24°25' E 118°02'81875548.4
2017-Apr-29 10:30N 37°42' E 121°40'364100769.0
2017-Apr-29 10:29N 31°39' E 121°13'13907.8
2017-Apr-29 10:29N 31°29' E 121°25'260.5
2017-Apr-29 10:27N 31°31' E 121°23'0 6.4
2017-Apr-29 10:23N 31°30' E 121°23'2108.4
2017-Apr-29 10:22N 31°29' E 121°25'4611272.9
2017-Apr-29 10:01N 24°25' E 118°02'461829589.5
2017-Apr-29 10:00N 31°30' E 121°23'21189.4
2017-Apr-29 10:00N 31°29' E 121°25'17187.3
2017-Apr-29 09:55N 31°41' E 121°11'171851.5
2017-Apr-29 09:54N 31°29' E 121°25'229.5
2017-Apr-29 09:50N 31°31' E 121°23'0 0.0
2017-Apr-29 09:30N 31°31' E 121°23'461207508.5
2017-Apr-29 09:30N 24°25' E 118°02'46124764.2
2017-Apr-29 09:29N 31°30' E 121°23'232.5
2017-Apr-29 09:26N 31°29' E 121°25'17118.0
2017-Apr-29 09:17N 31°41' E 121°11'4671685.0
2017-Apr-29 09:00N 24°25' E 118°02'4611659218.6
2017-Apr-29 09:00N 31°30' E 121°23'0 3.5
2017-Apr-29 08:54N 31°31' E 121°23'243.7
2017-Apr-29 08:51N 31°29' E 121°25'0 4.5
2017-Apr-29 08:48N 31°30' E 121°25'4611546.0
2017-Apr-29 08:30N 24°25' E 118°02'461276467.4
2017-Apr-29 08:30N 31°30' E 121°25'252.1
2017-Apr-29 08:28N 31°30' E 121°23'2125.5
2017-Apr-29 08:27N 31°29' E 121°25'22439.6
2017-Apr-29 08:27N 31°31' E 121°23'215.5
2017-Apr-29 08:19N 31°29' E 121°25'4611502.3
2017-Apr-29 08:00N 24°25' E 118°02'4614015.2
2017-Apr-29 07:54N 31°29' E 121°25'044.2
2017-Apr-29 07:53N 31°29' E 121°25'233.1
2017-Apr-29 07:49N 31°30' E 121°23'2626.8
2017-Apr-29 07:49N 31°30' E 121°25'227.0
2017-Apr-29 07:45N 31°31' E 121°23'4611962.3
2017-Apr-29 07:30N 24°25' E 118°02'4611309.2
2017-Apr-29 07:09N 31°30' E 121°25'0 1.9
2017-Apr-29 07:02N 31°29' E 121°25'46113373.8
2017-Apr-29 07:00N 24°25' E 118°02'4616241.3
2017-Apr-29 06:56N 31°31' E 121°23'2179.1
2017-Apr-29 06:55N 31°30' E 121°25'242.5
2017-Apr-29 06:53N 31°30' E 121°23'215.2
2017-Apr-29 06:46N 31°29' E 121°25'4611716.5
2017-Apr-29 06:30N 24°25' E 118°02'46132525.5
2017-Apr-29 06:29N 31°30' E 121°25'17692.9
2017-Apr-29 06:28N 31°41' E 121°11'15164.6
2017-Apr-29 06:22N 31°30' E 121°23'4611262.9
2017-Apr-29 06:01N 24°25' E 118°02'46182964.9
2017-Apr-29 06:00N 31°30' E 121°23'6742083.6
2017-Apr-29 05:41N 22°18' E 114°09'6774158.9
2017-Apr-29 05:31N 31°41' E 121°11'46739101.7
2017-Apr-29 05:30N 24°25' E 118°02'461276549.5
2017-Apr-29 05:30N 31°30' E 121°23'220.1
2017-Apr-29 05:25N 31°29' E 121°25'67418960.1
2017-Apr-29 05:23N 22°19' E 114°09'6744080.1
2017-Apr-29 05:13N 31°30' E 121°25'15233.1
2017-Apr-29 05:09N 31°15' E 121°30'311314.4
2017-Apr-29 05:08N 31°41' E 121°11'153131.5
2017-Apr-29 05:08N 31°31' E 121°23'4613773.5
2017-Apr-29 05:00N 24°25' E 118°02'46131309.4
2017-Apr-29 04:59N 31°30' E 121°23'171283.2
2017-Apr-29 04:59N 31°15' E 121°31'154270.6
2017-Apr-29 04:58N 31°29' E 121°25'036.0
2017-Apr-29 04:58N 31°29' E 121°25'14209.8
2017-Apr-29 04:54N 31°40' E 121°14'12350.4
2017-Apr-29 04:51N 31°31' E 121°23'2838.5
2017-Apr-29 04:51N 31°30' E 121°25'17159.9
2017-Apr-29 04:45N 31°41' E 121°11'4671885.0
2017-Apr-29 04:30N 24°25' E 118°02'46129622.5
2017-Apr-29 04:29N 31°30' E 121°25'220.2
2017-Apr-29 04:23N 31°31' E 121°23'0 7.2
2017-Apr-29 04:20N 31°30' E 121°23'15398.6
2017-Apr-29 04:18N 31°41' E 121°11'17794.7
2017-Apr-29 04:17N 31°29' E 121°25'1487.3
2017-Apr-29 04:07N 31°40' E 121°14'4674210.9
2017-Apr-29 04:00N 24°25' E 118°02'46118653.5
2017-Apr-29 03:59N 31°31' E 121°23'12732.4
2017-Apr-29 03:58N 31°40' E 121°14'132159.2
2017-Apr-29 03:58N 31°30' E 121°23'246.8
2017-Apr-29 03:55N 31°29' E 121°25'0 1.5
2017-Apr-29 03:46N 31°29' E 121°25'6749668.0
2017-Apr-29 03:42N 22°19' E 114°09'2481262.0
2017-Apr-29 03:30N 24°25' E 118°02'461552771.8
2017-Apr-29 03:30N 31°29' E 121°25'229.9
2017-Apr-29 03:26N 31°31' E 121°23'2 9.7
2017-Apr-29 03:13N 31°29' E 121°25'4612105.1
2017-Apr-29 03:00N 24°25' E 118°02'4619476.1
2017-Apr-29 02:57N 31°29' E 121°25'14146.1
2017-Apr-29 02:52N 31°40' E 121°14'13172.6
2017-Apr-29 02:47N 31°30' E 121°23'211.6
2017-Apr-29 02:38N 31°29' E 121°25'21265.9
2017-Apr-29 02:38N 31°31' E 121°23'0 3.0
2017-Apr-29 02:30N 31°30' E 121°23'46163817.2
2017-Apr-29 02:30N 24°25' E 118°02'4618377.2
2017-Apr-29 02:27N 31°29' E 121°25'076.8
2017-Apr-29 02:27N 31°29' E 121°25'14930.2
2017-Apr-29 02:26N 31°40' E 121°14'141000.9
2017-Apr-29 02:25N 31°29' E 121°25'241.5
2017-Apr-29 02:22N 31°31' E 121°23'4611301.1
2017-Apr-29 02:00N 24°25' E 118°02'46131890.8
2017-Apr-29 01:59N 31°29' E 121°25'246.2
2017-Apr-29 01:57N 31°30' E 121°23'0 5.3
2017-Apr-29 01:53N 31°31' E 121°23'276.6
2017-Apr-29 01:51N 31°29' E 121°25'1454.0
2017-Apr-29 01:36N 31°40' E 121°14'4675283.3
2017-Apr-29 01:30N 24°25' E 118°02'4679941.4
2017-Apr-29 01:27N 31°40' E 121°14'13180.9
2017-Apr-29 01:23N 31°30' E 121°23'2158.3
2017-Apr-29 01:23N 31°29' E 121°25'0 3.1
2017-Apr-29 01:18N 31°29' E 121°25'265.2
2017-Apr-29 01:17N 31°31' E 121°23'4611711.4
2017-Apr-29 01:01N 24°25' E 118°02'46669890.8
2017-Apr-29 01:00N 31°39' E 121°14'1139453.3
2017-Apr-29 01:00N 31°31' E 121°23'014.9
2017-Apr-29 00:59N 31°30' E 121°23'286.2
2017-Apr-29 00:57N 31°29' E 121°25'094.6
2017-Apr-29 00:57N 31°29' E 121°25'0 1.4
2017-Apr-29 00:50N 31°29' E 121°25'4611363.8
2017-Apr-29 00:30N 24°25' E 118°02'46517097.1
2017-Apr-29 00:28N 31°38' E 121°16'115042.0
2017-Apr-29 00:28N 31°29' E 121°25'23250.8
2017-Apr-29 00:28N 31°30' E 121°23'2141.9
2017-Apr-29 00:28N 31°29' E 121°25'229.3
2017-Apr-29 00:24N 31°31' E 121°23'4611199.5
2017-Apr-29 00:00N 24°25' E 118°02'46122134.0
2017-Apr-28 23:59N 31°31' E 121°23'71470.0
2017-Apr-28 23:59N 31°36' E 121°18'9767.9
2017-Apr-28 23:58N 31°29' E 121°25'0 1.8
2017-Apr-28 23:51N 31°29' E 121°25'256.6
2017-Apr-28 23:49N 31°30' E 121°23'2 5.2
2017-Apr-28 23:30N 31°29' E 121°25'7508.3
2017-Apr-28 23:30N 31°35' E 121°19'667.9
2017-Apr-28 23:25N 31°30' E 121°23'012.4
2017-Apr-28 23:23N 31°31' E 121°23'2281.3
2017-Apr-28 23:22N 31°29' E 121°25'513.8
2017-Apr-28 23:00N 31°33' E 121°21'462554969.3
2017-Apr-28 23:00N 24°25' E 118°02'46114435.2
2017-Apr-28 22:58N 31°31' E 121°23'213.0
2017-Apr-28 22:49N 31°29' E 121°25'015.6
2017-Apr-28 22:49N 31°29' E 121°25'2270.5
2017-Apr-28 22:48N 31°30' E 121°23'249.5
2017-Apr-28 22:46N 31°29' E 121°25'310.9
2017-Apr-28 22:30N 31°32' E 121°23'46266525.9
2017-Apr-28 22:30N 24°25' E 118°02'46122407.4
2017-Apr-28 22:29N 31°29' E 121°25'0 4.8
2017-Apr-28 22:25N 31°29' E 121°25'278.9
2017-Apr-28 22:23N 31°30' E 121°23'016.6
2017-Apr-28 22:22N 31°31' E 121°23'2 9.5
2017-Apr-28 22:09N 31°29' E 121°25'4613350.8
2017-Apr-28 22:00N 24°25' E 118°02'4613343.1
2017-Apr-28 21:52N 31°29' E 121°25'0 4.5
2017-Apr-28 21:49N 31°29' E 121°25'17303.7
2017-Apr-28 21:46N 31°41' E 121°11'15104.1
2017-Apr-28 21:37N 31°31' E 121°23'217.1
2017-Apr-28 21:30N 31°29' E 121°25'21187.0
2017-Apr-28 21:30N 31°30' E 121°23'461237022.7
2017-Apr-28 21:30N 24°25' E 118°02'46130157.1
2017-Apr-28 21:29N 31°29' E 121°25'230.3
2017-Apr-28 21:25N 31°31' E 121°23'153829.5
2017-Apr-28 21:25N 31°41' E 121°11'1757.2
2017-Apr-28 21:07N 31°29' E 121°25'4614094.9
2017-Apr-28 21:00N 24°25' E 118°02'46110111.1
2017-Apr-28 20:58N 31°29' E 121°25'273.0
2017-Apr-28 20:56N 31°30' E 121°23'238.1
2017-Apr-28 20:53N 31°29' E 121°25'0 1.2
2017-Apr-28 20:47N 31°29' E 121°25'4611678.7
2017-Apr-28 20:30N 24°25' E 118°02'46129104.2
2017-Apr-28 20:29N 31°30' E 121°25'073.0
2017-Apr-28 20:29N 31°29' E 121°25'035.1
2017-Apr-28 20:29N 31°29' E 121°25'1736.7
2017-Apr-28 20:01N 31°41' E 121°11'46748043.4
2017-Apr-28 20:00N 24°25' E 118°02'46118429.5
2017-Apr-28 19:59N 31°29' E 121°25'171101.1
2017-Apr-28 19:58N 31°41' E 121°11'17172.1
2017-Apr-28 19:52N 31°29' E 121°25'018.3
2017-Apr-28 19:52N 31°30' E 121°25'2 8.5
2017-Apr-28 19:39N 31°30' E 121°23'4613130.7
2017-Apr-28 19:30N 24°25' E 118°02'461236970.0
2017-Apr-28 19:30N 31°30' E 121°25'0 2.7
2017-Apr-28 19:27N 31°29' E 121°25'0 8.2
2017-Apr-28 19:25N 31°29' E 121°25'274.0
2017-Apr-28 19:23N 31°30' E 121°23'15714.2
2017-Apr-28 19:22N 31°41' E 121°11'1777.4
2017-Apr-28 19:09N 31°29' E 121°25'4613316.9
2017-Apr-28 19:00N 24°25' E 118°02'46124045.9
2017-Apr-28 18:59N 31°30' E 121°23'15217.7
2017-Apr-28 18:55N 31°41' E 121°11'17285.9
2017-Apr-28 18:51N 31°29' E 121°25'054.8
2017-Apr-28 18:51N 31°29' E 121°25'0 2.2
2017-Apr-28 18:43N 31°30' E 121°25'4612154.3
2017-Apr-28 18:31N 24°25' E 118°02'46125511.9
2017-Apr-28 18:29N 31°29' E 121°25'2130.9
2017-Apr-28 18:29N 31°30' E 121°23'151338.7
2017-Apr-28 18:28N 31°41' E 121°11'174354.4
2017-Apr-28 18:28N 31°30' E 121°25'015.6
2017-Apr-28 18:27N 31°29' E 121°25'224.0
2017-Apr-28 18:21N 31°31' E 121°23'4611360.9
2017-Apr-28 18:00N 24°25' E 118°02'46124395.4
2017-Apr-28 17:59N 31°30' E 121°25'2129.0
2017-Apr-28 17:58N 31°30' E 121°23'021.4
2017-Apr-28 17:57N 31°31' E 121°23'15264.1
2017-Apr-28 17:54N 31°41' E 121°11'212.2
2017-Apr-28 17:46N 31°40' E 121°12'16210.3
2017-Apr-28 17:42N 31°29' E 121°25'4612379.8
2017-Apr-28 17:30N 24°25' E 118°02'461552953.2
2017-Apr-28 17:30N 31°30' E 121°25'17814.2
2017-Apr-28 17:29N 31°41' E 121°11'151249.5
2017-Apr-28 17:28N 31°30' E 121°23'1051.0
2017-Apr-28 17:17N 31°38' E 121°16'5146.5
2017-Apr-28 17:15N 31°41' E 121°11'14401.9
2017-Apr-28 17:13N 31°31' E 121°23'234.3
2017-Apr-28 17:09N 31°29' E 121°25'4613054.0
2017-Apr-28 17:00N 24°25' E 118°02'46633568.7
2017-Apr-28 17:00N 31°40' E 121°13'14267.8
2017-Apr-28 16:56N 31°30' E 121°25'171327.2
2017-Apr-28 16:56N 31°41' E 121°11'9574.4
2017-Apr-28 16:55N 31°35' E 121°18'63816.9
2017-Apr-28 16:55N 31°30' E 121°23'2625.6
2017-Apr-28 16:54N 31°29' E 121°25'0 1.2
2017-Apr-28 16:37N 31°29' E 121°25'4614285.9
2017-Apr-28 16:30N 24°25' E 118°02'46739086.0
2017-Apr-28 16:30N 31°41' E 121°10'72563.3
2017-Apr-28 16:29N 31°37' E 121°17'1012214.8
2017-Apr-28 16:29N 31°29' E 121°25'0 5.3
2017-Apr-28 16:26N 31°30' E 121°25'226.4
2017-Apr-28 16:22N 31°30' E 121°23'235.0
2017-Apr-28 16:20N 31°32' E 121°22'4621436.3
2017-Apr-28 16:00N 24°25' E 118°02'461184370.8
2017-Apr-28 16:00N 31°30' E 121°23'2014495.7
2017-Apr-28 16:00N 31°44' E 121°06'15523.3
2017-Apr-28 15:58N 31°34' E 121°19'597.0
2017-Apr-28 15:55N 31°31' E 121°23'21079.8
2017-Apr-28 15:55N 31°30' E 121°25'013.2
2017-Apr-28 15:54N 31°29' E 121°25'4611139.8
2017-Apr-28 15:30N 24°25' E 118°02'46238698.9
2017-Apr-28 15:29N 31°32' E 121°22'2968.9
2017-Apr-28 15:29N 31°30' E 121°23'2 5.8
2017-Apr-28 15:12N 31°29' E 121°25'025.0
2017-Apr-28 15:12N 31°29' E 121°25'2118.3
2017-Apr-28 15:11N 31°31' E 121°23'4612618.7
2017-Apr-28 15:00N 24°25' E 118°02'46220031.6
2017-Apr-28 14:59N 31°31' E 121°25'244.4
2017-Apr-28 14:57N 31°29' E 121°25'049.6
2017-Apr-28 14:56N 31°29' E 121°25'264.4
2017-Apr-28 14:55N 31°31' E 121°23'018.0
2017-Apr-28 14:53N 31°30' E 121°23'294.1
2017-Apr-28 14:52N 31°29' E 121°25'461533.0
2017-Apr-28 14:00N 24°25' E 118°02'46132514.4
2017-Apr-28 14:00N 31°29' E 121°25'21986.3
2017-Apr-28 13:59N 31°30' E 121°23'295.5
2017-Apr-28 13:58N 31°29' E 121°25'0 2.7
2017-Apr-28 13:55N 31°29' E 121°25'2142.9
2017-Apr-28 13:54N 31°31' E 121°23'4611182.5
2017-Apr-28 13:30N 24°25' E 118°02'461236858.4
2017-Apr-28 13:30N 31°29' E 121°25'2160.6
2017-Apr-28 13:30N 31°31' E 121°23'21901.8
2017-Apr-28 13:29N 31°29' E 121°25'0 3.6
2017-Apr-28 13:27N 31°29' E 121°25'5192.9
2017-Apr-28 13:25N 31°26' E 121°30'7112.7
2017-Apr-28 13:21N 31°30' E 121°23'4611319.0
2017-Apr-28 13:00N 24°25' E 118°02'46050205.6
2017-Apr-28 13:00N 31°28' E 121°26'3188.1
2017-Apr-28 12:59N 31°30' E 121°23'2224.2
2017-Apr-28 12:58N 31°29' E 121°25'15945.0
2017-Apr-28 12:57N 31°15' E 121°32'176237.8
2017-Apr-28 12:57N 31°31' E 121°23'2116.4
2017-Apr-28 12:56N 31°29' E 121°25'2264.7
2017-Apr-28 12:55N 31°28' E 121°27'2 6.0
2017-Apr-28 12:30N 31°29' E 121°25'4171.5
2017-Apr-28 12:29N 31°27' E 121°29'71344.7
2017-Apr-28 12:29N 31°31' E 121°22'11436.4
2017-Apr-28 12:29N 31°31' E 121°23'2135.6
2017-Apr-28 12:28N 31°29' E 121°25'2 5.5
2017-Apr-28 12:04N 31°28' E 121°27'4156.6
2017-Apr-28 12:03N 31°30' E 121°23'0 7.8
2017-Apr-28 12:00N 31°31' E 121°23'81804.5
2017-Apr-28 12:00N 31°26' E 121°30'610373.5
2017-Apr-28 12:00N 31°29' E 121°25'81455.0
2017-Apr-28 12:00N 31°34' E 121°18'678.7
2017-Apr-28 11:55N 31°30' E 121°23'386.9
2017-Apr-28 11:53N 31°29' E 121°25'1 8.3
2017-Apr-28 11:47N 31°29' E 121°25'2 6.9
2017-Apr-28 11:30N 31°30' E 121°23'101692.5
2017-Apr-28 11:30N 31°38' E 121°15'12580.3
2017-Apr-28 11:29N 31°29' E 121°25'228.9
2017-Apr-28 11:25N 31°30' E 121°23'2540.9
2017-Apr-28 11:25N 31°29' E 121°25'225.9
2017-Apr-28 11:20N 31°31' E 121°23'1796.6
2017-Apr-28 11:09N 31°15' E 121°31'15103.8
2017-Apr-28 11:00N 31°29' E 121°25'153017.3
2017-Apr-28 11:00N 31°15' E 121°30'172768.8
2017-Apr-28 10:59N 31°31' E 121°23'2118.7
2017-Apr-28 10:58N 31°29' E 121°25'53275.4
2017-Apr-28 10:58N 31°33' E 121°20'8212.4
2017-Apr-28 10:56N 31°38' E 121°14'1330.0
2017-Apr-28 10:30N 31°29' E 121°25'1412284.5
2017-Apr-28 10:30N 31°39' E 121°13'5109.6
2017-Apr-28 10:27N 31°36' E 121°17'9198.4
2017-Apr-28 10:24N 31°29' E 121°25'239.2
2017-Apr-28 10:22N 31°30' E 121°23'1774.4
2017-Apr-28 10:08N 31°16' E 121°34'17182.3
2017-Apr-28 10:03N 31°31' E 121°23'17455.0
2017-Apr-28 10:00N 31°15' E 121°33'17769.5
2017-Apr-28 09:59N 31°31' E 121°23'1323754.5
2017-Apr-28 09:59N 31°41' E 121°13'151568.3
2017-Apr-28 09:58N 31°29' E 121°25'123159.0
2017-Apr-28 09:58N 31°38' E 121°15'12159.9
2017-Apr-28 09:53N 31°29' E 121°25'237.2
2017-Apr-28 09:50N 31°30' E 121°23'57296.9
2017-Apr-28 09:39N 31°58' E 120°25'1 6.7
2017-Apr-28 09:30N 31°58' E 120°26'441104.1
2017-Apr-28 09:28N 31°41' E 121°13'15773.1
2017-Apr-28 09:27N 31°29' E 121°25'131593.8
2017-Apr-28 09:26N 31°39' E 121°14'12457.7
2017-Apr-28 09:25N 31°30' E 121°23'0 4.0
2017-Apr-28 09:19N 31°31' E 121°23'2 7.1
2017-Apr-28 09:00N 31°29' E 121°25'0 1.7
2017-Apr-28 08:54N 31°29' E 121°25'15571.8
2017-Apr-28 08:53N 31°41' E 121°13'13354.5
2017-Apr-28 08:50N 31°31' E 121°23'9185.4
2017-Apr-28 08:48N 31°37' E 121°16'983.2
2017-Apr-28 08:41N 31°30' E 121°23'737.5
2017-Apr-28 08:29N 31°36' E 121°18'6625.9
2017-Apr-28 08:29N 31°41' E 121°13'15350.4
2017-Apr-28 08:26N 31°29' E 121°25'219.4
2017-Apr-28 08:20N 31°30' E 121°23'2 8.9
2017-Apr-28 08:09N 31°30' E 121°25'641.1
2017-Apr-28 07:59N 31°34' E 121°19'9380.2
2017-Apr-28 07:58N 31°41' E 121°13'16752.4
2017-Apr-28 07:56N 31°29' E 121°25'122.7
2017-Apr-28 07:55N 31°29' E 121°25'0 7.3
2017-Apr-28 07:53N 31°30' E 121°25'217.1
2017-Apr-28 07:47N 31°30' E 121°23'0 1.4
2017-Apr-28 07:30N 31°30' E 121°23'2422.0
2017-Apr-28 07:30N 31°30' E 121°25'3127.7
2017-Apr-28 07:28N 31°32' E 121°22'122651.9
2017-Apr-28 07:28N 31°41' E 121°13'13401.0
2017-Apr-28 07:26N 31°30' E 121°23'237.5
2017-Apr-28 07:23N 31°29' E 121°25'2 5.1
2017-Apr-28 07:00N 31°30' E 121°23'2170.5
2017-Apr-28 06:59N 31°32' E 121°21'11938.3
2017-Apr-28 06:59N 31°41' E 121°13'1555.1
2017-Apr-28 06:42N 31°30' E 121°25'2 8.3
2017-Apr-28 06:29N 31°30' E 121°23'5200.8
2017-Apr-28 06:28N 31°33' E 121°19'643.8
2017-Apr-28 06:19N 31°30' E 121°25'15149.3
2017-Apr-28 06:13N 31°41' E 121°13'0 0.1
2017-Apr-28 05:57N 31°41' E 121°13'2154.7
2017-Apr-28 05:56N 31°39' E 121°14'312.0
2017-Apr-28 05:39N 31°36' E 121°17'8470.4
2017-Apr-28 05:38N 31°30' E 121°23'13192.0
2017-Apr-28 05:34N 31°40' E 121°12'586.1
2017-Apr-28 05:30N 31°37' E 121°17'5717.4
2017-Apr-28 05:30N 31°40' E 121°13'4164.8
2017-Apr-28 05:28N 31°37' E 121°16'5676.6
2017-Apr-28 05:28N 31°41' E 121°13'15837.9
2017-Apr-28 05:27N 31°30' E 121°25'13341.4
2017-Apr-28 05:24N 31°39' E 121°14'1264.3
2017-Apr-28 05:13N 31°30' E 121°23'4618969.2
2017-Apr-28 05:10N 24°25' E 118°02'4642814.6
2017-Apr-28 05:01N 31°35' E 121°20'46455667.1
2017-Apr-28 05:00N 24°25' E 118°01'46523599.8
2017-Apr-28 04:59N 31°38' E 121°15'2831.7
2017-Apr-28 04:59N 31°38' E 121°16'9382.2
2017-Apr-28 04:57N 31°30' E 121°23'046.5
2017-Apr-28 04:57N 31°31' E 121°23'2261.1
2017-Apr-28 04:56N 31°30' E 121°25'15812.7
2017-Apr-28 04:55N 31°41' E 121°13'831.5
2017-Apr-28 04:41N 31°35' E 121°19'4662754.3
2017-Apr-28 04:31N 24°24' E 117°58'46664463.9
2017-Apr-28 04:30N 31°35' E 121°19'1172.8
2017-Apr-28 04:30N 31°34' E 121°20'3281.3
2017-Apr-28 04:29N 31°32' E 121°22'12203.0
2017-Apr-28 04:26N 31°41' E 121°13'152721.6
2017-Apr-28 04:25N 31°30' E 121°25'273.3
2017-Apr-28 04:24N 31°30' E 121°23'2 4.6
2017-Apr-28 04:00N 31°32' E 121°22'46416386.5
2017-Apr-28 03:58N 24°24' E 117°58'46328244.7
2017-Apr-28 03:57N 31°30' E 121°25'228.1
2017-Apr-28 03:54N 31°30' E 121°23'027.5
2017-Apr-28 03:53N 31°31' E 121°23'132479.2
2017-Apr-28 03:52N 31°41' E 121°13'1568.6
2017-Apr-28 03:39N 31°29' E 121°25'0 1.3
2017-Apr-28 03:34N 31°29' E 121°25'4638167.0
2017-Apr-28 03:30N 24°24' E 117°58'469120604.0
2017-Apr-28 03:30N 31°41' E 121°13'13133.5
2017-Apr-28 03:24N 31°31' E 121°23'012.2
2017-Apr-28 03:22N 31°30' E 121°23'237.9
2017-Apr-28 03:19N 31°29' E 121°25'0 7.8
2017-Apr-28 03:19N 31°29' E 121°25'4631488.6
2017-Apr-28 03:00N 24°24' E 117°58'46911887.5
2017-Apr-28 02:58N 31°41' E 121°13'15362.6
2017-Apr-28 02:55N 31°29' E 121°25'292.6
2017-Apr-28 02:54N 31°30' E 121°23'0 6.8
2017-Apr-28 02:51N 31°31' E 121°23'2 8.0
2017-Apr-28 02:34N 31°29' E 121°25'236.4
2017-Apr-28 02:30N 31°31' E 121°23'46343885.6
2017-Apr-28 02:30N 24°24' E 117°58'46317728.7
2017-Apr-28 02:28N 31°30' E 121°23'217.4
2017-Apr-28 02:22N 31°29' E 121°25'047.3
2017-Apr-28 02:21N 31°29' E 121°25'4611293.8
2017-Apr-28 02:00N 24°25' E 118°02'46113610.7
2017-Apr-28 01:58N 31°31' E 121°23'227.1
2017-Apr-28 01:53N 31°29' E 121°25'0 3.1
2017-Apr-28 01:52N 31°29' E 121°25'15644.5
2017-Apr-28 01:50N 31°41' E 121°13'14131.4
2017-Apr-28 01:44N 31°30' E 121°23'4612026.2
2017-Apr-28 01:31N 24°25' E 118°02'4615456.2
2017-Apr-28 01:25N 31°29' E 121°25'0 1.6
2017-Apr-28 01:22N 31°29' E 121°25'238.6
2017-Apr-28 01:19N 31°30' E 121°23'1498.7
2017-Apr-28 01:11N 31°41' E 121°13'301512.7
2017-Apr-28 01:10N 31°16' E 121°33'1 8.6
2017-Apr-28 01:00N 31°15' E 121°32'45073667.8
2017-Apr-28 01:00N 24°25' E 118°02'4619489.7
2017-Apr-28 00:57N 31°31' E 121°23'2660.5
2017-Apr-28 00:57N 31°29' E 121°25'15429.7
2017-Apr-28 00:55N 31°41' E 121°13'14122.2
2017-Apr-28 00:48N 31°30' E 121°23'17325.7
2017-Apr-28 00:45N 31°16' E 121°34'2 8.2
2017-Apr-28 00:30N 31°15' E 121°32'450405182.7
2017-Apr-28 00:30N 24°25' E 118°02'46728991.5
2017-Apr-28 00:29N 31°41' E 121°13'131536.2
2017-Apr-28 00:29N 31°31' E 121°23'015.5
2017-Apr-28 00:27N 31°30' E 121°23'2159.6
2017-Apr-28 00:27N 31°29' E 121°25'0 0.5
2017-Apr-28 00:16N 31°29' E 121°25'2 8.0
2017-Apr-28 00:00N 31°31' E 121°23'461332125.7
2017-Apr-28 00:00N 24°25' E 118°02'461276582.2
2017-Apr-28 00:00N 31°30' E 121°23'14245.0
2017-Apr-27 23:57N 31°41' E 121°13'156158.3
2017-Apr-27 23:57N 31°29' E 121°25'0 8.1
2017-Apr-27 23:56N 31°29' E 121°25'4611067.4
2017-Apr-27 23:30N 24°25' E 118°02'46112032.6
2017-Apr-27 23:28N 31°31' E 121°23'0 5.7
2017-Apr-27 23:24N 31°30' E 121°23'240.2
2017-Apr-27 23:21N 31°29' E 121°25'15348.6
2017-Apr-27 23:19N 31°41' E 121°13'1593.0
2017-Apr-27 23:09N 31°29' E 121°25'4613377.8
2017-Apr-27 23:01N 24°25' E 118°02'46734994.8
2017-Apr-27 23:00N 31°41' E 121°10'1518074.0
2017-Apr-27 23:00N 31°31' E 121°23'026.5
2017-Apr-27 22:59N 31°30' E 121°23'224.8
2017-Apr-27 22:54N 31°29' E 121°25'0 8.6
2017-Apr-27 22:54N 31°29' E 121°25'4611201.1
2017-Apr-27 22:31N 24°25' E 118°02'46113827.7
2017-Apr-27 22:29N 31°30' E 121°23'0 4.0
2017-Apr-27 22:23N 31°31' E 121°23'2125.8
2017-Apr-27 22:22N 31°29' E 121°25'14360.1
2017-Apr-27 22:20N 31°22' E 121°39'4591448.7
2017-Apr-27 22:01N 24°25' E 118°02'46113837.3
2017-Apr-27 21:59N 31°31' E 121°23'2256.1
2017-Apr-27 21:58N 31°29' E 121°25'2152.9
2017-Apr-27 21:57N 31°30' E 121°23'16458.2
2017-Apr-27 21:55N 31°22' E 121°39'4591117.6
2017-Apr-27 21:31N 24°25' E 118°02'46163864.4
2017-Apr-27 21:30N 31°31' E 121°23'16257.8
2017-Apr-27 21:26N 31°22' E 121°39'16828.9
2017-Apr-27 21:25N 31°30' E 121°23'217.4
2017-Apr-27 21:19N 31°29' E 121°25'4611495.5
2017-Apr-27 21:00N 24°25' E 118°02'461138221.5
2017-Apr-27 21:00N 31°29' E 121°25'34380.1
2017-Apr-27 20:55N 31°50' E 120°54'48328.9
2017-Apr-27 20:46N 31°22' E 121°39'1462.4
2017-Apr-27 20:33N 31°29' E 121°25'46111844.3
2017-Apr-27 20:30N 24°25' E 118°02'46140443.9
2017-Apr-27 20:30N 31°29' E 121°25'1416379.7
2017-Apr-27 20:30N 31°22' E 121°39'14751.1
2017-Apr-27 20:29N 31°29' E 121°25'212.2
2017-Apr-27 20:18N 31°31' E 121°23'0 3.2
2017-Apr-27 20:11N 31°30' E 121°23'0 0.0
2017-Apr-27 20:00N 31°30' E 121°23'461150850.8
2017-Apr-27 20:00N 24°25' E 118°02'4618916.0
2017-Apr-27 19:57N 31°30' E 121°23'211.0
2017-Apr-27 19:46N 31°29' E 121°25'4611755.3
2017-Apr-27 19:30N 24°25' E 118°02'4682488.4
2017-Apr-27 19:19N 31°41' E 121°15'1244231.9
2017-Apr-27 19:19N 31°30' E 121°23'229.5
2017-Apr-27 19:15N 31°29' E 121°25'0 2.8
2017-Apr-27 19:11N 31°29' E 121°25'265.4
2017-Apr-27 19:09N 31°31' E 121°23'4613024.7
2017-Apr-27 19:00N 24°25' E 118°02'466139748.5
2017-Apr-27 19:00N 31°38' E 121°17'9497.1
2017-Apr-27 18:59N 31°30' E 121°23'266.6
2017-Apr-27 18:57N 31°29' E 121°25'235.7
2017-Apr-27 18:53N 31°31' E 121°23'266.2
2017-Apr-27 18:51N 31°29' E 121°25'29125.1
2017-Apr-27 18:37N 31°47' E 120°58'110.8
2017-Apr-27 18:30N 31°47' E 120°59'211750.4
2017-Apr-27 18:30N 31°34' E 121°19'46338753.4
2017-Apr-27 18:29N 24°25' E 118°02'4614823.6
2017-Apr-27 18:23N 31°30' E 121°23'232.5
2017-Apr-27 18:20N 31°29' E 121°25'0 0.9
2017-Apr-27 18:08N 31°29' E 121°25'4613589.2
2017-Apr-27 18:00N 24°25' E 118°02'469422415.5
2017-Apr-27 18:00N 31°46' E 121°04'241188.0
2017-Apr-27 17:59N 31°29' E 121°25'2395.6
2017-Apr-27 17:59N 31°31' E 121°24'462973.1
2017-Apr-27 17:30N 24°25' E 118°02'46851006.3
2017-Apr-27 17:30N 31°43' E 121°08'172734.8
2017-Apr-27 17:29N 31°30' E 121°23'215.3
2017-Apr-27 17:23N 31°32' E 121°22'311.5
2017-Apr-27 17:05N 31°29' E 121°25'299.1
2017-Apr-27 17:04N 31°31' E 121°23'13228.1
2017-Apr-27 17:00N 31°40' E 121°13'466419685.9
2017-Apr-27 17:00N 24°25' E 118°02'4612709.7
2017-Apr-27 16:50N 31°29' E 121°25'240.2
2017-Apr-27 16:47N 31°30' E 121°23'4611649.8
2017-Apr-27 16:30N 24°25' E 118°02'4641672009.7
2017-Apr-27 16:30N 31°36' E 121°18'739.6
2017-Apr-27 16:19N 31°30' E 121°23'44175.0
2017-Apr-27 16:04N 31°00' E 120°46'44613.5
2017-Apr-27 16:00N 31°32' E 121°22'4621663906.6
2017-Apr-27 16:00N 24°25' E 118°02'46197617.1
2017-Apr-27 15:59N 31°30' E 121°23'0 3.9
2017-Apr-27 15:54N 31°31' E 121°23'43179.0
2017-Apr-27 15:39N 31°00' E 120°47'4222842.4
2017-Apr-27 15:30N 24°25' E 118°02'46392523.7
2017-Apr-27 15:30N 31°31' E 121°27'324.2
2017-Apr-27 15:22N 31°31' E 121°23'6965.4
2017-Apr-27 15:22N 31°35' E 121°17'970.4
2017-Apr-27 15:14N 31°29' E 121°25'216.9
2017-Apr-27 15:07N 31°30' E 121°23'220.7
2017-Apr-27 15:01N 31°29' E 121°25'46117101.1
2017-Apr-27 15:00N 24°25' E 118°02'4641670261.3
2017-Apr-27 15:00N 31°30' E 121°32'156718.3
2017-Apr-27 14:59N 31°36' E 121°16'8180.0
2017-Apr-27 14:57N 31°30' E 121°23'210.3
2017-Apr-27 14:45N 31°29' E 121°25'017.2
2017-Apr-27 14:44N 31°29' E 121°25'222.3
2017-Apr-27 14:38N 31°31' E 121°23'1289.8
2017-Apr-27 14:30N 31°30' E 121°38'11985.4
2017-Apr-27 14:29N 31°29' E 121°25'461960.7
2017-Apr-27 14:00N 24°25' E 118°02'466119928.9
2017-Apr-27 14:00N 31°40' E 121°11'16386.4
2017-Apr-27 13:58N 31°29' E 121°25'21548.3
2017-Apr-27 13:58N 31°31' E 121°23'0 1.7
2017-Apr-27 13:45N 31°30' E 121°23'228.7
2017-Apr-27 13:41N 31°29' E 121°25'4612562.8
2017-Apr-27 13:30N 24°25' E 118°02'46712837.9
2017-Apr-27 13:28N 31°42' E 121°08'20531.5
2017-Apr-27 13:26N 31°29' E 121°25'226.9
2017-Apr-27 13:21N 31°31' E 121°23'2133.0
2017-Apr-27 13:20N 31°29' E 121°25'214.7
2017-Apr-27 13:12N 31°30' E 121°23'4612436.6
2017-Apr-27 13:01N 24°25' E 118°02'46121257.1
2017-Apr-27 12:59N 31°29' E 121°25'257.6
2017-Apr-27 12:57N 31°31' E 121°23'041.8
2017-Apr-27 12:56N 31°30' E 121°23'4611069.9
2017-Apr-27 12:31N 24°25' E 118°02'4613823.5
2017-Apr-27 12:23N 31°30' E 121°23'22436.6
2017-Apr-27 12:23N 31°29' E 121°25'4611208.5
2017-Apr-27 12:00N 24°25' E 118°02'46124747.9
2017-Apr-27 11:59N 31°29' E 121°25'217.5
2017-Apr-27 11:52N 31°30' E 121°23'0 6.4
2017-Apr-27 11:49N 31°31' E 121°23'232.0
2017-Apr-27 11:45N 31°29' E 121°25'4611913.1
2017-Apr-27 11:30N 24°25' E 118°02'46142572.4
2017-Apr-27 11:30N 31°31' E 121°23'2288.4
2017-Apr-27 11:29N 31°29' E 121°25'0 2.0
2017-Apr-27 11:25N 31°29' E 121°25'215.6
2017-Apr-27 11:17N 31°30' E 121°23'4611651.0
2017-Apr-27 11:00N 24°25' E 118°02'4617001.2
2017-Apr-27 10:56N 31°30' E 121°23'2487.3
2017-Apr-27 10:56N 31°29' E 121°25'220.5
2017-Apr-27 10:50N 31°31' E 121°23'2 9.3
2017-Apr-27 10:36N 31°29' E 121°25'4615166.5
2017-Apr-27 10:30N 24°25' E 118°02'46123027.0
2017-Apr-27 10:29N 31°29' E 121°25'0 2.5
2017-Apr-27 10:26N 31°29' E 121°25'229.0
2017-Apr-27 10:21N 31°31' E 121°23'0 1.2
2017-Apr-27 10:06N 31°30' E 121°23'42112750.5
2017-Apr-27 10:04N 38°32' E 121°40'86713566.5
2017-Apr-27 10:00N 24°25' E 118°02'867240010.0
2017-Apr-27 10:00N 38°32' E 121°40'42112968.3
2017-Apr-27 09:58N 31°30' E 121°23'012.7
2017-Apr-27 09:57N 31°31' E 121°23'2131.3
2017-Apr-27 09:56N 31°29' E 121°25'2 3.9
2017-Apr-27 09:31N 31°28' E 121°26'0 5.5
2017-Apr-27 09:30N 31°28' E 121°26'415.1
2017-Apr-27 09:16N 31°31' E 121°23'42112945.1
2017-Apr-27 09:14N 38°31' E 121°38'42163151.3
2017-Apr-27 09:13N 31°30' E 121°23'217.6
2017-Apr-27 09:07N 31°29' E 121°25'4224038.2
2017-Apr-27 09:01N 38°31' E 121°38'866283343.4
2017-Apr-27 09:00N 24°25' E 118°02'46110430.2
2017-Apr-27 08:58N 31°30' E 121°23'0 5.0
2017-Apr-27 08:52N 31°31' E 121°23'2351.5
2017-Apr-27 08:51N 31°29' E 121°25'225.9
2017-Apr-27 08:47N 31°30' E 121°23'4611694.9
2017-Apr-27 08:31N 24°25' E 118°02'8651037748.2
2017-Apr-27 08:30N 38°30' E 121°37'418150571.8
2017-Apr-27 08:30N 31°32' E 121°20'366.9
2017-Apr-27 08:28N 31°30' E 121°23'055.0
2017-Apr-27 08:27N 31°31' E 121°23'228.9
2017-Apr-27 08:23N 31°29' E 121°25'4201107.4
2017-Apr-27 08:00N 38°29' E 121°36'8641036708.5
2017-Apr-27 08:00N 24°25' E 118°02'46126349.6
2017-Apr-27 07:59N 31°31' E 121°23'6380.4
2017-Apr-27 07:58N 31°34' E 121°18'6550.7
2017-Apr-27 07:57N 31°30' E 121°23'220.5
2017-Apr-27 07:52N 31°29' E 121°25'4182206.4
2017-Apr-27 07:40N 38°27' E 121°42'8635125.6
2017-Apr-27 07:30N 24°25' E 118°02'46445168.6
2017-Apr-27 07:30N 31°36' E 121°16'4137545.8
2017-Apr-27 07:26N 38°29' E 121°40'4195.9
2017-Apr-27 07:25N 38°28' E 121°36'4181530.2
2017-Apr-27 07:09N 31°30' E 121°23'4223012.9
2017-Apr-27 07:00N 38°32' E 121°37'867779879.6
2017-Apr-27 07:00N 24°25' E 118°02'46544061.6
2017-Apr-27 07:00N 31°38' E 121°14'11312.1
2017-Apr-27 06:58N 31°30' E 121°23'4611013.6
2017-Apr-27 06:30N 24°25' E 118°02'4619168.0
2017-Apr-27 06:27N 31°30' E 121°23'4611025.0
2017-Apr-27 06:00N 24°25' E 118°02'461118530.3
2017-Apr-27 06:00N 31°30' E 121°23'461930.7
2017-Apr-27 05:30N 24°25' E 118°02'46112112.6
2017-Apr-27 05:28N 31°30' E 121°23'12337.0
2017-Apr-27 05:26N 31°39' E 121°13'4661089.2
2017-Apr-27 05:00N 24°25' E 118°02'46126765.8
2017-Apr-27 04:59N 31°30' E 121°23'13149.5
2017-Apr-27 04:54N 31°40' E 121°13'29586.0
2017-Apr-27 04:51N 31°14' E 121°29'29364.0
2017-Apr-27 04:46N 31°39' E 121°13'313.0
2017-Apr-27 04:33N 31°41' E 121°10'46710846.2
2017-Apr-27 04:31N 24°25' E 118°02'45070374.2
2017-Apr-27 04:30N 31°15' E 121°31'28497.9
2017-Apr-27 04:27N 31°39' E 121°13'12358.7
2017-Apr-27 04:25N 31°30' E 121°23'142821.0
2017-Apr-27 04:24N 31°41' E 121°12'4671171.7
2017-Apr-27 04:01N 24°25' E 118°02'46614332.4
2017-Apr-27 03:59N 31°39' E 121°15'281037.6
2017-Apr-27 03:57N 31°14' E 121°30'29222.8
2017-Apr-27 03:49N 31°39' E 121°13'017.4
2017-Apr-27 03:48N 31°39' E 121°13'121280.7
2017-Apr-27 03:47N 31°30' E 121°23'726.8
2017-Apr-27 03:31N 31°36' E 121°17'2428972.1
2017-Apr-27 03:30N 31°15' E 121°31'450202421.5
2017-Apr-27 03:30N 24°25' E 118°02'4664118.8
2017-Apr-27 03:24N 31°39' E 121°13'12229.8
2017-Apr-27 03:20N 31°30' E 121°23'12116.6
2017-Apr-27 03:14N 31°39' E 121°13'834.5
2017-Apr-27 03:00N 31°34' E 121°20'463238045.6
2017-Apr-27 03:00N 24°25' E 118°02'4663757.7
2017-Apr-27 02:53N 31°39' E 121°13'121207.3
2017-Apr-27 02:52N 31°30' E 121°23'12440.1
2017-Apr-27 02:51N 31°39' E 121°13'1299.9
2017-Apr-27 02:43N 31°31' E 121°23'211.4
2017-Apr-27 02:31N 31°29' E 121°25'0 7.2
2017-Apr-27 02:30N 31°29' E 121°25'46182951.6
2017-Apr-27 02:29N 24°25' E 118°02'466838193.9
2017-Apr-27 02:29N 31°39' E 121°13'135017.1
2017-Apr-27 02:29N 31°30' E 121°23'179.9
2017-Apr-27 02:28N 31°31' E 121°23'11542.0
2017-Apr-27 02:27N 31°39' E 121°13'1351.0
2017-Apr-27 02:11N 31°29' E 121°24'1153.1
2017-Apr-27 02:11N 31°31' E 121°23'2 8.7
2017-Apr-27 02:00N 31°30' E 121°25'461237106.4
2017-Apr-27 02:00N 24°25' E 118°02'46157184.9
2017-Apr-27 02:00N 31°30' E 121°23'14661.1
2017-Apr-27 01:58N 31°40' E 121°12'116.9
2017-Apr-27 01:54N 31°39' E 121°13'12220.9
2017-Apr-27 01:51N 31°31' E 121°23'216.4
2017-Apr-27 01:42N 31°29' E 121°25'4612404.4
2017-Apr-27 01:30N 24°25' E 118°02'461150938.0
2017-Apr-27 01:30N 31°31' E 121°23'128713.7
2017-Apr-27 01:30N 31°39' E 121°13'5696.9
2017-Apr-27 01:30N 31°42' E 121°09'193095.0
2017-Apr-27 01:29N 31°30' E 121°25'529.5
2017-Apr-27 01:18N 31°33' E 121°20'446.1
2017-Apr-27 01:13N 31°30' E 121°23'1058.6
2017-Apr-27 01:02N 31°38' E 121°15'0 7.9
2017-Apr-27 01:00N 31°38' E 121°14'465139553.2
2017-Apr-27 01:00N 24°25' E 118°02'46116594.0
2017-Apr-27 00:59N 31°30' E 121°23'6403.0
2017-Apr-27 00:58N 31°34' E 121°18'7504.0
2017-Apr-27 00:57N 31°30' E 121°25'158.4
2017-Apr-27 00:56N 31°29' E 121°25'152694.1
2017-Apr-27 00:56N 31°40' E 121°13'338.5
2017-Apr-27 00:51N 31°41' E 121°10'15375.7
2017-Apr-27 00:49N 31°31' E 121°23'4611524.6
2017-Apr-27 00:31N 24°25' E 118°02'44484039.0
2017-Apr-27 00:30N 31°17' E 121°09'191014.4
2017-Apr-27 00:29N 31°31' E 121°23'2202.1
2017-Apr-27 00:29N 31°30' E 121°25'11729.1
2017-Apr-27 00:28N 31°37' E 121°16'6762.7
2017-Apr-27 00:27N 31°41' E 121°10'15185.3
2017-Apr-27 00:22N 31°30' E 121°23'2356.6
2017-Apr-27 00:22N 31°29' E 121°25'15134.7
2017-Apr-27 00:15N 31°40' E 121°13'1463.5
2017-Apr-27 00:02N 31°30' E 121°24'46116095.3
2017-Apr-27 00:00N 24°25' E 118°02'46721011.2
2017-Apr-26 23:59N 31°40' E 121°13'14841.3
2017-Apr-26 23:58N 31°30' E 121°23'1311856.8
2017-Apr-26 23:58N 31°39' E 121°13'131676.8
2017-Apr-26 23:58N 31°30' E 121°23'2248.6
2017-Apr-26 23:57N 31°30' E 121°25'1 5.9
2017-Apr-26 23:52N 31°29' E 121°25'22413.6
2017-Apr-26 23:49N 31°17' E 121°05'2125288.3
2017-Apr-26 23:49N 31°31' E 121°23'15773.8
2017-Apr-26 23:47N 31°41' E 121°10'4661638.3
2017-Apr-26 23:30N 24°25' E 118°02'467280154.3
2017-Apr-26 23:30N 31°40' E 121°13'13390.4
2017-Apr-26 23:28N 31°31' E 121°23'2387.2
2017-Apr-26 23:28N 31°29' E 121°25'171303.2
2017-Apr-26 23:27N 31°41' E 121°10'19506.2
2017-Apr-26 23:25N 31°28' E 121°26'6189.8
2017-Apr-26 23:23N 31°32' E 121°20'456.6
2017-Apr-26 23:18N 31°30' E 121°25'221.9
2017-Apr-26 23:14N 31°30' E 121°23'523.7
2017-Apr-26 23:01N 31°34' E 121°19'62980.3
2017-Apr-26 23:00N 31°30' E 121°23'1404.4
2017-Apr-26 23:00N 31°30' E 121°23'46142545.6
2017-Apr-26 23:00N 24°25' E 118°02'4674987.5
2017-Apr-26 22:54N 31°40' E 121°13'13273.6
2017-Apr-26 22:51N 31°31' E 121°23'15833.3
2017-Apr-26 22:50N 31°41' E 121°10'17788.7
2017-Apr-26 22:49N 31°30' E 121°25'4611487.9
2017-Apr-26 22:30N 24°25' E 118°02'461276874.7
2017-Apr-26 22:30N 31°32' E 121°20'102845.8
2017-Apr-26 22:30N 31°40' E 121°13'14868.7
2017-Apr-26 22:29N 31°30' E 121°25'2135.4
2017-Apr-26 22:28N 31°30' E 121°23'013.8
2017-Apr-26 22:27N 31°31' E 121°23'15231.5
2017-Apr-26 22:23N 31°41' E 121°10'4661236.5
2017-Apr-26 22:00N 24°25' E 118°02'46114435.2
2017-Apr-26 21:59N 31°31' E 121°23'7156.6
2017-Apr-26 21:56N 31°35' E 121°17'82757.0
2017-Apr-26 21:56N 31°30' E 121°25'141861.5
2017-Apr-26 21:55N 31°40' E 121°13'328.5
2017-Apr-26 21:49N 31°41' E 121°10'15302.4
2017-Apr-26 21:46N 31°30' E 121°23'4611730.2
2017-Apr-26 21:30N 24°25' E 118°02'461184362.1
2017-Apr-26 21:30N 31°30' E 121°23'0275.1
2017-Apr-26 21:30N 31°31' E 121°23'101664.3
2017-Apr-26 21:30N 31°38' E 121°15'588.3
2017-Apr-26 21:26N 31°41' E 121°10'17394.4
2017-Apr-26 21:24N 31°30' E 121°25'14496.4
2017-Apr-26 21:22N 31°40' E 121°13'1 3.7
2017-Apr-26 21:00N 31°40' E 121°12'4661677871.7
2017-Apr-26 21:00N 24°25' E 118°02'46788461.9
2017-Apr-26 21:00N 31°40' E 121°13'31129.8
2017-Apr-26 21:00N 31°41' E 121°10'151775.0
2017-Apr-26 20:59N 31°30' E 121°23'223.9
2017-Apr-26 20:55N 31°30' E 121°25'268.7
2017-Apr-26 20:54N 31°31' E 121°23'4611187.4
2017-Apr-26 20:30N 24°25' E 118°02'460551838.6
2017-Apr-26 20:30N 31°28' E 121°25'185374.6
2017-Apr-26 20:30N 31°41' E 121°10'151225.2
2017-Apr-26 20:29N 31°31' E 121°23'015.7
2017-Apr-26 20:28N 31°30' E 121°23'13501.2
2017-Apr-26 20:27N 31°40' E 121°13'33173.2
2017-Apr-26 20:15N 32°02' E 120°45'4791843.8
2017-Apr-26 20:00N 24°25' E 118°02'46710843.6
2017-Apr-26 19:57N 31°40' E 121°13'397.5
2017-Apr-26 19:56N 31°41' E 121°10'15249.0
2017-Apr-26 19:52N 31°30' E 121°23'0 5.6
2017-Apr-26 19:49N 31°31' E 121°23'32147.6
2017-Apr-26 19:49N 31°28' E 121°25'4601520.1
2017-Apr-26 19:31N 24°25' E 118°02'46116767.5
2017-Apr-26 19:29N 31°31' E 121°23'3383.5
2017-Apr-26 19:28N 31°28' E 121°25'18207.6
2017-Apr-26 19:23N 31°42' E 121°10'16357.4
2017-Apr-26 19:20N 31°30' E 121°23'1339.0
2017-Apr-26 19:01N 31°40' E 121°13'467336147.0
2017-Apr-26 19:00N 24°25' E 118°02'461165920.0
2017-Apr-26 19:00N 31°30' E 121°23'3649.0
2017-Apr-26 19:00N 31°28' E 121°25'1869.6
2017-Apr-26 18:44N 31°42' E 121°10'15544.1
2017-Apr-26 18:42N 31°31' E 121°23'4612305.4
2017-Apr-26 18:30N 24°25' E 118°02'46036785.7
2017-Apr-26 18:30N 31°28' E 121°25'380.7
2017-Apr-26 18:28N 31°30' E 121°23'13101.6
2017-Apr-26 18:20N 31°40' E 121°13'3213.1
2017-Apr-26 18:19N 31°42' E 121°10'4671498.8
2017-Apr-26 18:00N 24°25' E 118°02'467168170.0
2017-Apr-26 18:00N 31°42' E 121°10'3311.1
2017-Apr-26 18:00N 31°40' E 121°13'1689.3
2017-Apr-26 17:49N 31°28' E 121°25'386.8
2017-Apr-26 17:47N 31°30' E 121°23'4611643.0
2017-Apr-26 17:30N 24°25' E 118°02'46011185.2
2017-Apr-26 17:28N 31°28' E 121°25'161343.2
2017-Apr-26 17:27N 31°40' E 121°13'32177.4
2017-Apr-26 17:27N 31°42' E 121°10'16565.1
2017-Apr-26 17:25N 31°30' E 121°23'4611102.8
2017-Apr-26 17:00N 24°25' E 118°02'4617247.4
2017-Apr-26 16:57N 31°30' E 121°23'16463.2
2017-Apr-26 16:55N 31°42' E 121°10'15494.4
2017-Apr-26 16:53N 31°31' E 121°23'370.0
2017-Apr-26 16:50N 31°28' E 121°25'4601404.3
2017-Apr-26 16:30N 24°25' E 118°02'461553221.5
2017-Apr-26 16:30N 31°30' E 121°23'13184.0
2017-Apr-26 16:26N 31°40' E 121°13'13430.6
2017-Apr-26 16:24N 31°31' E 121°23'3220.1
2017-Apr-26 16:23N 31°28' E 121°25'183699.6
2017-Apr-26 16:23N 31°42' E 121°10'784.4
2017-Apr-26 16:18N 31°37' E 121°17'828.6
2017-Apr-26 16:00N 31°30' E 121°23'461276597.4
2017-Apr-26 16:00N 24°25' E 118°02'467168186.3
2017-Apr-26 16:00N 31°42' E 121°10'159225.8
2017-Apr-26 16:00N 31°31' E 121°23'5215.8
2017-Apr-26 15:59N 31°35' E 121°19'765.3
2017-Apr-26 15:52N 31°40' E 121°13'16154.1
2017-Apr-26 15:46N 31°28' E 121°25'4601791.7
2017-Apr-26 15:30N 24°25' E 118°02'46130174.6
2017-Apr-26 15:29N 31°30' E 121°23'2151.2
2017-Apr-26 15:29N 31°32' E 121°22'210.9
2017-Apr-26 15:20N 31°31' E 121°23'1379.2
2017-Apr-26 15:10N 31°40' E 121°13'4672853.9
2017-Apr-26 15:01N 24°25' E 118°02'4618339.4
2017-Apr-26 14:57N 31°30' E 121°23'13246.8
2017-Apr-26 14:54N 31°40' E 121°13'335.2
2017-Apr-26 14:49N 31°42' E 121°10'4671493.6
2017-Apr-26 14:30N 24°25' E 118°02'46711927.2
2017-Apr-26 14:28N 31°42' E 121°10'1653.5
2017-Apr-26 14:11N 31°30' E 121°23'3235.2
2017-Apr-26 14:10N 31°28' E 121°25'16894.4
2017-Apr-26 14:09N 31°40' E 121°13'286.1
2017-Apr-26 14:07N 31°38' E 121°15'11142.8
2017-Apr-26 14:03N 31°31' E 121°23'814.8
2017-Apr-26 13:30N 31°37' E 121°17'85771.9
2017-Apr-26 13:30N 31°31' E 121°23'461332055.5
2017-Apr-26 13:30N 24°25' E 118°02'461150858.2
2017-Apr-26 13:30N 31°30' E 121°23'361.4
2017-Apr-26 13:27N 31°28' E 121°25'18472.1
2017-Apr-26 13:25N 31°42' E 121°10'3186.8
2017-Apr-26 13:24N 31°40' E 121°13'30107.9
2017-Apr-26 13:08N 31°15' E 121°32'4503770.0
2017-Apr-26 13:00N 24°25' E 118°02'45080943.1
2017-Apr-26 13:00N 31°15' E 121°31'23805.0
2017-Apr-26 12:58N 31°35' E 121°19'104381.6
2017-Apr-26 12:58N 31°42' E 121°10'152522.0
2017-Apr-26 12:58N 31°31' E 121°23'13384.2
2017-Apr-26 12:56N 31°40' E 121°13'132912.2
2017-Apr-26 12:56N 31°30' E 121°23'3 9.6
2017-Apr-26 12:39N 31°28' E 121°25'319.2
2017-Apr-26 12:30N 31°30' E 121°23'461165951.3
2017-Apr-26 12:30N 24°25' E 118°02'46029562.9
2017-Apr-26 12:29N 31°28' E 121°25'6380.7
2017-Apr-26 12:28N 31°33' E 121°20'9122.3
2017-Apr-26 12:24N 31°40' E 121°13'13321.8
2017-Apr-26 12:21N 31°31' E 121°23'15554.7
2017-Apr-26 12:20N 31°42' E 121°10'3 9.0
2017-Apr-26 12:01N 31°40' E 121°13'467420245.7
2017-Apr-26 12:00N 24°25' E 118°02'462138622.8
2017-Apr-26 12:00N 31°32' E 121°22'4789.0
2017-Apr-26 12:00N 31°28' E 121°25'363.7
2017-Apr-26 11:57N 31°31' E 121°23'15430.1
2017-Apr-26 11:55N 31°42' E 121°10'16168.1
2017-Apr-26 11:49N 31°30' E 121°23'4611465.9
2017-Apr-26 11:31N 24°25' E 118°02'46764678.6
2017-Apr-26 11:30N 31°42' E 121°10'1628161.8
2017-Apr-26 11:30N 31°30' E 121°23'3751.3
2017-Apr-26 11:30N 31°28' E 121°25'3166.2
2017-Apr-26 11:29N 31°31' E 121°23'13993.8
2017-Apr-26 11:28N 31°40' E 121°13'4671012.5
2017-Apr-26 11:00N 24°25' E 118°02'46016072.0
2017-Apr-26 10:59N 31°28' E 121°25'161104.9
2017-Apr-26 10:58N 31°40' E 121°13'13169.4
2017-Apr-26 10:53N 31°30' E 121°23'0 4.1
2017-Apr-26 10:49N 31°31' E 121°23'4611439.8
2017-Apr-26 10:30N 24°25' E 118°02'46117283.9
2017-Apr-26 10:28N 31°30' E 121°23'1694.2
2017-Apr-26 10:18N 31°42' E 121°10'3174.2
2017-Apr-26 10:17N 31°40' E 121°13'164695.8
2017-Apr-26 10:17N 31°28' E 121°25'3123.7
2017-Apr-26 10:16N 31°31' E 121°23'4611802.5
2017-Apr-26 10:00N 24°25' E 118°02'46712643.1
2017-Apr-26 09:58N 31°42' E 121°10'154622.4
2017-Apr-26 09:58N 31°31' E 121°23'13846.3
2017-Apr-26 09:57N 31°40' E 121°13'13137.8
2017-Apr-26 09:51N 31°30' E 121°23'324.4
2017-Apr-26 09:45N 31°28' E 121°25'4601931.5
2017-Apr-26 09:30N 24°25' E 118°02'46710913.7
2017-Apr-26 09:28N 31°40' E 121°13'3177.2
2017-Apr-26 09:27N 31°42' E 121°10'15478.2
2017-Apr-26 09:25N 31°31' E 121°23'331.8
2017-Apr-26 09:19N 31°28' E 121°25'124.6
2017-Apr-26 09:17N 31°29' E 121°25'2436.3
2017-Apr-26 09:17N 31°30' E 121°23'0 0.0
2017-Apr-26 09:00N 31°30' E 121°23'46136872.4
2017-Apr-26 09:00N 24°25' E 118°02'46011035.6
2017-Apr-26 08:57N 31°28' E 121°25'162449.3
2017-Apr-26 08:57N 31°40' E 121°13'379.3
2017-Apr-26 08:55N 31°42' E 121°10'15451.0
2017-Apr-26 08:52N 31°31' E 121°23'220.2
2017-Apr-26 08:45N 31°29' E 121°25'4611830.9
2017-Apr-26 08:30N 24°25' E 118°02'46125141.4
2017-Apr-26 08:29N 31°30' E 121°23'1611284.2
2017-Apr-26 08:29N 31°42' E 121°10'15894.7
2017-Apr-26 08:28N 31°31' E 121°23'13197.0
2017-Apr-26 08:24N 31°40' E 121°13'4671168.8
2017-Apr-26 08:00N 24°25' E 118°02'46147428.1
2017-Apr-26 08:00N 31°31' E 121°23'13970.5
2017-Apr-26 07:59N 31°40' E 121°13'13115.9
2017-Apr-26 07:52N 31°30' E 121°23'1672.5
2017-Apr-26 07:39N 31°42' E 121°10'4673178.5
2017-Apr-26 07:30N 24°25' E 118°02'46010679.6
2017-Apr-26 07:28N 31°28' E 121°25'3149.8
2017-Apr-26 07:27N 31°30' E 121°23'16121.1
2017-Apr-26 07:19N 31°42' E 121°10'3286.4
2017-Apr-26 07:18N 31°40' E 121°13'0 0.0
2017-Apr-26 06:58N 31°40' E 121°13'3 8.9
2017-Apr-26 06:38N 31°42' E 121°10'15214.6
2017-Apr-26 06:34N 31°31' E 121°23'012.0
2017-Apr-26 06:32N 31°30' E 121°23'13328.5
2017-Apr-26 06:30N 31°40' E 121°13'13186.0
2017-Apr-26 06:26N 31°31' E 121°23'15783.4
2017-Apr-26 06:25N 31°42' E 121°10'16113.7
2017-Apr-26 06:16N 31°30' E 121°23'1349.1
2017-Apr-26 06:00N 31°40' E 121°13'131786.3
2017-Apr-26 06:00N 31°30' E 121°23'16161.1
2017-Apr-26 05:54N 31°42' E 121°10'3 7.2
2017-Apr-26 05:29N 31°40' E 121°13'13144.3
2017-Apr-26 05:24N 31°30' E 121°23'4612260.7
2017-Apr-26 05:11N 24°25' E 118°02'0 0.0
2017-Apr-26 05:00N 24°25' E 118°02'46742008.1
2017-Apr-26 05:00N 31°40' E 121°13'3128.4
2017-Apr-26 04:58N 31°42' E 121°10'3269.1
2017-Apr-26 04:31N 31°15' E 121°30'45023117.6
2017-Apr-26 04:30N 24°25' E 118°02'0 0.1
2017-Apr-26 04:00N 24°25' E 118°02'0 0.0
2017-Apr-26 03:30N 24°25' E 118°02'0 0.1
2017-Apr-26 03:00N 24°25' E 118°02'0 0.0
2017-Apr-26 02:30N 24°25' E 118°02'0 0.0
2017-Apr-26 02:00N 24°25' E 118°02'0 0.0
2017-Apr-26 01:30N 24°25' E 118°02'0 0.0
2017-Apr-26 01:00N 24°25' E 118°02'0 0.0
2017-Apr-26 00:30N 24°25' E 118°02'0 0.0
2017-Apr-26 00:00N 24°25' E 118°02'2 3.5
2017-Apr-25 23:29N 24°25' E 118°04'0 0.8
2017-Apr-25 23:00N 24°25' E 118°04'0 0.1
2017-Apr-25 22:30N 24°25' E 118°04'7821935.8
2017-Apr-25 22:06N 37°23' E 119°33'7828407.9
2017-Apr-25 22:01N 24°25' E 118°04'78213672.1
2017-Apr-25 21:57N 37°23' E 119°33'7821765.8
2017-Apr-25 21:31N 24°25' E 118°04'0 0.0
2017-Apr-25 21:01N 24°25' E 118°04'0 0.0
2017-Apr-25 20:30N 24°25' E 118°04'0 0.0
2017-Apr-25 20:00N 24°25' E 118°04'0 0.0
2017-Apr-25 19:31N 24°25' E 118°04'0 0.0
2017-Apr-25 19:00N 24°25' E 118°04'0 0.0
2017-Apr-25 18:30N 24°25' E 118°04'0 0.0
2017-Apr-25 18:00N 24°25' E 118°04'0 0.0
2017-Apr-25 17:30N 24°25' E 118°04'0 0.0
2017-Apr-25 17:00N 24°25' E 118°04'0 0.0
2017-Apr-25 16:30N 24°25' E 118°04'0 0.0
2017-Apr-25 16:00N 24°25' E 118°04'0 0.0
2017-Apr-25 15:30N 24°25' E 118°04'0 0.0
2017-Apr-25 15:01N 24°25' E 118°04'4623047.9
2017-Apr-25 14:51N 31°34' E 121°19'6376.3
2017-Apr-25 14:50N 31°38' E 121°14'2715938.2
2017-Apr-25 14:50N 31°21' E 121°38'41578.9
2017-Apr-25 14:50N 31°24' E 121°34'5809.8
2017-Apr-25 14:50N 31°21' E 121°39'17328.6
2017-Apr-25 14:47N 31°30' E 121°23'173987.6
2017-Apr-25 14:47N 31°21' E 121°39'15134.6
2017-Apr-25 14:40N 31°29' E 121°25'1376.1
2017-Apr-25 14:30N 31°38' E 121°14'304496.2
2017-Apr-25 14:29N 31°19' E 121°41'172119.7
2017-Apr-25 14:29N 31°29' E 121°25'151147.1
2017-Apr-25 14:28N 31°21' E 121°39'5389.0
2017-Apr-25 14:27N 31°24' E 121°34'4591013.3
2017-Apr-25 14:00N 24°25' E 118°04'46553949.3
2017-Apr-25 14:00N 31°38' E 121°15'26281.3
2017-Apr-25 13:54N 31°21' E 121°39'17478.4
2017-Apr-25 13:52N 31°30' E 121°23'2260.1
2017-Apr-25 13:30N 31°17' E 121°43'456102619.0
2017-Apr-25 13:30N 24°25' E 118°04'45732924.4
2017-Apr-25 13:29N 31°20' E 121°39'17154.7
2017-Apr-25 13:22N 31°30' E 121°23'287.3
2017-Apr-25 13:21N 31°29' E 121°25'15304.4
2017-Apr-25 13:18N 31°39' E 121°12'24304.2
2017-Apr-25 13:14N 31°24' E 121°34'11249.9
2017-Apr-25 13:11N 31°31' E 121°23'11194.3
2017-Apr-25 13:07N 31°38' E 121°14'472.4
2017-Apr-25 13:04N 31°42' E 121°10'361249.3
2017-Apr-25 13:02N 31°19' E 121°43'45717139.7
2017-Apr-25 13:00N 24°25' E 118°04'45763243.3
2017-Apr-25 13:00N 31°18' E 121°43'0125.2
2017-Apr-25 13:00N 31°19' E 121°43'119.7
2017-Apr-25 12:58N 31°18' E 121°42'9618.4
2017-Apr-25 12:57N 31°24' E 121°34'11437.0
2017-Apr-25 12:56N 31°30' E 121°23'013.9
2017-Apr-25 12:55N 31°31' E 121°23'121066.7
2017-Apr-25 12:54N 31°39' E 121°12'15281.5
2017-Apr-25 12:51N 31°29' E 121°25'13102.6
2017-Apr-25 12:43N 31°38' E 121°14'499.1
2017-Apr-25 12:40N 31°42' E 121°10'4672768.7
2017-Apr-25 12:30N 24°25' E 118°04'456410497.6
2017-Apr-25 12:30N 31°17' E 121°45'53623.8
2017-Apr-25 12:30N 31°20' E 121°41'54623.3
2017-Apr-25 12:30N 31°17' E 121°45'22538.9
2017-Apr-25 12:28N 31°29' E 121°25'131023.8
2017-Apr-25 12:27N 31°38' E 121°14'11872.0
2017-Apr-25 12:26N 31°31' E 121°23'0 6.2
2017-Apr-25 12:23N 31°30' E 121°23'11285.7
2017-Apr-25 12:21N 31°24' E 121°34'4591341.6
2017-Apr-25 12:00N 24°25' E 118°04'4581647387.7
2017-Apr-25 12:00N 31°21' E 121°38'69976.1
2017-Apr-25 12:00N 31°18' E 121°43'0103.1
2017-Apr-25 12:00N 31°18' E 121°43'33978.7
2017-Apr-25 11:58N 31°40' E 121°14'1410074.6
2017-Apr-25 11:58N 31°29' E 121°25'91005.7
2017-Apr-25 11:57N 31°24' E 121°34'11333.4
2017-Apr-25 11:55N 31°30' E 121°23'161565.4
2017-Apr-25 11:55N 31°42' E 121°10'15841.1
2017-Apr-25 11:54N 31°31' E 121°23'1239.9
2017-Apr-25 11:35N 31°24' E 121°35'218.0
2017-Apr-25 11:30N 31°23' E 121°34'4581647713.6
2017-Apr-25 11:30N 24°25' E 118°04'46043615.2
2017-Apr-25 11:30N 31°29' E 121°25'164819.2
2017-Apr-25 11:30N 31°20' E 121°40'185968.0
2017-Apr-25 11:29N 31°31' E 121°23'171842.0
2017-Apr-25 11:29N 31°20' E 121°40'336196.0
2017-Apr-25 11:29N 31°42' E 121°10'373.3
2017-Apr-25 11:26N 31°39' E 121°12'248560.3
2017-Apr-25 11:26N 31°24' E 121°34'11821.8
2017-Apr-25 11:25N 31°30' E 121°23'12155.2
2017-Apr-25 11:20N 31°24' E 121°35'4591379.7
2017-Apr-25 11:01N 24°25' E 118°04'45822567.1
2017-Apr-25 10:59N 31°22' E 121°37'30580.1
2017-Apr-25 10:56N 31°42' E 121°10'272012.9
2017-Apr-25 10:55N 31°24' E 121°35'12898.9
2017-Apr-25 10:55N 31°30' E 121°23'010.6
2017-Apr-25 10:53N 31°31' E 121°23'13136.7
2017-Apr-25 10:47N 31°40' E 121°12'15141.6
2017-Apr-25 10:41N 31°29' E 121°25'4602549.8
2017-Apr-25 10:30N 24°25' E 118°04'45868648.0
2017-Apr-25 10:30N 31°23' E 121°33'9637.2
2017-Apr-25 10:29N 31°29' E 121°25'1056.3
2017-Apr-25 10:18N 31°24' E 121°35'27358.7
2017-Apr-25 10:14N 31°42' E 121°10'15148.9
2017-Apr-25 10:08N 31°31' E 121°23'045.8
2017-Apr-25 10:07N 31°30' E 121°23'4614155.8
2017-Apr-25 10:01N 24°25' E 118°04'46731709.7
2017-Apr-25 10:00N 31°42' E 121°10'181264.2
2017-Apr-25 09:59N 31°29' E 121°25'9104.5
2017-Apr-25 09:53N 31°24' E 121°34'1180.9
2017-Apr-25 09:45N 31°30' E 121°23'12430.4
2017-Apr-25 09:43N 31°39' E 121°14'1284.7
2017-Apr-25 09:35N 31°31' E 121°23'4615779.8
2017-Apr-25 09:30N 24°25' E 118°04'46040423.4
2017-Apr-25 09:30N 31°29' E 121°25'182180.2
2017-Apr-25 09:29N 31°42' E 121°10'273182.2
2017-Apr-25 09:29N 31°24' E 121°35'12444.2
2017-Apr-25 09:27N 31°31' E 121°23'122994.8
2017-Apr-25 09:27N 31°39' E 121°13'12544.4
2017-Apr-25 09:25N 31°30' E 121°23'1037.8
2017-Apr-25 09:10N 31°22' E 121°30'4553007.4
2017-Apr-25 09:01N 24°25' E 118°04'46764638.9
2017-Apr-25 09:00N 31°42' E 121°10'27394.5
2017-Apr-25 08:56N 31°24' E 121°35'12554.4
2017-Apr-25 08:55N 31°31' E 121°23'037.1
2017-Apr-25 08:54N 31°30' E 121°23'36521918.7
2017-Apr-25 08:53N 37°24' E 119°33'3744803.3
2017-Apr-25 08:48N 31°24' E 121°34'431.8
2017-Apr-25 08:41N 31°22' E 121°30'23375.6
2017-Apr-25 08:37N 31°39' E 121°13'4654273.7
2017-Apr-25 08:30N 24°25' E 118°04'46518614.2
2017-Apr-25 08:29N 31°39' E 121°13'131827.3
2017-Apr-25 08:28N 31°30' E 121°23'0 7.6
2017-Apr-25 08:26N 31°31' E 121°23'151048.3
2017-Apr-25 08:25N 31°42' E 121°10'18186.6
2017-Apr-25 08:20N 31°29' E 121°25'91656.3
2017-Apr-25 08:19N 31°24' E 121°34'135.6
2017-Apr-25 08:18N 31°24' E 121°35'4591575.7
2017-Apr-25 08:00N 24°25' E 118°04'46014411.8
2017-Apr-25 07:58N 31°29' E 121°25'101790.5
2017-Apr-25 07:58N 31°24' E 121°35'122575.8
2017-Apr-25 07:58N 31°31' E 121°23'111245.1
2017-Apr-25 07:57N 31°24' E 121°34'11514.3
2017-Apr-25 07:56N 31°30' E 121°23'162358.8
2017-Apr-25 07:56N 31°42' E 121°10'324.1
2017-Apr-25 07:48N 31°39' E 121°13'23125.6
2017-Apr-25 07:37N 31°22' E 121°30'4554087.6
2017-Apr-25 07:30N 24°25' E 118°04'46075333.8
2017-Apr-25 07:30N 31°29' E 121°25'2190.4
2017-Apr-25 07:29N 31°31' E 121°23'0 8.1
2017-Apr-25 07:27N 31°30' E 121°23'134552.2
2017-Apr-25 07:27N 31°39' E 121°13'24505.0
2017-Apr-25 07:24N 31°24' E 121°34'271216.9
2017-Apr-25 07:23N 31°42' E 121°10'4671229.6
2017-Apr-25 07:00N 24°25' E 118°04'45916036.1
2017-Apr-25 06:59N 31°24' E 121°34'9294.2
2017-Apr-25 06:57N 31°29' E 121°25'2226.9
2017-Apr-25 06:56N 31°30' E 121°23'1357.1
2017-Apr-25 06:43N 31°39' E 121°13'1360.2
2017-Apr-25 06:30N 31°30' E 121°23'2197.1
2017-Apr-25 06:30N 31°29' E 121°25'460414370.6
2017-Apr-25 06:30N 24°25' E 118°04'46710064.4
2017-Apr-25 06:27N 31°42' E 121°10'27379.1
2017-Apr-25 06:23N 31°24' E 121°34'938.7
2017-Apr-25 06:08N 31°29' E 121°25'4613557.6
2017-Apr-25 06:01N 24°25' E 118°04'46128586.1
2017-Apr-25 06:00N 31°30' E 121°23'234.7
2017-Apr-25 05:56N 31°29' E 121°25'181978.5
2017-Apr-25 05:56N 31°42' E 121°10'3103.2
2017-Apr-25 05:54N 31°39' E 121°13'24564.8
2017-Apr-25 05:51N 31°24' E 121°34'4591320.2
2017-Apr-25 05:30N 24°25' E 118°04'4597902.9
2017-Apr-25 05:27N 31°24' E 121°34'4591044.7
2017-Apr-25 05:00N 24°25' E 118°04'0 0.0
2017-Apr-25 04:30N 24°25' E 118°04'0 0.0
2017-Apr-25 03:09N 24°25' E 118°04'0 0.0
2017-Apr-25 03:00N 24°25' E 118°04'0 0.0
2017-Apr-25 02:30N 24°25' E 118°04'4481521.7
2017-Apr-25 02:13N 31°14' E 121°29'4482173.8
2017-Apr-25 02:00N 24°25' E 118°04'449538803.0
2017-Apr-25 02:00N 31°15' E 121°30'449897.5
2017-Apr-25 01:30N 24°25' E 118°04'0 0.0
2017-Apr-25 01:00N 24°25' E 118°04'0 0.0
2017-Apr-25 00:30N 24°25' E 118°04'0 0.0
2017-Apr-25 00:00N 24°25' E 118°04'0 0.0
2017-Apr-24 23:30N 24°25' E 118°04'0 0.0
2017-Apr-24 23:00N 24°25' E 118°04'0 0.0
2017-Apr-24 22:30N 24°25' E 118°04'0 0.0
2017-Apr-24 22:00N 24°25' E 118°04'4501930.5
2017-Apr-24 21:46N 31°15' E 121°32'4501706.7
2017-Apr-24 21:31N 24°25' E 118°04'449161605.7
2017-Apr-24 21:30N 31°15' E 121°30'449895.8
2017-Apr-24 21:00N 24°25' E 118°04'0 0.0
2017-Apr-24 20:30N 24°25' E 118°04'0 0.0
2017-Apr-24 20:00N 24°25' E 118°04'0 0.0
2017-Apr-24 19:30N 24°25' E 118°04'0 0.0
2017-Apr-24 19:00N 24°25' E 118°04'4535161.8
2017-Apr-24 18:55N 31°18' E 121°34'2 5.4
2017-Apr-24 18:31N 31°16' E 121°33'45141632.7
2017-Apr-24 18:30N 24°25' E 118°04'449917.0
2017-Apr-24 18:00N 31°15' E 121°31'449202077.3
2017-Apr-24 18:00N 24°25' E 118°04'7822246.1
2017-Apr-24 17:39N 37°23' E 119°34'0 0.0
2017-Apr-24 17:30N 37°23' E 119°34'782281442.3
2017-Apr-24 17:30N 24°25' E 118°04'0 0.0
2017-Apr-24 17:00N 24°25' E 118°04'0 0.0
2017-Apr-24 16:30N 24°25' E 118°04'0 0.0
2017-Apr-24 16:00N 24°25' E 118°04'7825289.9
2017-Apr-24 15:51N 37°23' E 119°34'0 0.0
2017-Apr-24 15:30N 37°23' E 119°34'782312692.2
2017-Apr-24 15:30N 24°25' E 118°04'0 0.0
2017-Apr-24 15:00N 24°25' E 118°04'78216267.2
2017-Apr-24 14:57N 37°23' E 119°34'7821736.1
2017-Apr-24 14:30N 24°25' E 118°04'78215722.4
2017-Apr-24 14:27N 37°23' E 119°34'782817.6
2017-Apr-24 13:30N 24°25' E 118°04'0 0.0
2017-Apr-24 13:00N 24°25' E 118°04'0 0.0
2017-Apr-24 12:30N 24°25' E 118°04'0 0.0
2017-Apr-24 12:00N 24°25' E 118°04'0 0.0
2017-Apr-24 11:30N 24°25' E 118°04'0 0.0
2017-Apr-24 11:00N 24°25' E 118°04'4501546.5
2017-Apr-24 10:43N 31°15' E 121°33'2 7.3
2017-Apr-24 10:30N 31°15' E 121°31'449539028.8
2017-Apr-24 10:30N 24°25' E 118°04'0 0.0
2017-Apr-24 10:01N 24°25' E 118°04'0 0.0
2017-Apr-24 09:30N 24°25' E 118°04'0 0.0
2017-Apr-24 09:00N 24°25' E 118°04'0 0.0
2017-Apr-24 08:30N 24°25' E 118°04'0 0.0
2017-Apr-24 08:00N 24°25' E 118°04'0 0.0
2017-Apr-24 07:30N 24°25' E 118°04'0 0.0
2017-Apr-24 07:00N 24°25' E 118°04'0 0.0
2017-Apr-24 06:30N 24°25' E 118°04'4711321.3
2017-Apr-24 06:08N 31°58' E 120°25'4713415.1
2017-Apr-24 06:00N 24°25' E 118°04'4717339.6
2017-Apr-24 05:56N 31°59' E 120°27'4711106.0
2017-Apr-24 05:30N 24°25' E 118°04'47117851.5
2017-Apr-24 05:29N 31°59' E 120°27'471995.2
2017-Apr-24 05:01N 24°25' E 118°04'47116958.9
2017-Apr-24 04:59N 31°59' E 120°27'471991.2
2017-Apr-24 04:30N 24°25' E 118°04'4513952.8
2017-Apr-24 04:23N 31°16' E 121°33'4511170.5
2017-Apr-24 04:00N 24°25' E 118°04'45018607.6
2017-Apr-24 03:59N 31°15' E 121°32'2 4.3
2017-Apr-24 03:30N 31°15' E 121°30'449179403.7
2017-Apr-24 03:30N 24°25' E 118°04'0 0.0
2017-Apr-24 03:00N 24°25' E 118°04'0 0.0
2017-Apr-24 02:30N 24°25' E 118°04'0 0.0
2017-Apr-24 02:00N 24°25' E 118°04'4481824.2
2017-Apr-24 01:46N 31°14' E 121°29'691514.8
2017-Apr-24 01:43N 31°59' E 120°27'4712252.2
2017-Apr-24 01:30N 24°25' E 118°04'44967357.7
2017-Apr-24 01:30N 31°15' E 121°30'6927744.6
2017-Apr-24 01:30N 31°59' E 120°27'471961.9
2017-Apr-24 01:00N 24°25' E 118°04'4481524.8
2017-Apr-24 00:43N 31°14' E 121°29'4482177.0
2017-Apr-24 00:30N 24°25' E 118°04'44936731.3
2017-Apr-24 00:30N 31°15' E 121°30'69158.3
2017-Apr-24 00:04N 31°59' E 120°27'4718925.7
2017-Apr-24 00:00N 24°25' E 118°04'47130283.8
2017-Apr-23 23:59N 31°59' E 120°27'471966.3
2017-Apr-23 23:30N 24°25' E 118°04'0 0.0
2017-Apr-23 23:00N 24°25' E 118°04'0 0.0
2017-Apr-23 22:30N 24°25' E 118°04'0 0.0
2017-Apr-23 22:01N 24°25' E 118°04'4712342.4
2017-Apr-23 21:48N 31°59' E 120°27'4711550.2
2017-Apr-23 21:30N 24°25' E 118°04'4711761.1
2017-Apr-23 21:14N 31°59' E 120°27'4712045.7
2017-Apr-23 21:00N 24°25' E 118°04'4712687.7
2017-Apr-23 20:50N 31°59' E 120°27'4711459.5
2017-Apr-23 20:30N 24°25' E 118°04'4718037.5
2017-Apr-23 20:27N 31°59' E 120°27'4711063.9
2017-Apr-23 20:00N 24°25' E 118°04'4712298.0
2017-Apr-23 19:48N 31°59' E 120°27'4711596.9
2017-Apr-23 19:30N 24°25' E 118°04'4713647.1
2017-Apr-23 19:23N 31°59' E 120°27'4711275.1
2017-Apr-23 19:00N 24°25' E 118°04'47120432.7
2017-Apr-23 18:59N 31°59' E 120°27'471987.7
2017-Apr-23 18:30N 24°25' E 118°04'4712409.0
2017-Apr-23 18:19N 31°59' E 120°27'1 4.0
2017-Apr-23 18:03N 31°58' E 120°26'0 6.1
2017-Apr-23 18:00N 31°58' E 120°26'1 5.6
2017-Apr-23 17:53N 31°59' E 120°27'4711266.6
2017-Apr-23 17:31N 24°25' E 118°04'4711694.2
2017-Apr-23 17:14N 31°59' E 120°27'4712119.9
2017-Apr-23 17:01N 24°25' E 118°04'4718479.7
2017-Apr-23 16:57N 31°59' E 120°27'4711060.0
2017-Apr-23 16:31N 24°25' E 118°04'4712398.8
2017-Apr-23 16:19N 31°59' E 120°27'4711518.3
2017-Apr-23 16:00N 24°25' E 118°04'0 0.0
2017-Apr-23 15:31N 24°25' E 118°04'0 0.0
2017-Apr-23 15:00N 24°25' E 118°04'4712055.7
2017-Apr-23 14:47N 31°59' E 120°27'471614.0
2017-Apr-23 14:01N 24°25' E 118°04'47149880.3
2017-Apr-23 14:00N 31°59' E 120°27'471960.3
2017-Apr-23 13:31N 24°25' E 118°04'4714359.7
2017-Apr-23 13:24N 31°59' E 120°27'4711198.5
2017-Apr-23 13:00N 24°25' E 118°04'47116151.7
2017-Apr-23 12:59N 31°59' E 120°27'4711001.1
2017-Apr-23 12:30N 24°25' E 118°04'4713872.0
2017-Apr-23 12:23N 31°59' E 120°27'4711241.5
2017-Apr-23 12:00N 24°25' E 118°04'4711064.7
2017-Apr-23 11:34N 31°59' E 120°27'4718114.8
2017-Apr-23 11:30N 24°25' E 118°04'0 0.0
2017-Apr-23 11:00N 24°25' E 118°04'0 0.0
2017-Apr-23 10:30N 24°25' E 118°04'0 0.0
2017-Apr-23 10:00N 24°25' E 118°04'0 0.0
2017-Apr-23 09:30N 24°25' E 118°04'0 0.0
2017-Apr-23 09:00N 24°25' E 118°04'0 0.0
2017-Apr-23 08:31N 24°25' E 118°04'0 0.0
2017-Apr-23 08:01N 24°25' E 118°04'0 0.0
2017-Apr-23 07:31N 24°25' E 118°04'0 0.0
2017-Apr-23 07:01N 24°25' E 118°04'4712160.4
2017-Apr-23 06:47N 31°59' E 120°27'0 0.0
2017-Apr-23 06:30N 31°59' E 120°27'0 0.0
2017-Apr-23 05:57N 31°59' E 120°27'1 3.6
2017-Apr-23 05:45N 31°58' E 120°26'1 1.7
2017-Apr-23 05:20N 31°59' E 120°27'4713345.2
2017-Apr-23 05:11N 24°25' E 118°04'0 0.0
2017-Apr-23 05:00N 24°25' E 118°04'4715202.4
2017-Apr-23 04:55N 31°59' E 120°27'4711153.7
2017-Apr-23 04:30N 24°25' E 118°04'47170666.4
2017-Apr-23 04:30N 31°59' E 120°27'471953.3
2017-Apr-23 04:00N 24°25' E 118°04'47141365.7
2017-Apr-23 04:00N 31°59' E 120°27'471971.4
2017-Apr-23 03:31N 24°25' E 118°04'4713454.2
2017-Apr-23 03:22N 31°59' E 120°27'110.4
2017-Apr-23 03:15N 31°58' E 120°25'1 4.8
2017-Apr-23 03:00N 31°59' E 120°27'47147099.5
2017-Apr-23 02:59N 24°25' E 118°04'4711112.7
2017-Apr-23 02:34N 31°59' E 120°27'4718231.9
2017-Apr-23 02:31N 24°25' E 118°04'47151386.6
2017-Apr-23 02:30N 31°59' E 120°27'0 3.1
2017-Apr-23 02:30N 31°59' E 120°27'69143.7
2017-Apr-23 02:01N 31°14' E 121°29'44840333.1
2017-Apr-23 02:00N 24°25' E 118°04'47120430.8
2017-Apr-23 01:59N 31°59' E 120°27'692856.8
2017-Apr-23 01:57N 31°15' E 121°29'69396.4
2017-Apr-23 01:47N 31°58' E 120°27'4711668.6
2017-Apr-23 01:30N 24°25' E 118°04'450147126.6
2017-Apr-23 01:30N 31°15' E 121°32'450912.8
2017-Apr-23 01:00N 24°25' E 118°04'4714474.3
2017-Apr-23 00:54N 31°59' E 120°27'4711201.8
2017-Apr-23 00:31N 24°25' E 118°04'4714370.5
2017-Apr-23 00:24N 31°59' E 120°27'4711201.8
2017-Apr-23 00:01N 24°25' E 118°04'4718152.7
2017-Apr-22 23:57N 31°59' E 120°27'4711055.2
2017-Apr-22 23:30N 24°25' E 118°04'4711554.3
2017-Apr-22 23:12N 31°59' E 120°27'4712439.9
2017-Apr-22 23:01N 24°25' E 118°04'4713001.3
2017-Apr-22 22:51N 31°59' E 120°27'4711374.2
2017-Apr-22 22:31N 24°25' E 118°04'4711440.8
2017-Apr-22 22:11N 31°59' E 120°27'4712708.9
2017-Apr-22 22:00N 24°25' E 118°04'47184788.8
2017-Apr-22 22:00N 31°59' E 120°27'471946.3
2017-Apr-22 21:30N 24°25' E 118°04'471282629.5
2017-Apr-22 21:30N 31°59' E 120°27'471952.7
2017-Apr-22 21:01N 24°25' E 118°04'47189251.4
2017-Apr-22 21:00N 31°59' E 120°27'0 0.0
2017-Apr-22 20:30N 31°59' E 120°27'47162805.8
2017-Apr-22 20:30N 24°25' E 118°04'471957.0
2017-Apr-22 20:00N 31°59' E 120°27'471423939.0
2017-Apr-22 20:00N 24°25' E 118°04'0 0.0
2017-Apr-22 19:30N 24°25' E 118°04'47127799.6
2017-Apr-22 19:29N 31°59' E 120°27'0 0.0
2017-Apr-22 19:00N 31°59' E 120°27'47177080.8
2017-Apr-22 19:00N 24°25' E 118°04'0 0.0
2017-Apr-22 18:30N 24°25' E 118°04'4714658.7
2017-Apr-22 18:24N 31°59' E 120°27'4711180.1
2017-Apr-22 18:00N 24°25' E 118°04'4711695756.2
2017-Apr-22 18:00N 31°59' E 120°27'471947.3
2017-Apr-22 17:31N 24°25' E 118°04'471188417.4
2017-Apr-22 17:30N 31°59' E 120°27'471939.5
2017-Apr-22 17:00N 24°25' E 118°04'4712381.7
2017-Apr-22 16:48N 31°59' E 120°27'4711574.5
2017-Apr-22 16:30N 24°25' E 118°04'4714684.4
2017-Apr-22 16:24N 31°59' E 120°27'4711173.5
2017-Apr-22 16:00N 24°25' E 118°04'47120187.6
2017-Apr-22 15:59N 31°59' E 120°27'471987.6
2017-Apr-22 15:30N 24°25' E 118°04'0 0.0
2017-Apr-22 15:00N 24°25' E 118°04'0 0.0
2017-Apr-22 14:31N 24°25' E 118°04'4721400.1
2017-Apr-22 14:10N 31°60' E 120°27'2100.0
2017-Apr-22 14:09N 31°58' E 120°26'1 1.9
2017-Apr-22 13:49N 31°59' E 120°27'4711545.8
2017-Apr-22 13:30N 24°25' E 118°04'4713248.6
2017-Apr-22 13:22N 31°59' E 120°27'4711325.8
2017-Apr-22 13:00N 24°25' E 118°04'0 0.0
2017-Apr-22 12:30N 24°25' E 118°04'0 0.0
2017-Apr-22 12:00N 24°25' E 118°04'0 0.0
2017-Apr-22 11:30N 24°25' E 118°04'0 0.0
2017-Apr-22 11:00N 24°25' E 118°04'47110598.2
2017-Apr-22 10:58N 31°59' E 120°27'4711035.9
2017-Apr-22 10:30N 24°25' E 118°04'4714972.8
2017-Apr-22 10:25N 31°59' E 120°27'4711148.9
2017-Apr-22 10:00N 24°25' E 118°04'4719911.6
2017-Apr-22 09:57N 31°58' E 120°26'4711051.4
2017-Apr-22 09:30N 24°25' E 118°04'0 0.0
2017-Apr-22 09:00N 24°25' E 118°04'0 0.0
2017-Apr-22 08:30N 24°25' E 118°04'0 0.0
2017-Apr-22 08:00N 24°25' E 118°04'0 0.0
2017-Apr-22 07:30N 24°25' E 118°04'4711145.8
2017-Apr-22 07:06N 31°59' E 120°27'4715417.7
2017-Apr-22 07:00N 24°25' E 118°04'0 0.0
2017-Apr-22 06:30N 24°25' E 118°04'0 0.0
2017-Apr-22 06:01N 24°25' E 118°04'0 0.0
2017-Apr-22 05:31N 24°25' E 118°04'0 0.0
2017-Apr-22 05:00N 24°25' E 118°04'0 0.0
2017-Apr-22 04:30N 24°25' E 118°04'0 0.0
2017-Apr-22 04:01N 24°25' E 118°04'0 0.0
2017-Apr-22 03:30N 24°25' E 118°04'0 0.0
2017-Apr-22 03:00N 24°25' E 118°04'0 0.0
2017-Apr-22 02:29N 24°25' E 118°04'0 0.0
2017-Apr-22 02:00N 24°25' E 118°04'0 0.0
2017-Apr-22 01:31N 24°25' E 118°04'0 0.0
2017-Apr-22 01:01N 24°25' E 118°04'0 0.0
2017-Apr-22 00:30N 24°25' E 118°04'4487400.5
2017-Apr-22 00:27N 31°14' E 121°29'4481017.2
2017-Apr-22 00:00N 24°25' E 118°04'449323561.4
2017-Apr-22 00:00N 31°15' E 121°31'449903.3
2017-Apr-21 23:30N 24°25' E 118°04'4481379.8
2017-Apr-21 23:11N 31°14' E 121°29'4482393.1
2017-Apr-21 23:00N 24°25' E 118°04'44910101.3
2017-Apr-21 22:57N 31°15' E 121°30'4491005.7
2017-Apr-21 22:30N 24°25' E 118°04'0 0.0
2017-Apr-21 22:00N 24°25' E 118°04'0 0.0
2017-Apr-21 21:31N 24°25' E 118°04'0 0.0
2017-Apr-21 21:00N 24°25' E 118°04'0 0.0
2017-Apr-21 20:30N 24°25' E 118°04'1086.4
2017-Apr-21 20:23N 24°34' E 118°08'1025.9
2017-Apr-21 20:00N 24°25' E 118°04'0 0.0
2017-Apr-21 19:30N 24°25' E 118°04'0 0.0
2017-Apr-21 19:00N 24°25' E 118°04'0 0.0
2017-Apr-21 18:30N 24°25' E 118°04'0 0.0
2017-Apr-21 18:01N 24°25' E 118°04'0 0.0
2017-Apr-21 17:30N 24°25' E 118°04'4711907.6
2017-Apr-21 17:16N 31°58' E 120°26'4711807.9
2017-Apr-21 17:00N 24°25' E 118°04'0 0.0
2017-Apr-21 16:30N 24°25' E 118°04'0 0.0
2017-Apr-21 16:00N 24°25' E 118°04'0 0.0
2017-Apr-21 15:30N 24°25' E 118°04'0 0.0
2017-Apr-21 15:00N 24°25' E 118°04'0 0.0
2017-Apr-21 14:29N 24°25' E 118°04'0 0.0
2017-Apr-21 13:30N 24°25' E 118°04'0 0.0
2017-Apr-21 13:00N 24°25' E 118°04'0 0.0
2017-Apr-21 12:31N 24°25' E 118°04'4492473.5
2017-Apr-21 12:20N 31°15' E 121°30'4491408.2
2017-Apr-21 12:01N 24°25' E 118°04'0 0.0
2017-Apr-21 11:30N 24°25' E 118°04'0 0.0
2017-Apr-21 11:00N 24°25' E 118°04'0 0.0
2017-Apr-21 10:30N 24°25' E 118°04'4489898.5
2017-Apr-21 10:28N 31°14' E 121°29'448984.4
2017-Apr-21 10:00N 24°25' E 118°04'4507192.1
2017-Apr-21 09:57N 31°15' E 121°32'4491024.8
2017-Apr-21 09:30N 24°25' E 118°04'0 0.0
2017-Apr-21 09:01N 24°25' E 118°04'0 0.0
2017-Apr-21 08:31N 24°25' E 118°04'0 0.0
2017-Apr-21 08:00N 24°25' E 118°04'0 0.0
2017-Apr-21 07:30N 24°25' E 118°04'829356.4
2017-Apr-21 05:11N 37°51' E 121°49'2 8.5
2017-Apr-21 04:57N 37°50' E 121°51'829419.8
2017-Apr-21 02:59N 24°25' E 118°04'0 0.0
2017-Apr-21 02:30N 24°25' E 118°04'0 0.0
2017-Apr-21 02:00N 24°25' E 118°04'0 0.0
2017-Apr-21 01:30N 24°25' E 118°04'0 0.0
2017-Apr-21 01:00N 24°25' E 118°04'0 0.0
2017-Apr-21 00:30N 24°25' E 118°04'0 0.0
2017-Apr-21 00:00N 24°25' E 118°04'0 0.0
2017-Apr-20 23:30N 24°25' E 118°04'590119311.3
2017-Apr-20 23:12N 49°18' W 123°02'1 5.0
2017-Apr-20 23:01N 49°18' W 123°03'5900849547.3
2017-Apr-20 23:00N 24°25' E 118°04'0 0.0
2017-Apr-20 22:31N 24°25' E 118°04'5896816328.0
2017-Apr-20 22:30N 49°19' W 123°08'589611910.5
2017-Apr-20 22:00N 24°25' E 118°04'589339949.8
2017-Apr-20 21:52N 49°18' W 123°12'589316677.2
2017-Apr-20 21:30N 24°25' E 118°04'5892471359.2
2017-Apr-20 21:30N 49°18' W 123°13'589212162.4
2017-Apr-20 21:01N 24°25' E 118°04'5892441916.0
2017-Apr-20 21:00N 49°19' W 123°12'589211977.4
2017-Apr-20 20:30N 24°25' E 118°04'5888730897.9
2017-Apr-20 20:30N 49°19' W 123°18'588812098.2
2017-Apr-20 20:01N 24°25' E 118°04'58831412012.2
2017-Apr-20 20:00N 49°20' W 123°23'588311865.6
2017-Apr-20 19:31N 24°25' E 118°04'58801628372.9
2017-Apr-20 19:30N 49°21' W 123°27'588011832.8
2017-Apr-20 19:00N 24°25' E 118°04'5879133960.5
2017-Apr-20 18:58N 49°22' W 123°27'587912851.1
2017-Apr-20 18:30N 24°25' E 118°04'0 0.0
2017-Apr-20 18:01N 24°25' E 118°04'587975591.5
2017-Apr-20 17:56N 49°22' W 123°27'587913842.8
2017-Apr-20 17:30N 24°25' E 118°04'5879166658.4
2017-Apr-20 17:28N 49°22' W 123°27'587912666.4
2017-Apr-20 17:00N 24°25' E 118°04'58802116631.7
2017-Apr-20 17:00N 49°22' W 123°27'1 1.1
2017-Apr-20 16:30N 49°22' W 123°26'5880431994.9
2017-Apr-20 16:29N 24°25' E 118°04'0 0.0
2017-Apr-20 16:00N 24°25' E 118°04'5878311210.4
2017-Apr-20 15:59N 49°25' W 123°27'587812239.6
2017-Apr-20 15:30N 24°25' E 118°04'0 0.0
2017-Apr-20 15:00N 24°25' E 118°04'0 0.0
2017-Apr-20 14:30N 24°25' E 118°04'0 0.0
2017-Apr-20 13:30N 24°25' E 118°04'0 0.0
2017-Apr-20 13:00N 24°25' E 118°04'0 0.0
2017-Apr-20 12:30N 24°25' E 118°04'0 0.0
2017-Apr-20 12:00N 24°25' E 118°04'0 0.0
2017-Apr-20 11:30N 24°25' E 118°04'0 0.0
2017-Apr-20 11:00N 24°25' E 118°04'0 0.0
2017-Apr-20 10:30N 24°25' E 118°04'0 0.0
2017-Apr-20 10:00N 24°25' E 118°04'0 0.0
2017-Apr-20 09:29N 24°25' E 118°04'0 0.0
2017-Apr-20 09:01N 24°25' E 118°04'7831931.7
2017-Apr-20 08:36N 37°26' E 119°10'7838058.1
2017-Apr-20 08:30N 24°25' E 118°04'784201653.3
2017-Apr-20 08:30N 37°27' E 119°10'7841579.0
2017-Apr-20 08:00N 24°25' E 118°04'0 0.0
2017-Apr-20 07:30N 24°25' E 118°04'2504127.5
2017-Apr-20 07:26N 22°18' E 114°09'250582.4
2017-Apr-20 07:00N 24°25' E 118°04'4501207.6
2017-Apr-20 06:38N 31°15' E 121°32'1 7.6
2017-Apr-20 06:30N 31°15' E 121°31'449404471.0
2017-Apr-20 06:30N 24°25' E 118°04'0 0.0
2017-Apr-20 06:01N 24°25' E 118°04'0 0.0
2017-Apr-20 05:30N 24°25' E 118°04'  

Dump ship's entire track history